<?xml version="1.0" encoding="UTF-8" standalone="no" ?>
<gpx xmlns="http://www.topografix.com/GPX/1/1" xmlns:xsi="http://www.w3.org/2001/XMLSchema-instance" xsi:schemaLocation="http://www.topografix.com/GPX/1/1 http://www.topografix.com/GPX/1/1/gpx.xsd" version="1.1" creator="VisuGPX - https://www.visugpx.com">
  <metadata>
    <name>Rando - Tour du Lac de Charpal</name>
    <desc><![CDATA[Très belle rando avec Soizic et Pirun.]]></desc>
  </metadata>
  <trk>
    <name><![CDATA[08-AOU-20 15:16:18]]></name>
    <trkseg>
      <trkpt lat="44.61218" lon="3.55973">
        <ele>1253.22</ele>
        <time>2020-08-08T09:39:13Z</time>
      </trkpt>
      <trkpt lat="44.61215" lon="3.55977">
        <ele>1252.74</ele>
        <time>2020-08-08T09:39:17Z</time>
      </trkpt>
      <trkpt lat="44.61214" lon="3.55979">
        <ele>1258.02</ele>
        <time>2020-08-08T09:39:34Z</time>
      </trkpt>
      <trkpt lat="44.61214" lon="3.55979">
        <ele>1262.83</ele>
        <time>2020-08-08T09:39:35Z</time>
      </trkpt>
      <trkpt lat="44.61214" lon="3.55979">
        <ele>1267.16</ele>
        <time>2020-08-08T09:39:36Z</time>
      </trkpt>
      <trkpt lat="44.61214" lon="3.55979">
        <ele>1271.48</ele>
        <time>2020-08-08T09:39:37Z</time>
      </trkpt>
      <trkpt lat="44.61214" lon="3.55978">
        <ele>1274.85</ele>
        <time>2020-08-08T09:39:38Z</time>
      </trkpt>
      <trkpt lat="44.61214" lon="3.55978">
        <ele>1279.17</ele>
        <time>2020-08-08T09:39:39Z</time>
      </trkpt>
      <trkpt lat="44.61214" lon="3.55978">
        <ele>1283.02</ele>
        <time>2020-08-08T09:39:40Z</time>
      </trkpt>
      <trkpt lat="44.61215" lon="3.55978">
        <ele>1286.86</ele>
        <time>2020-08-08T09:39:41Z</time>
      </trkpt>
      <trkpt lat="44.61215" lon="3.55979">
        <ele>1290.23</ele>
        <time>2020-08-08T09:39:42Z</time>
      </trkpt>
      <trkpt lat="44.61215" lon="3.55979">
        <ele>1293.59</ele>
        <time>2020-08-08T09:39:43Z</time>
      </trkpt>
      <trkpt lat="44.61216" lon="3.55979">
        <ele>1296.96</ele>
        <time>2020-08-08T09:39:44Z</time>
      </trkpt>
      <trkpt lat="44.61216" lon="3.5598">
        <ele>1296.48</ele>
        <time>2020-08-08T09:39:45Z</time>
      </trkpt>
      <trkpt lat="44.61216" lon="3.5598">
        <ele>1306.09</ele>
        <time>2020-08-08T09:39:46Z</time>
      </trkpt>
      <trkpt lat="44.61216" lon="3.5598">
        <ele>1309.45</ele>
        <time>2020-08-08T09:39:48Z</time>
      </trkpt>
      <trkpt lat="44.61216" lon="3.5598">
        <ele>1307.53</ele>
        <time>2020-08-08T09:39:49Z</time>
      </trkpt>
      <trkpt lat="44.61217" lon="3.5598">
        <ele>1318.1</ele>
        <time>2020-08-08T09:39:50Z</time>
      </trkpt>
      <trkpt lat="44.61217" lon="3.5598">
        <ele>1323.87</ele>
        <time>2020-08-08T09:39:52Z</time>
      </trkpt>
      <trkpt lat="44.61217" lon="3.55981">
        <ele>1322.91</ele>
        <time>2020-08-08T09:39:53Z</time>
      </trkpt>
      <trkpt lat="44.61217" lon="3.5598">
        <ele>1327.24</ele>
        <time>2020-08-08T09:39:55Z</time>
      </trkpt>
      <trkpt lat="44.61217" lon="3.5598">
        <ele>1324.35</ele>
        <time>2020-08-08T09:39:57Z</time>
      </trkpt>
      <trkpt lat="44.61217" lon="3.5598">
        <ele>1341.18</ele>
        <time>2020-08-08T09:39:58Z</time>
      </trkpt>
      <trkpt lat="44.61217" lon="3.5598">
        <ele>1336.85</ele>
        <time>2020-08-08T09:39:59Z</time>
      </trkpt>
      <trkpt lat="44.61215" lon="3.5598">
        <ele>1343.1</ele>
        <time>2020-08-08T09:40:02Z</time>
      </trkpt>
      <trkpt lat="44.61215" lon="3.5598">
        <ele>1338.77</ele>
        <time>2020-08-08T09:40:03Z</time>
      </trkpt>
      <trkpt lat="44.61215" lon="3.5598">
        <ele>1356.08</ele>
        <time>2020-08-08T09:40:05Z</time>
      </trkpt>
      <trkpt lat="44.61215" lon="3.5598">
        <ele>1339.25</ele>
        <time>2020-08-08T09:40:06Z</time>
      </trkpt>
      <trkpt lat="44.61215" lon="3.55979">
        <ele>1358.96</ele>
        <time>2020-08-08T09:40:07Z</time>
      </trkpt>
      <trkpt lat="44.61215" lon="3.55979">
        <ele>1346.94</ele>
        <time>2020-08-08T09:40:08Z</time>
      </trkpt>
      <trkpt lat="44.61215" lon="3.55979">
        <ele>1354.63</ele>
        <time>2020-08-08T09:40:09Z</time>
      </trkpt>
      <trkpt lat="44.61215" lon="3.5598">
        <ele>1358</ele>
        <time>2020-08-08T09:40:14Z</time>
      </trkpt>
      <trkpt lat="44.61215" lon="3.5598">
        <ele>1361.36</ele>
        <time>2020-08-08T09:40:17Z</time>
      </trkpt>
      <trkpt lat="44.61214" lon="3.5598">
        <ele>1364.73</ele>
        <time>2020-08-08T09:40:21Z</time>
      </trkpt>
      <trkpt lat="44.61215" lon="3.5598">
        <ele>1369.05</ele>
        <time>2020-08-08T09:40:25Z</time>
      </trkpt>
      <trkpt lat="44.61216" lon="3.55979">
        <ele>1372.42</ele>
        <time>2020-08-08T09:40:29Z</time>
      </trkpt>
      <trkpt lat="44.61216" lon="3.55979">
        <ele>1375.78</ele>
        <time>2020-08-08T09:40:33Z</time>
      </trkpt>
      <trkpt lat="44.61217" lon="3.5598">
        <ele>1379.15</ele>
        <time>2020-08-08T09:40:38Z</time>
      </trkpt>
      <trkpt lat="44.61216" lon="3.55981">
        <ele>1382.99</ele>
        <time>2020-08-08T09:40:43Z</time>
      </trkpt>
      <trkpt lat="44.61214" lon="3.55981">
        <ele>1385.88</ele>
        <time>2020-08-08T09:40:48Z</time>
      </trkpt>
      <trkpt lat="44.61214" lon="3.55981">
        <ele>1387.32</ele>
        <time>2020-08-08T09:40:51Z</time>
      </trkpt>
      <trkpt lat="44.61215" lon="3.55981">
        <ele>1390.68</ele>
        <time>2020-08-08T09:40:58Z</time>
      </trkpt>
      <trkpt lat="44.61224" lon="3.55985">
        <ele>1392.61</ele>
        <time>2020-08-08T09:41:09Z</time>
      </trkpt>
      <trkpt lat="44.61233" lon="3.55991">
        <ele>1394.05</ele>
        <time>2020-08-08T09:41:21Z</time>
      </trkpt>
      <trkpt lat="44.61237" lon="3.55996">
        <ele>1394.53</ele>
        <time>2020-08-08T09:41:25Z</time>
      </trkpt>
      <trkpt lat="44.61241" lon="3.55997">
        <ele>1394.05</ele>
        <time>2020-08-08T09:41:36Z</time>
      </trkpt>
      <trkpt lat="44.61242" lon="3.55997">
        <ele>1394.05</ele>
        <time>2020-08-08T09:41:37Z</time>
      </trkpt>
      <trkpt lat="44.61244" lon="3.55999">
        <ele>1387.8</ele>
        <time>2020-08-08T09:41:47Z</time>
      </trkpt>
      <trkpt lat="44.61244" lon="3.55999">
        <ele>1393.57</ele>
        <time>2020-08-08T09:41:48Z</time>
      </trkpt>
      <trkpt lat="44.61244" lon="3.55999">
        <ele>1397.89</ele>
        <time>2020-08-08T09:41:49Z</time>
      </trkpt>
      <trkpt lat="44.61244" lon="3.55999">
        <ele>1393.09</ele>
        <time>2020-08-08T09:41:50Z</time>
      </trkpt>
      <trkpt lat="44.61244" lon="3.55999">
        <ele>1384.44</ele>
        <time>2020-08-08T09:41:51Z</time>
      </trkpt>
      <trkpt lat="44.61244" lon="3.55999">
        <ele>1406.07</ele>
        <time>2020-08-08T09:41:52Z</time>
      </trkpt>
      <trkpt lat="44.61244" lon="3.55999">
        <ele>1395.01</ele>
        <time>2020-08-08T09:41:53Z</time>
      </trkpt>
      <trkpt lat="44.61244" lon="3.55999">
        <ele>1394.53</ele>
        <time>2020-08-08T09:41:55Z</time>
      </trkpt>
      <trkpt lat="44.61244" lon="3.55999">
        <ele>1383.96</ele>
        <time>2020-08-08T09:42:01Z</time>
      </trkpt>
      <trkpt lat="44.61244" lon="3.55999">
        <ele>1401.26</ele>
        <time>2020-08-08T09:42:02Z</time>
      </trkpt>
      <trkpt lat="44.61244" lon="3.55999">
        <ele>1395.49</ele>
        <time>2020-08-08T09:42:03Z</time>
      </trkpt>
      <trkpt lat="44.61244" lon="3.55999">
        <ele>1383.47</ele>
        <time>2020-08-08T09:42:04Z</time>
      </trkpt>
      <trkpt lat="44.61244" lon="3.55999">
        <ele>1407.03</ele>
        <time>2020-08-08T09:42:05Z</time>
      </trkpt>
      <trkpt lat="44.61244" lon="3.55999">
        <ele>1391.65</ele>
        <time>2020-08-08T09:42:06Z</time>
      </trkpt>
      <trkpt lat="44.61244" lon="3.55999">
        <ele>1402.7</ele>
        <time>2020-08-08T09:42:08Z</time>
      </trkpt>
      <trkpt lat="44.61244" lon="3.55999">
        <ele>1393.09</ele>
        <time>2020-08-08T09:42:09Z</time>
      </trkpt>
      <trkpt lat="44.61244" lon="3.55999">
        <ele>1384.44</ele>
        <time>2020-08-08T09:42:10Z</time>
      </trkpt>
      <trkpt lat="44.61244" lon="3.55999">
        <ele>1396.45</ele>
        <time>2020-08-08T09:42:11Z</time>
      </trkpt>
      <trkpt lat="44.61244" lon="3.55999">
        <ele>1391.17</ele>
        <time>2020-08-08T09:42:12Z</time>
      </trkpt>
      <trkpt lat="44.61244" lon="3.55999">
        <ele>1404.14</ele>
        <time>2020-08-08T09:42:14Z</time>
      </trkpt>
      <trkpt lat="44.61244" lon="3.55999">
        <ele>1393.09</ele>
        <time>2020-08-08T09:42:15Z</time>
      </trkpt>
      <trkpt lat="44.61244" lon="3.56">
        <ele>1393.57</ele>
        <time>2020-08-08T09:42:19Z</time>
      </trkpt>
      <trkpt lat="44.61173" lon="3.5661">
        <ele>1405.1</ele>
        <time>2020-08-08T09:45:10Z</time>
      </trkpt>
      <trkpt lat="44.61169" lon="3.56616">
        <ele>1406.55</ele>
        <time>2020-08-08T09:45:22Z</time>
      </trkpt>
      <trkpt lat="44.61169" lon="3.56631">
        <ele>1408.47</ele>
        <time>2020-08-08T09:45:27Z</time>
      </trkpt>
      <trkpt lat="44.61168" lon="3.56637">
        <ele>1408.95</ele>
        <time>2020-08-08T09:45:28Z</time>
      </trkpt>
      <trkpt lat="44.61157" lon="3.56723">
        <ele>1410.87</ele>
        <time>2020-08-08T09:45:36Z</time>
      </trkpt>
      <trkpt lat="44.61152" lon="3.56877">
        <ele>1412.31</ele>
        <time>2020-08-08T09:45:45Z</time>
      </trkpt>
      <trkpt lat="44.61156" lon="3.57086">
        <ele>1412.31</ele>
        <time>2020-08-08T09:45:56Z</time>
      </trkpt>
      <trkpt lat="44.61134" lon="3.5725">
        <ele>1408.95</ele>
        <time>2020-08-08T09:46:06Z</time>
      </trkpt>
      <trkpt lat="44.61124" lon="3.57296">
        <ele>1406.55</ele>
        <time>2020-08-08T09:46:10Z</time>
      </trkpt>
      <trkpt lat="44.61121" lon="3.57302">
        <ele>1406.55</ele>
        <time>2020-08-08T09:46:11Z</time>
      </trkpt>
      <trkpt lat="44.61119" lon="3.57307">
        <ele>1406.55</ele>
        <time>2020-08-08T09:46:12Z</time>
      </trkpt>
      <trkpt lat="44.61102" lon="3.57322">
        <ele>1405.1</ele>
        <time>2020-08-08T09:46:21Z</time>
      </trkpt>
      <trkpt lat="44.61101" lon="3.57324">
        <ele>1405.1</ele>
        <time>2020-08-08T09:46:22Z</time>
      </trkpt>
      <trkpt lat="44.61101" lon="3.57327">
        <ele>1404.62</ele>
        <time>2020-08-08T09:46:23Z</time>
      </trkpt>
      <trkpt lat="44.61102" lon="3.5733">
        <ele>1404.62</ele>
        <time>2020-08-08T09:46:24Z</time>
      </trkpt>
      <trkpt lat="44.61102" lon="3.57333">
        <ele>1404.62</ele>
        <time>2020-08-08T09:46:25Z</time>
      </trkpt>
      <trkpt lat="44.61103" lon="3.57336">
        <ele>1404.62</ele>
        <time>2020-08-08T09:46:26Z</time>
      </trkpt>
      <trkpt lat="44.61104" lon="3.57338">
        <ele>1404.62</ele>
        <time>2020-08-08T09:46:27Z</time>
      </trkpt>
      <trkpt lat="44.61104" lon="3.57341">
        <ele>1404.14</ele>
        <time>2020-08-08T09:46:28Z</time>
      </trkpt>
      <trkpt lat="44.61104" lon="3.57345">
        <ele>1404.14</ele>
        <time>2020-08-08T09:46:29Z</time>
      </trkpt>
      <trkpt lat="44.61104" lon="3.57349">
        <ele>1404.14</ele>
        <time>2020-08-08T09:46:30Z</time>
      </trkpt>
      <trkpt lat="44.61104" lon="3.57354">
        <ele>1404.62</ele>
        <time>2020-08-08T09:46:31Z</time>
      </trkpt>
      <trkpt lat="44.61103" lon="3.57361">
        <ele>1403.66</ele>
        <time>2020-08-08T09:46:32Z</time>
      </trkpt>
      <trkpt lat="44.61102" lon="3.57369">
        <ele>1403.66</ele>
        <time>2020-08-08T09:46:33Z</time>
      </trkpt>
      <trkpt lat="44.61097" lon="3.57473">
        <ele>1401.26</ele>
        <time>2020-08-08T09:46:42Z</time>
      </trkpt>
      <trkpt lat="44.61099" lon="3.57511">
        <ele>1400.3</ele>
        <time>2020-08-08T09:46:49Z</time>
      </trkpt>
      <trkpt lat="44.61098" lon="3.5751">
        <ele>1399.82</ele>
        <time>2020-08-08T09:46:59Z</time>
      </trkpt>
      <trkpt lat="44.61099" lon="3.57509">
        <ele>1400.3</ele>
        <time>2020-08-08T09:47:00Z</time>
      </trkpt>
      <trkpt lat="44.611" lon="3.57508">
        <ele>1399.82</ele>
        <time>2020-08-08T09:47:01Z</time>
      </trkpt>
      <trkpt lat="44.61101" lon="3.57505">
        <ele>1399.82</ele>
        <time>2020-08-08T09:47:02Z</time>
      </trkpt>
      <trkpt lat="44.61102" lon="3.57503">
        <ele>1399.82</ele>
        <time>2020-08-08T09:47:03Z</time>
      </trkpt>
      <trkpt lat="44.61103" lon="3.57501">
        <ele>1400.3</ele>
        <time>2020-08-08T09:47:04Z</time>
      </trkpt>
      <trkpt lat="44.61103" lon="3.57493">
        <ele>1401.26</ele>
        <time>2020-08-08T09:47:17Z</time>
      </trkpt>
      <trkpt lat="44.61104" lon="3.57494">
        <ele>1401.26</ele>
        <time>2020-08-08T09:47:27Z</time>
      </trkpt>
      <trkpt lat="44.61104" lon="3.57494">
        <ele>1400.78</ele>
        <time>2020-08-08T09:47:29Z</time>
      </trkpt>
      <trkpt lat="44.61103" lon="3.57504">
        <ele>1400.78</ele>
        <time>2020-08-08T09:47:36Z</time>
      </trkpt>
      <trkpt lat="44.61103" lon="3.57523">
        <ele>1400.78</ele>
        <time>2020-08-08T09:47:49Z</time>
      </trkpt>
      <trkpt lat="44.61104" lon="3.5753">
        <ele>1400.78</ele>
        <time>2020-08-08T09:48:01Z</time>
      </trkpt>
      <trkpt lat="44.61108" lon="3.57546">
        <ele>1400.78</ele>
        <time>2020-08-08T09:48:12Z</time>
      </trkpt>
      <trkpt lat="44.61109" lon="3.5755">
        <ele>1400.78</ele>
        <time>2020-08-08T09:48:15Z</time>
      </trkpt>
      <trkpt lat="44.61109" lon="3.57562">
        <ele>1399.82</ele>
        <time>2020-08-08T09:48:22Z</time>
      </trkpt>
      <trkpt lat="44.6111" lon="3.57566">
        <ele>1399.82</ele>
        <time>2020-08-08T09:48:29Z</time>
      </trkpt>
      <trkpt lat="44.61112" lon="3.57572">
        <ele>1399.34</ele>
        <time>2020-08-08T09:48:41Z</time>
      </trkpt>
      <trkpt lat="44.61113" lon="3.57576">
        <ele>1399.82</ele>
        <time>2020-08-08T09:48:58Z</time>
      </trkpt>
      <trkpt lat="44.61118" lon="3.57598">
        <ele>1399.34</ele>
        <time>2020-08-08T09:49:10Z</time>
      </trkpt>
      <trkpt lat="44.61122" lon="3.57621">
        <ele>1399.34</ele>
        <time>2020-08-08T09:49:22Z</time>
      </trkpt>
      <trkpt lat="44.61122" lon="3.57623">
        <ele>1398.86</ele>
        <time>2020-08-08T09:49:23Z</time>
      </trkpt>
      <trkpt lat="44.61129" lon="3.57643">
        <ele>1398.86</ele>
        <time>2020-08-08T09:49:36Z</time>
      </trkpt>
      <trkpt lat="44.61129" lon="3.57643">
        <ele>1398.86</ele>
        <time>2020-08-08T09:49:37Z</time>
      </trkpt>
      <trkpt lat="44.6113" lon="3.57654">
        <ele>1398.37</ele>
        <time>2020-08-08T09:49:46Z</time>
      </trkpt>
      <trkpt lat="44.61133" lon="3.57664">
        <ele>1398.37</ele>
        <time>2020-08-08T09:49:52Z</time>
      </trkpt>
      <trkpt lat="44.61135" lon="3.57674">
        <ele>1398.37</ele>
        <time>2020-08-08T09:49:57Z</time>
      </trkpt>
      <trkpt lat="44.6114" lon="3.57693">
        <ele>1397.89</ele>
        <time>2020-08-08T09:50:08Z</time>
      </trkpt>
      <trkpt lat="44.61147" lon="3.57713">
        <ele>1397.41</ele>
        <time>2020-08-08T09:50:19Z</time>
      </trkpt>
      <trkpt lat="44.6115" lon="3.57732">
        <ele>1396.93</ele>
        <time>2020-08-08T09:50:29Z</time>
      </trkpt>
      <trkpt lat="44.61154" lon="3.57759">
        <ele>1396.45</ele>
        <time>2020-08-08T09:50:42Z</time>
      </trkpt>
      <trkpt lat="44.61155" lon="3.57763">
        <ele>1396.45</ele>
        <time>2020-08-08T09:50:45Z</time>
      </trkpt>
      <trkpt lat="44.61156" lon="3.57789">
        <ele>1396.45</ele>
        <time>2020-08-08T09:50:59Z</time>
      </trkpt>
      <trkpt lat="44.61159" lon="3.57804">
        <ele>1395.97</ele>
        <time>2020-08-08T09:51:08Z</time>
      </trkpt>
      <trkpt lat="44.61159" lon="3.57808">
        <ele>1395.97</ele>
        <time>2020-08-08T09:51:10Z</time>
      </trkpt>
      <trkpt lat="44.6116" lon="3.57814">
        <ele>1395.97</ele>
        <time>2020-08-08T09:51:13Z</time>
      </trkpt>
      <trkpt lat="44.61162" lon="3.57823">
        <ele>1395.49</ele>
        <time>2020-08-08T09:51:19Z</time>
      </trkpt>
      <trkpt lat="44.61163" lon="3.57832">
        <ele>1395.49</ele>
        <time>2020-08-08T09:51:23Z</time>
      </trkpt>
      <trkpt lat="44.6117" lon="3.57852">
        <ele>1394.53</ele>
        <time>2020-08-08T09:51:34Z</time>
      </trkpt>
      <trkpt lat="44.61174" lon="3.57865">
        <ele>1395.01</ele>
        <time>2020-08-08T09:51:41Z</time>
      </trkpt>
      <trkpt lat="44.61175" lon="3.57869">
        <ele>1395.01</ele>
        <time>2020-08-08T09:51:43Z</time>
      </trkpt>
      <trkpt lat="44.61178" lon="3.57882">
        <ele>1394.53</ele>
        <time>2020-08-08T09:51:50Z</time>
      </trkpt>
      <trkpt lat="44.61181" lon="3.57892">
        <ele>1394.53</ele>
        <time>2020-08-08T09:51:55Z</time>
      </trkpt>
      <trkpt lat="44.61185" lon="3.57917">
        <ele>1394.53</ele>
        <time>2020-08-08T09:52:07Z</time>
      </trkpt>
      <trkpt lat="44.61189" lon="3.57926">
        <ele>1394.53</ele>
        <time>2020-08-08T09:52:12Z</time>
      </trkpt>
      <trkpt lat="44.61189" lon="3.5793">
        <ele>1394.05</ele>
        <time>2020-08-08T09:52:14Z</time>
      </trkpt>
      <trkpt lat="44.61197" lon="3.57946">
        <ele>1394.05</ele>
        <time>2020-08-08T09:52:25Z</time>
      </trkpt>
      <trkpt lat="44.61206" lon="3.5797">
        <ele>1393.09</ele>
        <time>2020-08-08T09:52:37Z</time>
      </trkpt>
      <trkpt lat="44.61211" lon="3.57978">
        <ele>1392.61</ele>
        <time>2020-08-08T09:52:46Z</time>
      </trkpt>
      <trkpt lat="44.61217" lon="3.58002">
        <ele>1392.61</ele>
        <time>2020-08-08T09:52:59Z</time>
      </trkpt>
      <trkpt lat="44.61218" lon="3.58007">
        <ele>1392.61</ele>
        <time>2020-08-08T09:53:02Z</time>
      </trkpt>
      <trkpt lat="44.61225" lon="3.58025">
        <ele>1392.13</ele>
        <time>2020-08-08T09:53:13Z</time>
      </trkpt>
      <trkpt lat="44.61229" lon="3.5804">
        <ele>1391.65</ele>
        <time>2020-08-08T09:53:23Z</time>
      </trkpt>
      <trkpt lat="44.61231" lon="3.58042">
        <ele>1391.65</ele>
        <time>2020-08-08T09:53:25Z</time>
      </trkpt>
      <trkpt lat="44.61234" lon="3.5805">
        <ele>1391.17</ele>
        <time>2020-08-08T09:53:31Z</time>
      </trkpt>
      <trkpt lat="44.61242" lon="3.5807">
        <ele>1390.2</ele>
        <time>2020-08-08T09:53:44Z</time>
      </trkpt>
      <trkpt lat="44.61249" lon="3.58091">
        <ele>1389.72</ele>
        <time>2020-08-08T09:53:54Z</time>
      </trkpt>
      <trkpt lat="44.61249" lon="3.58093">
        <ele>1389.72</ele>
        <time>2020-08-08T09:53:56Z</time>
      </trkpt>
      <trkpt lat="44.61251" lon="3.58096">
        <ele>1389.24</ele>
        <time>2020-08-08T09:53:58Z</time>
      </trkpt>
      <trkpt lat="44.61253" lon="3.58101">
        <ele>1389.24</ele>
        <time>2020-08-08T09:54:01Z</time>
      </trkpt>
      <trkpt lat="44.61257" lon="3.58112">
        <ele>1388.76</ele>
        <time>2020-08-08T09:54:06Z</time>
      </trkpt>
      <trkpt lat="44.61259" lon="3.58117">
        <ele>1388.76</ele>
        <time>2020-08-08T09:54:09Z</time>
      </trkpt>
      <trkpt lat="44.61259" lon="3.58122">
        <ele>1388.76</ele>
        <time>2020-08-08T09:54:12Z</time>
      </trkpt>
      <trkpt lat="44.61262" lon="3.58136">
        <ele>1388.28</ele>
        <time>2020-08-08T09:54:20Z</time>
      </trkpt>
      <trkpt lat="44.61265" lon="3.58146">
        <ele>1387.8</ele>
        <time>2020-08-08T09:54:25Z</time>
      </trkpt>
      <trkpt lat="44.61267" lon="3.5815">
        <ele>1387.32</ele>
        <time>2020-08-08T09:54:27Z</time>
      </trkpt>
      <trkpt lat="44.61269" lon="3.58157">
        <ele>1386.84</ele>
        <time>2020-08-08T09:54:32Z</time>
      </trkpt>
      <trkpt lat="44.61276" lon="3.58182">
        <ele>1385.4</ele>
        <time>2020-08-08T09:54:45Z</time>
      </trkpt>
      <trkpt lat="44.61279" lon="3.58195">
        <ele>1384.92</ele>
        <time>2020-08-08T09:54:54Z</time>
      </trkpt>
      <trkpt lat="44.61281" lon="3.58198">
        <ele>1384.44</ele>
        <time>2020-08-08T09:54:56Z</time>
      </trkpt>
      <trkpt lat="44.61281" lon="3.58207">
        <ele>1383.96</ele>
        <time>2020-08-08T09:55:00Z</time>
      </trkpt>
      <trkpt lat="44.61284" lon="3.5822">
        <ele>1382.99</ele>
        <time>2020-08-08T09:55:08Z</time>
      </trkpt>
      <trkpt lat="44.61288" lon="3.58232">
        <ele>1382.51</ele>
        <time>2020-08-08T09:55:15Z</time>
      </trkpt>
      <trkpt lat="44.61291" lon="3.58246">
        <ele>1381.55</ele>
        <time>2020-08-08T09:55:21Z</time>
      </trkpt>
      <trkpt lat="44.61294" lon="3.58253">
        <ele>1380.59</ele>
        <time>2020-08-08T09:55:27Z</time>
      </trkpt>
      <trkpt lat="44.613" lon="3.58269">
        <ele>1379.63</ele>
        <time>2020-08-08T09:55:37Z</time>
      </trkpt>
      <trkpt lat="44.61305" lon="3.58282">
        <ele>1379.15</ele>
        <time>2020-08-08T09:55:46Z</time>
      </trkpt>
      <trkpt lat="44.61309" lon="3.58295">
        <ele>1378.19</ele>
        <time>2020-08-08T09:55:54Z</time>
      </trkpt>
      <trkpt lat="44.61309" lon="3.58303">
        <ele>1377.71</ele>
        <time>2020-08-08T09:55:57Z</time>
      </trkpt>
      <trkpt lat="44.61314" lon="3.58314">
        <ele>1377.23</ele>
        <time>2020-08-08T09:56:05Z</time>
      </trkpt>
      <trkpt lat="44.61314" lon="3.58324">
        <ele>1377.23</ele>
        <time>2020-08-08T09:56:11Z</time>
      </trkpt>
      <trkpt lat="44.61323" lon="3.58348">
        <ele>1376.26</ele>
        <time>2020-08-08T09:56:24Z</time>
      </trkpt>
      <trkpt lat="44.61324" lon="3.58354">
        <ele>1375.78</ele>
        <time>2020-08-08T09:56:28Z</time>
      </trkpt>
      <trkpt lat="44.61328" lon="3.58379">
        <ele>1375.78</ele>
        <time>2020-08-08T09:56:39Z</time>
      </trkpt>
      <trkpt lat="44.61329" lon="3.5838">
        <ele>1375.3</ele>
        <time>2020-08-08T09:56:40Z</time>
      </trkpt>
      <trkpt lat="44.61334" lon="3.58398">
        <ele>1375.3</ele>
        <time>2020-08-08T09:56:51Z</time>
      </trkpt>
      <trkpt lat="44.61341" lon="3.58419">
        <ele>1375.3</ele>
        <time>2020-08-08T09:57:02Z</time>
      </trkpt>
      <trkpt lat="44.61343" lon="3.58425">
        <ele>1375.3</ele>
        <time>2020-08-08T09:57:07Z</time>
      </trkpt>
      <trkpt lat="44.61347" lon="3.58428">
        <ele>1375.3</ele>
        <time>2020-08-08T09:57:11Z</time>
      </trkpt>
      <trkpt lat="44.61352" lon="3.58447">
        <ele>1374.82</ele>
        <time>2020-08-08T09:57:22Z</time>
      </trkpt>
      <trkpt lat="44.61356" lon="3.58458">
        <ele>1375.3</ele>
        <time>2020-08-08T09:57:28Z</time>
      </trkpt>
      <trkpt lat="44.61362" lon="3.5848">
        <ele>1374.82</ele>
        <time>2020-08-08T09:57:40Z</time>
      </trkpt>
      <trkpt lat="44.61363" lon="3.58482">
        <ele>1374.82</ele>
        <time>2020-08-08T09:57:41Z</time>
      </trkpt>
      <trkpt lat="44.61366" lon="3.58493">
        <ele>1374.82</ele>
        <time>2020-08-08T09:57:47Z</time>
      </trkpt>
      <trkpt lat="44.6137" lon="3.58512">
        <ele>1373.86</ele>
        <time>2020-08-08T09:58:01Z</time>
      </trkpt>
      <trkpt lat="44.61373" lon="3.58521">
        <ele>1372.42</ele>
        <time>2020-08-08T09:58:11Z</time>
      </trkpt>
      <trkpt lat="44.61376" lon="3.58533">
        <ele>1373.86</ele>
        <time>2020-08-08T09:58:18Z</time>
      </trkpt>
      <trkpt lat="44.61376" lon="3.58537">
        <ele>1373.38</ele>
        <time>2020-08-08T09:58:20Z</time>
      </trkpt>
      <trkpt lat="44.6138" lon="3.58554">
        <ele>1371.94</ele>
        <time>2020-08-08T09:58:31Z</time>
      </trkpt>
      <trkpt lat="44.61384" lon="3.58582">
        <ele>1371.46</ele>
        <time>2020-08-08T09:58:43Z</time>
      </trkpt>
      <trkpt lat="44.61385" lon="3.58596">
        <ele>1370.5</ele>
        <time>2020-08-08T09:58:52Z</time>
      </trkpt>
      <trkpt lat="44.61387" lon="3.58601">
        <ele>1370.5</ele>
        <time>2020-08-08T09:58:55Z</time>
      </trkpt>
      <trkpt lat="44.61394" lon="3.58616">
        <ele>1369.54</ele>
        <time>2020-08-08T09:59:05Z</time>
      </trkpt>
      <trkpt lat="44.61393" lon="3.58622">
        <ele>1369.54</ele>
        <time>2020-08-08T09:59:08Z</time>
      </trkpt>
      <trkpt lat="44.61395" lon="3.58632">
        <ele>1369.05</ele>
        <time>2020-08-08T09:59:13Z</time>
      </trkpt>
      <trkpt lat="44.61398" lon="3.58656">
        <ele>1368.57</ele>
        <time>2020-08-08T09:59:24Z</time>
      </trkpt>
      <trkpt lat="44.61398" lon="3.58664">
        <ele>1368.57</ele>
        <time>2020-08-08T09:59:28Z</time>
      </trkpt>
      <trkpt lat="44.61401" lon="3.58669">
        <ele>1368.57</ele>
        <time>2020-08-08T09:59:32Z</time>
      </trkpt>
      <trkpt lat="44.61405" lon="3.58682">
        <ele>1368.09</ele>
        <time>2020-08-08T09:59:40Z</time>
      </trkpt>
      <trkpt lat="44.61408" lon="3.58696">
        <ele>1367.61</ele>
        <time>2020-08-08T09:59:49Z</time>
      </trkpt>
      <trkpt lat="44.61408" lon="3.58701">
        <ele>1367.13</ele>
        <time>2020-08-08T09:59:51Z</time>
      </trkpt>
      <trkpt lat="44.61412" lon="3.58715">
        <ele>1367.13</ele>
        <time>2020-08-08T09:59:59Z</time>
      </trkpt>
      <trkpt lat="44.61416" lon="3.58736">
        <ele>1366.65</ele>
        <time>2020-08-08T10:00:10Z</time>
      </trkpt>
      <trkpt lat="44.61417" lon="3.58739">
        <ele>1366.17</ele>
        <time>2020-08-08T10:00:11Z</time>
      </trkpt>
      <trkpt lat="44.61419" lon="3.58743">
        <ele>1366.17</ele>
        <time>2020-08-08T10:00:14Z</time>
      </trkpt>
      <trkpt lat="44.6142" lon="3.58754">
        <ele>1365.69</ele>
        <time>2020-08-08T10:00:19Z</time>
      </trkpt>
      <trkpt lat="44.61423" lon="3.58762">
        <ele>1365.69</ele>
        <time>2020-08-08T10:00:24Z</time>
      </trkpt>
      <trkpt lat="44.61424" lon="3.58771">
        <ele>1365.69</ele>
        <time>2020-08-08T10:00:28Z</time>
      </trkpt>
      <trkpt lat="44.61427" lon="3.58791">
        <ele>1364.73</ele>
        <time>2020-08-08T10:00:39Z</time>
      </trkpt>
      <trkpt lat="44.61428" lon="3.58794">
        <ele>1364.73</ele>
        <time>2020-08-08T10:00:41Z</time>
      </trkpt>
      <trkpt lat="44.61433" lon="3.58803">
        <ele>1364.25</ele>
        <time>2020-08-08T10:00:46Z</time>
      </trkpt>
      <trkpt lat="44.61434" lon="3.5881">
        <ele>1363.77</ele>
        <time>2020-08-08T10:00:52Z</time>
      </trkpt>
      <trkpt lat="44.61434" lon="3.58814">
        <ele>1363.77</ele>
        <time>2020-08-08T10:00:54Z</time>
      </trkpt>
      <trkpt lat="44.61436" lon="3.58824">
        <ele>1363.77</ele>
        <time>2020-08-08T10:00:59Z</time>
      </trkpt>
      <trkpt lat="44.61444" lon="3.5885">
        <ele>1363.29</ele>
        <time>2020-08-08T10:01:11Z</time>
      </trkpt>
      <trkpt lat="44.61446" lon="3.58853">
        <ele>1362.33</ele>
        <time>2020-08-08T10:01:14Z</time>
      </trkpt>
      <trkpt lat="44.61455" lon="3.58872">
        <ele>1360.88</ele>
        <time>2020-08-08T10:01:26Z</time>
      </trkpt>
      <trkpt lat="44.61465" lon="3.5887">
        <ele>1360.88</ele>
        <time>2020-08-08T10:01:37Z</time>
      </trkpt>
      <trkpt lat="44.61465" lon="3.58868">
        <ele>1360.88</ele>
        <time>2020-08-08T10:01:40Z</time>
      </trkpt>
      <trkpt lat="44.61475" lon="3.58844">
        <ele>1360.88</ele>
        <time>2020-08-08T10:01:54Z</time>
      </trkpt>
      <trkpt lat="44.61486" lon="3.5883">
        <ele>1355.12</ele>
        <time>2020-08-08T10:02:02Z</time>
      </trkpt>
      <trkpt lat="44.61487" lon="3.58828">
        <ele>1374.34</ele>
        <time>2020-08-08T10:02:03Z</time>
      </trkpt>
      <trkpt lat="44.61488" lon="3.58826">
        <ele>1361.84</ele>
        <time>2020-08-08T10:02:04Z</time>
      </trkpt>
      <trkpt lat="44.61493" lon="3.58812">
        <ele>1358</ele>
        <time>2020-08-08T10:02:11Z</time>
      </trkpt>
      <trkpt lat="44.61493" lon="3.5881">
        <ele>1365.21</ele>
        <time>2020-08-08T10:02:12Z</time>
      </trkpt>
      <trkpt lat="44.61494" lon="3.58808">
        <ele>1351.27</ele>
        <time>2020-08-08T10:02:13Z</time>
      </trkpt>
      <trkpt lat="44.61494" lon="3.58806">
        <ele>1365.69</ele>
        <time>2020-08-08T10:02:14Z</time>
      </trkpt>
      <trkpt lat="44.61495" lon="3.58803">
        <ele>1355.12</ele>
        <time>2020-08-08T10:02:16Z</time>
      </trkpt>
      <trkpt lat="44.61496" lon="3.58801">
        <ele>1373.86</ele>
        <time>2020-08-08T10:02:17Z</time>
      </trkpt>
      <trkpt lat="44.61496" lon="3.58799">
        <ele>1362.81</ele>
        <time>2020-08-08T10:02:18Z</time>
      </trkpt>
      <trkpt lat="44.61496" lon="3.58797">
        <ele>1361.84</ele>
        <time>2020-08-08T10:02:20Z</time>
      </trkpt>
      <trkpt lat="44.615" lon="3.5878">
        <ele>1362.33</ele>
        <time>2020-08-08T10:02:31Z</time>
      </trkpt>
      <trkpt lat="44.615" lon="3.58774">
        <ele>1362.33</ele>
        <time>2020-08-08T10:02:35Z</time>
      </trkpt>
      <trkpt lat="44.61502" lon="3.58766">
        <ele>1361.84</ele>
        <time>2020-08-08T10:02:40Z</time>
      </trkpt>
      <trkpt lat="44.61501" lon="3.58751">
        <ele>1361.36</ele>
        <time>2020-08-08T10:02:50Z</time>
      </trkpt>
      <trkpt lat="44.61503" lon="3.58736">
        <ele>1361.36</ele>
        <time>2020-08-08T10:02:58Z</time>
      </trkpt>
      <trkpt lat="44.61505" lon="3.58726">
        <ele>1361.36</ele>
        <time>2020-08-08T10:03:04Z</time>
      </trkpt>
      <trkpt lat="44.61506" lon="3.5871">
        <ele>1361.36</ele>
        <time>2020-08-08T10:03:12Z</time>
      </trkpt>
      <trkpt lat="44.6151" lon="3.58704">
        <ele>1361.36</ele>
        <time>2020-08-08T10:03:17Z</time>
      </trkpt>
      <trkpt lat="44.61508" lon="3.58682">
        <ele>1360.88</ele>
        <time>2020-08-08T10:03:27Z</time>
      </trkpt>
      <trkpt lat="44.61508" lon="3.58679">
        <ele>1360.88</ele>
        <time>2020-08-08T10:03:30Z</time>
      </trkpt>
      <trkpt lat="44.61512" lon="3.58661">
        <ele>1359.44</ele>
        <time>2020-08-08T10:03:39Z</time>
      </trkpt>
      <trkpt lat="44.61512" lon="3.58654">
        <ele>1359.92</ele>
        <time>2020-08-08T10:03:44Z</time>
      </trkpt>
      <trkpt lat="44.6151" lon="3.58651">
        <ele>1360.4</ele>
        <time>2020-08-08T10:03:46Z</time>
      </trkpt>
      <trkpt lat="44.61509" lon="3.58634">
        <ele>1359.44</ele>
        <time>2020-08-08T10:03:58Z</time>
      </trkpt>
      <trkpt lat="44.61509" lon="3.58631">
        <ele>1359.44</ele>
        <time>2020-08-08T10:04:00Z</time>
      </trkpt>
      <trkpt lat="44.61509" lon="3.58616">
        <ele>1358.96</ele>
        <time>2020-08-08T10:04:07Z</time>
      </trkpt>
      <trkpt lat="44.6151" lon="3.58609">
        <ele>1358.96</ele>
        <time>2020-08-08T10:04:12Z</time>
      </trkpt>
      <trkpt lat="44.61511" lon="3.58606">
        <ele>1358.96</ele>
        <time>2020-08-08T10:04:14Z</time>
      </trkpt>
      <trkpt lat="44.61513" lon="3.58589">
        <ele>1358.48</ele>
        <time>2020-08-08T10:04:24Z</time>
      </trkpt>
      <trkpt lat="44.61513" lon="3.5857">
        <ele>1357.52</ele>
        <time>2020-08-08T10:04:35Z</time>
      </trkpt>
      <trkpt lat="44.61512" lon="3.58567">
        <ele>1357.52</ele>
        <time>2020-08-08T10:04:37Z</time>
      </trkpt>
      <trkpt lat="44.61514" lon="3.58546">
        <ele>1357.52</ele>
        <time>2020-08-08T10:04:48Z</time>
      </trkpt>
      <trkpt lat="44.61514" lon="3.58544">
        <ele>1357.04</ele>
        <time>2020-08-08T10:04:50Z</time>
      </trkpt>
      <trkpt lat="44.61517" lon="3.58539">
        <ele>1357.04</ele>
        <time>2020-08-08T10:04:53Z</time>
      </trkpt>
      <trkpt lat="44.61525" lon="3.58524">
        <ele>1356.56</ele>
        <time>2020-08-08T10:05:03Z</time>
      </trkpt>
      <trkpt lat="44.61536" lon="3.58506">
        <ele>1356.08</ele>
        <time>2020-08-08T10:05:14Z</time>
      </trkpt>
      <trkpt lat="44.61539" lon="3.58498">
        <ele>1356.08</ele>
        <time>2020-08-08T10:05:22Z</time>
      </trkpt>
      <trkpt lat="44.61539" lon="3.58497">
        <ele>1356.08</ele>
        <time>2020-08-08T10:05:23Z</time>
      </trkpt>
      <trkpt lat="44.61547" lon="3.58488">
        <ele>1355.6</ele>
        <time>2020-08-08T10:05:30Z</time>
      </trkpt>
      <trkpt lat="44.61548" lon="3.58483">
        <ele>1355.6</ele>
        <time>2020-08-08T10:05:34Z</time>
      </trkpt>
      <trkpt lat="44.61553" lon="3.58476">
        <ele>1355.12</ele>
        <time>2020-08-08T10:05:39Z</time>
      </trkpt>
      <trkpt lat="44.61556" lon="3.58472">
        <ele>1355.12</ele>
        <time>2020-08-08T10:05:42Z</time>
      </trkpt>
      <trkpt lat="44.61558" lon="3.5847">
        <ele>1355.12</ele>
        <time>2020-08-08T10:05:45Z</time>
      </trkpt>
      <trkpt lat="44.61564" lon="3.58464">
        <ele>1354.63</ele>
        <time>2020-08-08T10:05:56Z</time>
      </trkpt>
      <trkpt lat="44.61564" lon="3.58464">
        <ele>1355.12</ele>
        <time>2020-08-08T10:06:12Z</time>
      </trkpt>
      <trkpt lat="44.61581" lon="3.58451">
        <ele>1354.63</ele>
        <time>2020-08-08T10:06:24Z</time>
      </trkpt>
      <trkpt lat="44.61588" lon="3.58443">
        <ele>1354.15</ele>
        <time>2020-08-08T10:06:32Z</time>
      </trkpt>
      <trkpt lat="44.61598" lon="3.58438">
        <ele>1354.15</ele>
        <time>2020-08-08T10:06:42Z</time>
      </trkpt>
      <trkpt lat="44.61615" lon="3.58432">
        <ele>1353.19</ele>
        <time>2020-08-08T10:06:54Z</time>
      </trkpt>
      <trkpt lat="44.61623" lon="3.58426">
        <ele>1353.19</ele>
        <time>2020-08-08T10:07:01Z</time>
      </trkpt>
      <trkpt lat="44.61626" lon="3.58425">
        <ele>1353.19</ele>
        <time>2020-08-08T10:07:05Z</time>
      </trkpt>
      <trkpt lat="44.61634" lon="3.58423">
        <ele>1353.19</ele>
        <time>2020-08-08T10:07:10Z</time>
      </trkpt>
      <trkpt lat="44.61648" lon="3.58415">
        <ele>1352.71</ele>
        <time>2020-08-08T10:07:22Z</time>
      </trkpt>
      <trkpt lat="44.61662" lon="3.58408">
        <ele>1352.71</ele>
        <time>2020-08-08T10:07:31Z</time>
      </trkpt>
      <trkpt lat="44.61674" lon="3.58398">
        <ele>1352.23</ele>
        <time>2020-08-08T10:07:40Z</time>
      </trkpt>
      <trkpt lat="44.61676" lon="3.58394">
        <ele>1352.23</ele>
        <time>2020-08-08T10:07:43Z</time>
      </trkpt>
      <trkpt lat="44.61678" lon="3.58392">
        <ele>1351.75</ele>
        <time>2020-08-08T10:07:45Z</time>
      </trkpt>
      <trkpt lat="44.61692" lon="3.58377">
        <ele>1351.75</ele>
        <time>2020-08-08T10:07:57Z</time>
      </trkpt>
      <trkpt lat="44.61694" lon="3.58376">
        <ele>1351.75</ele>
        <time>2020-08-08T10:07:59Z</time>
      </trkpt>
      <trkpt lat="44.61703" lon="3.58371">
        <ele>1351.75</ele>
        <time>2020-08-08T10:08:06Z</time>
      </trkpt>
      <trkpt lat="44.61712" lon="3.58355">
        <ele>1351.27</ele>
        <time>2020-08-08T10:08:16Z</time>
      </trkpt>
      <trkpt lat="44.61714" lon="3.58352">
        <ele>1351.27</ele>
        <time>2020-08-08T10:08:18Z</time>
      </trkpt>
      <trkpt lat="44.61722" lon="3.58334">
        <ele>1350.79</ele>
        <time>2020-08-08T10:08:27Z</time>
      </trkpt>
      <trkpt lat="44.61725" lon="3.58316">
        <ele>1349.83</ele>
        <time>2020-08-08T10:08:39Z</time>
      </trkpt>
      <trkpt lat="44.61725" lon="3.58312">
        <ele>1349.83</ele>
        <time>2020-08-08T10:08:41Z</time>
      </trkpt>
      <trkpt lat="44.6173" lon="3.58302">
        <ele>1349.83</ele>
        <time>2020-08-08T10:08:48Z</time>
      </trkpt>
      <trkpt lat="44.61735" lon="3.58295">
        <ele>1349.35</ele>
        <time>2020-08-08T10:08:53Z</time>
      </trkpt>
      <trkpt lat="44.61737" lon="3.58289">
        <ele>1349.35</ele>
        <time>2020-08-08T10:08:57Z</time>
      </trkpt>
      <trkpt lat="44.6174" lon="3.58285">
        <ele>1348.87</ele>
        <time>2020-08-08T10:09:01Z</time>
      </trkpt>
      <trkpt lat="44.61743" lon="3.58283">
        <ele>1348.39</ele>
        <time>2020-08-08T10:09:17Z</time>
      </trkpt>
      <trkpt lat="44.61744" lon="3.5828">
        <ele>1348.87</ele>
        <time>2020-08-08T10:09:45Z</time>
      </trkpt>
      <trkpt lat="44.61744" lon="3.58276">
        <ele>1348.39</ele>
        <time>2020-08-08T10:09:47Z</time>
      </trkpt>
      <trkpt lat="44.61745" lon="3.58273">
        <ele>1348.39</ele>
        <time>2020-08-08T10:09:59Z</time>
      </trkpt>
      <trkpt lat="44.61749" lon="3.58263">
        <ele>1348.39</ele>
        <time>2020-08-08T10:10:07Z</time>
      </trkpt>
      <trkpt lat="44.61752" lon="3.58255">
        <ele>1347.91</ele>
        <time>2020-08-08T10:10:11Z</time>
      </trkpt>
      <trkpt lat="44.6176" lon="3.58236">
        <ele>1347.91</ele>
        <time>2020-08-08T10:10:23Z</time>
      </trkpt>
      <trkpt lat="44.61765" lon="3.58225">
        <ele>1347.91</ele>
        <time>2020-08-08T10:10:29Z</time>
      </trkpt>
      <trkpt lat="44.61775" lon="3.58211">
        <ele>1346.94</ele>
        <time>2020-08-08T10:10:38Z</time>
      </trkpt>
      <trkpt lat="44.61775" lon="3.58206">
        <ele>1346.94</ele>
        <time>2020-08-08T10:10:42Z</time>
      </trkpt>
      <trkpt lat="44.61779" lon="3.58182">
        <ele>1346.46</ele>
        <time>2020-08-08T10:10:54Z</time>
      </trkpt>
      <trkpt lat="44.61779" lon="3.58173">
        <ele>1346.46</ele>
        <time>2020-08-08T10:11:00Z</time>
      </trkpt>
      <trkpt lat="44.61782" lon="3.58162">
        <ele>1345.98</ele>
        <time>2020-08-08T10:11:11Z</time>
      </trkpt>
      <trkpt lat="44.61782" lon="3.58159">
        <ele>1346.46</ele>
        <time>2020-08-08T10:11:16Z</time>
      </trkpt>
      <trkpt lat="44.61784" lon="3.58149">
        <ele>1345.98</ele>
        <time>2020-08-08T10:11:22Z</time>
      </trkpt>
      <trkpt lat="44.61786" lon="3.58144">
        <ele>1345.98</ele>
        <time>2020-08-08T10:11:31Z</time>
      </trkpt>
      <trkpt lat="44.61787" lon="3.58138">
        <ele>1345.98</ele>
        <time>2020-08-08T10:11:34Z</time>
      </trkpt>
      <trkpt lat="44.61791" lon="3.58125">
        <ele>1345.98</ele>
        <time>2020-08-08T10:11:42Z</time>
      </trkpt>
      <trkpt lat="44.61794" lon="3.58118">
        <ele>1345.5</ele>
        <time>2020-08-08T10:11:46Z</time>
      </trkpt>
      <trkpt lat="44.61798" lon="3.581">
        <ele>1345.5</ele>
        <time>2020-08-08T10:11:56Z</time>
      </trkpt>
      <trkpt lat="44.61798" lon="3.5809">
        <ele>1345.02</ele>
        <time>2020-08-08T10:12:00Z</time>
      </trkpt>
      <trkpt lat="44.61802" lon="3.58079">
        <ele>1345.02</ele>
        <time>2020-08-08T10:12:07Z</time>
      </trkpt>
      <trkpt lat="44.61809" lon="3.58085">
        <ele>1344.54</ele>
        <time>2020-08-08T10:12:16Z</time>
      </trkpt>
      <trkpt lat="44.61813" lon="3.5809">
        <ele>1343.58</ele>
        <time>2020-08-08T10:12:19Z</time>
      </trkpt>
      <trkpt lat="44.61815" lon="3.58092">
        <ele>1343.58</ele>
        <time>2020-08-08T10:12:23Z</time>
      </trkpt>
      <trkpt lat="44.61818" lon="3.58099">
        <ele>1343.1</ele>
        <time>2020-08-08T10:12:27Z</time>
      </trkpt>
      <trkpt lat="44.61823" lon="3.58108">
        <ele>1342.62</ele>
        <time>2020-08-08T10:12:34Z</time>
      </trkpt>
      <trkpt lat="44.61825" lon="3.58111">
        <ele>1342.14</ele>
        <time>2020-08-08T10:12:36Z</time>
      </trkpt>
      <trkpt lat="44.61826" lon="3.58112">
        <ele>1342.14</ele>
        <time>2020-08-08T10:12:50Z</time>
      </trkpt>
      <trkpt lat="44.61826" lon="3.58114">
        <ele>1342.14</ele>
        <time>2020-08-08T10:12:52Z</time>
      </trkpt>
      <trkpt lat="44.61827" lon="3.58118">
        <ele>1341.66</ele>
        <time>2020-08-08T10:13:08Z</time>
      </trkpt>
      <trkpt lat="44.61827" lon="3.58118">
        <ele>1341.18</ele>
        <time>2020-08-08T10:13:28Z</time>
      </trkpt>
      <trkpt lat="44.61828" lon="3.58121">
        <ele>1341.18</ele>
        <time>2020-08-08T10:13:43Z</time>
      </trkpt>
      <trkpt lat="44.61828" lon="3.58121">
        <ele>1340.22</ele>
        <time>2020-08-08T10:13:50Z</time>
      </trkpt>
      <trkpt lat="44.61833" lon="3.5813">
        <ele>1340.22</ele>
        <time>2020-08-08T10:13:58Z</time>
      </trkpt>
      <trkpt lat="44.61843" lon="3.58142">
        <ele>1338.29</ele>
        <time>2020-08-08T10:14:08Z</time>
      </trkpt>
      <trkpt lat="44.61853" lon="3.58156">
        <ele>1336.85</ele>
        <time>2020-08-08T10:14:19Z</time>
      </trkpt>
      <trkpt lat="44.61862" lon="3.58167">
        <ele>1335.41</ele>
        <time>2020-08-08T10:14:28Z</time>
      </trkpt>
      <trkpt lat="44.61873" lon="3.58178">
        <ele>1333.97</ele>
        <time>2020-08-08T10:14:38Z</time>
      </trkpt>
      <trkpt lat="44.61878" lon="3.58186">
        <ele>1333.01</ele>
        <time>2020-08-08T10:14:50Z</time>
      </trkpt>
      <trkpt lat="44.61878" lon="3.58187">
        <ele>1333.49</ele>
        <time>2020-08-08T10:14:53Z</time>
      </trkpt>
      <trkpt lat="44.6188" lon="3.58191">
        <ele>1333.01</ele>
        <time>2020-08-08T10:14:56Z</time>
      </trkpt>
      <trkpt lat="44.61886" lon="3.58199">
        <ele>1333.49</ele>
        <time>2020-08-08T10:15:03Z</time>
      </trkpt>
      <trkpt lat="44.61888" lon="3.58202">
        <ele>1333.97</ele>
        <time>2020-08-08T10:15:05Z</time>
      </trkpt>
      <trkpt lat="44.61901" lon="3.58224">
        <ele>1333.01</ele>
        <time>2020-08-08T10:15:18Z</time>
      </trkpt>
      <trkpt lat="44.61914" lon="3.58231">
        <ele>1333.49</ele>
        <time>2020-08-08T10:15:32Z</time>
      </trkpt>
      <trkpt lat="44.61918" lon="3.58232">
        <ele>1333.49</ele>
        <time>2020-08-08T10:15:35Z</time>
      </trkpt>
      <trkpt lat="44.6194" lon="3.58238">
        <ele>1333.49</ele>
        <time>2020-08-08T10:15:53Z</time>
      </trkpt>
      <trkpt lat="44.61959" lon="3.58242">
        <ele>1333.49</ele>
        <time>2020-08-08T10:16:07Z</time>
      </trkpt>
      <trkpt lat="44.61969" lon="3.58246">
        <ele>1333.49</ele>
        <time>2020-08-08T10:16:14Z</time>
      </trkpt>
      <trkpt lat="44.61975" lon="3.58242">
        <ele>1332.52</ele>
        <time>2020-08-08T10:16:29Z</time>
      </trkpt>
      <trkpt lat="44.61974" lon="3.58239">
        <ele>1332.04</ele>
        <time>2020-08-08T10:16:40Z</time>
      </trkpt>
      <trkpt lat="44.61974" lon="3.58245">
        <ele>1333.49</ele>
        <time>2020-08-08T10:16:46Z</time>
      </trkpt>
      <trkpt lat="44.61991" lon="3.58261">
        <ele>1333.97</ele>
        <time>2020-08-08T10:17:00Z</time>
      </trkpt>
      <trkpt lat="44.62002" lon="3.58273">
        <ele>1333.97</ele>
        <time>2020-08-08T10:17:12Z</time>
      </trkpt>
      <trkpt lat="44.62005" lon="3.5827">
        <ele>1333.01</ele>
        <time>2020-08-08T10:17:19Z</time>
      </trkpt>
      <trkpt lat="44.62011" lon="3.5826">
        <ele>1332.04</ele>
        <time>2020-08-08T10:17:28Z</time>
      </trkpt>
      <trkpt lat="44.62011" lon="3.58261">
        <ele>1332.04</ele>
        <time>2020-08-08T10:17:41Z</time>
      </trkpt>
      <trkpt lat="44.62012" lon="3.58262">
        <ele>1331.56</ele>
        <time>2020-08-08T10:17:57Z</time>
      </trkpt>
      <trkpt lat="44.62012" lon="3.58262">
        <ele>1331.56</ele>
        <time>2020-08-08T10:18:16Z</time>
      </trkpt>
      <trkpt lat="44.62012" lon="3.58262">
        <ele>1331.56</ele>
        <time>2020-08-08T10:18:40Z</time>
      </trkpt>
      <trkpt lat="44.62012" lon="3.58262">
        <ele>1331.56</ele>
        <time>2020-08-08T10:19:00Z</time>
      </trkpt>
      <trkpt lat="44.6201" lon="3.5826">
        <ele>1331.56</ele>
        <time>2020-08-08T10:19:12Z</time>
      </trkpt>
      <trkpt lat="44.62011" lon="3.58261">
        <ele>1332.52</ele>
        <time>2020-08-08T10:19:14Z</time>
      </trkpt>
      <trkpt lat="44.62011" lon="3.58262">
        <ele>1331.56</ele>
        <time>2020-08-08T10:19:18Z</time>
      </trkpt>
      <trkpt lat="44.62009" lon="3.58263">
        <ele>1332.04</ele>
        <time>2020-08-08T10:19:21Z</time>
      </trkpt>
      <trkpt lat="44.62009" lon="3.58265">
        <ele>1332.52</ele>
        <time>2020-08-08T10:19:36Z</time>
      </trkpt>
      <trkpt lat="44.62009" lon="3.58265">
        <ele>1332.04</ele>
        <time>2020-08-08T10:19:46Z</time>
      </trkpt>
      <trkpt lat="44.62009" lon="3.58263">
        <ele>1332.04</ele>
        <time>2020-08-08T10:19:48Z</time>
      </trkpt>
      <trkpt lat="44.62012" lon="3.58264">
        <ele>1332.04</ele>
        <time>2020-08-08T10:20:01Z</time>
      </trkpt>
      <trkpt lat="44.62012" lon="3.58264">
        <ele>1331.56</ele>
        <time>2020-08-08T10:20:12Z</time>
      </trkpt>
      <trkpt lat="44.62008" lon="3.58261">
        <ele>1331.56</ele>
        <time>2020-08-08T10:20:24Z</time>
      </trkpt>
      <trkpt lat="44.62008" lon="3.58261">
        <ele>1331.56</ele>
        <time>2020-08-08T10:20:45Z</time>
      </trkpt>
      <trkpt lat="44.62009" lon="3.58263">
        <ele>1331.56</ele>
        <time>2020-08-08T10:21:07Z</time>
      </trkpt>
      <trkpt lat="44.62009" lon="3.58262">
        <ele>1331.08</ele>
        <time>2020-08-08T10:21:21Z</time>
      </trkpt>
      <trkpt lat="44.62008" lon="3.5826">
        <ele>1331.08</ele>
        <time>2020-08-08T10:21:33Z</time>
      </trkpt>
      <trkpt lat="44.62007" lon="3.5826">
        <ele>1331.56</ele>
        <time>2020-08-08T10:21:47Z</time>
      </trkpt>
      <trkpt lat="44.62007" lon="3.5826">
        <ele>1331.56</ele>
        <time>2020-08-08T10:22:14Z</time>
      </trkpt>
      <trkpt lat="44.62007" lon="3.5826">
        <ele>1331.56</ele>
        <time>2020-08-08T10:22:40Z</time>
      </trkpt>
      <trkpt lat="44.62007" lon="3.58261">
        <ele>1331.56</ele>
        <time>2020-08-08T10:23:09Z</time>
      </trkpt>
      <trkpt lat="44.62007" lon="3.58261">
        <ele>1331.56</ele>
        <time>2020-08-08T10:23:38Z</time>
      </trkpt>
      <trkpt lat="44.62007" lon="3.58261">
        <ele>1331.56</ele>
        <time>2020-08-08T10:24:07Z</time>
      </trkpt>
      <trkpt lat="44.62007" lon="3.58261">
        <ele>1331.56</ele>
        <time>2020-08-08T10:24:33Z</time>
      </trkpt>
      <trkpt lat="44.62007" lon="3.58261">
        <ele>1331.56</ele>
        <time>2020-08-08T10:25:04Z</time>
      </trkpt>
      <trkpt lat="44.62007" lon="3.58261">
        <ele>1331.56</ele>
        <time>2020-08-08T10:25:34Z</time>
      </trkpt>
      <trkpt lat="44.62007" lon="3.58261">
        <ele>1331.56</ele>
        <time>2020-08-08T10:26:03Z</time>
      </trkpt>
      <trkpt lat="44.62009" lon="3.58263">
        <ele>1331.56</ele>
        <time>2020-08-08T10:26:12Z</time>
      </trkpt>
      <trkpt lat="44.62008" lon="3.58262">
        <ele>1331.56</ele>
        <time>2020-08-08T10:26:25Z</time>
      </trkpt>
      <trkpt lat="44.62008" lon="3.58261">
        <ele>1331.56</ele>
        <time>2020-08-08T10:26:57Z</time>
      </trkpt>
      <trkpt lat="44.62008" lon="3.58261">
        <ele>1331.56</ele>
        <time>2020-08-08T10:27:24Z</time>
      </trkpt>
      <trkpt lat="44.62008" lon="3.58261">
        <ele>1331.08</ele>
        <time>2020-08-08T10:27:52Z</time>
      </trkpt>
      <trkpt lat="44.62008" lon="3.58261">
        <ele>1331.08</ele>
        <time>2020-08-08T10:28:27Z</time>
      </trkpt>
      <trkpt lat="44.62009" lon="3.58261">
        <ele>1331.08</ele>
        <time>2020-08-08T10:28:40Z</time>
      </trkpt>
      <trkpt lat="44.62009" lon="3.58261">
        <ele>1331.56</ele>
        <time>2020-08-08T10:29:06Z</time>
      </trkpt>
      <trkpt lat="44.62009" lon="3.58262">
        <ele>1331.08</ele>
        <time>2020-08-08T10:29:25Z</time>
      </trkpt>
      <trkpt lat="44.62009" lon="3.58262">
        <ele>1331.08</ele>
        <time>2020-08-08T10:29:50Z</time>
      </trkpt>
      <trkpt lat="44.62009" lon="3.58262">
        <ele>1330.6</ele>
        <time>2020-08-08T10:30:15Z</time>
      </trkpt>
      <trkpt lat="44.62009" lon="3.58262">
        <ele>1331.08</ele>
        <time>2020-08-08T10:30:43Z</time>
      </trkpt>
      <trkpt lat="44.62009" lon="3.58262">
        <ele>1330.6</ele>
        <time>2020-08-08T10:31:15Z</time>
      </trkpt>
      <trkpt lat="44.62009" lon="3.58262">
        <ele>1331.08</ele>
        <time>2020-08-08T10:31:41Z</time>
      </trkpt>
      <trkpt lat="44.62009" lon="3.58261">
        <ele>1331.08</ele>
        <time>2020-08-08T10:31:47Z</time>
      </trkpt>
      <trkpt lat="44.62008" lon="3.58258">
        <ele>1331.08</ele>
        <time>2020-08-08T10:31:57Z</time>
      </trkpt>
      <trkpt lat="44.6201" lon="3.5826">
        <ele>1331.08</ele>
        <time>2020-08-08T10:32:10Z</time>
      </trkpt>
      <trkpt lat="44.6201" lon="3.5826">
        <ele>1331.08</ele>
        <time>2020-08-08T10:32:20Z</time>
      </trkpt>
      <trkpt lat="44.62012" lon="3.58263">
        <ele>1330.6</ele>
        <time>2020-08-08T10:32:32Z</time>
      </trkpt>
      <trkpt lat="44.62011" lon="3.58262">
        <ele>1330.6</ele>
        <time>2020-08-08T10:32:43Z</time>
      </trkpt>
      <trkpt lat="44.6201" lon="3.58258">
        <ele>1330.6</ele>
        <time>2020-08-08T10:32:54Z</time>
      </trkpt>
      <trkpt lat="44.6201" lon="3.58259">
        <ele>1330.6</ele>
        <time>2020-08-08T10:33:10Z</time>
      </trkpt>
      <trkpt lat="44.6201" lon="3.58259">
        <ele>1330.6</ele>
        <time>2020-08-08T10:33:43Z</time>
      </trkpt>
      <trkpt lat="44.6201" lon="3.58259">
        <ele>1330.12</ele>
        <time>2020-08-08T10:34:09Z</time>
      </trkpt>
      <trkpt lat="44.6201" lon="3.58259">
        <ele>1329.64</ele>
        <time>2020-08-08T10:34:29Z</time>
      </trkpt>
      <trkpt lat="44.6201" lon="3.58259">
        <ele>1329.64</ele>
        <time>2020-08-08T10:34:45Z</time>
      </trkpt>
      <trkpt lat="44.62011" lon="3.58262">
        <ele>1330.12</ele>
        <time>2020-08-08T10:34:59Z</time>
      </trkpt>
      <trkpt lat="44.62011" lon="3.58262">
        <ele>1329.64</ele>
        <time>2020-08-08T10:35:16Z</time>
      </trkpt>
      <trkpt lat="44.6201" lon="3.58261">
        <ele>1330.12</ele>
        <time>2020-08-08T10:35:30Z</time>
      </trkpt>
      <trkpt lat="44.6201" lon="3.58261">
        <ele>1330.6</ele>
        <time>2020-08-08T10:35:44Z</time>
      </trkpt>
      <trkpt lat="44.62012" lon="3.58262">
        <ele>1329.16</ele>
        <time>2020-08-08T10:35:49Z</time>
      </trkpt>
      <trkpt lat="44.62011" lon="3.58262">
        <ele>1330.12</ele>
        <time>2020-08-08T10:36:07Z</time>
      </trkpt>
      <trkpt lat="44.6201" lon="3.58262">
        <ele>1330.12</ele>
        <time>2020-08-08T10:36:23Z</time>
      </trkpt>
      <trkpt lat="44.6201" lon="3.58262">
        <ele>1330.12</ele>
        <time>2020-08-08T10:36:43Z</time>
      </trkpt>
      <trkpt lat="44.62011" lon="3.58262">
        <ele>1330.12</ele>
        <time>2020-08-08T10:37:05Z</time>
      </trkpt>
      <trkpt lat="44.62011" lon="3.58262">
        <ele>1330.12</ele>
        <time>2020-08-08T10:37:25Z</time>
      </trkpt>
      <trkpt lat="44.62009" lon="3.58264">
        <ele>1330.12</ele>
        <time>2020-08-08T10:37:36Z</time>
      </trkpt>
      <trkpt lat="44.62006" lon="3.58271">
        <ele>1331.08</ele>
        <time>2020-08-08T10:37:41Z</time>
      </trkpt>
      <trkpt lat="44.62006" lon="3.58277">
        <ele>1332.04</ele>
        <time>2020-08-08T10:37:46Z</time>
      </trkpt>
      <trkpt lat="44.62009" lon="3.58282">
        <ele>1331.56</ele>
        <time>2020-08-08T10:37:50Z</time>
      </trkpt>
      <trkpt lat="44.62021" lon="3.58304">
        <ele>1331.08</ele>
        <time>2020-08-08T10:38:06Z</time>
      </trkpt>
      <trkpt lat="44.62024" lon="3.58308">
        <ele>1331.08</ele>
        <time>2020-08-08T10:38:10Z</time>
      </trkpt>
      <trkpt lat="44.62026" lon="3.58317">
        <ele>1332.04</ele>
        <time>2020-08-08T10:38:18Z</time>
      </trkpt>
      <trkpt lat="44.62027" lon="3.58334">
        <ele>1333.01</ele>
        <time>2020-08-08T10:38:30Z</time>
      </trkpt>
      <trkpt lat="44.62027" lon="3.58359">
        <ele>1334.93</ele>
        <time>2020-08-08T10:38:46Z</time>
      </trkpt>
      <trkpt lat="44.62027" lon="3.5837">
        <ele>1335.89</ele>
        <time>2020-08-08T10:38:55Z</time>
      </trkpt>
      <trkpt lat="44.62029" lon="3.58377">
        <ele>1335.89</ele>
        <time>2020-08-08T10:38:59Z</time>
      </trkpt>
      <trkpt lat="44.62031" lon="3.58383">
        <ele>1335.89</ele>
        <time>2020-08-08T10:39:03Z</time>
      </trkpt>
      <trkpt lat="44.62034" lon="3.5839">
        <ele>1335.89</ele>
        <time>2020-08-08T10:39:09Z</time>
      </trkpt>
      <trkpt lat="44.62037" lon="3.58401">
        <ele>1335.89</ele>
        <time>2020-08-08T10:39:20Z</time>
      </trkpt>
      <trkpt lat="44.62039" lon="3.58403">
        <ele>1335.89</ele>
        <time>2020-08-08T10:39:23Z</time>
      </trkpt>
      <trkpt lat="44.6204" lon="3.58403">
        <ele>1335.89</ele>
        <time>2020-08-08T10:39:37Z</time>
      </trkpt>
      <trkpt lat="44.6204" lon="3.58403">
        <ele>1335.89</ele>
        <time>2020-08-08T10:39:53Z</time>
      </trkpt>
      <trkpt lat="44.6204" lon="3.58405">
        <ele>1335.89</ele>
        <time>2020-08-08T10:40:00Z</time>
      </trkpt>
      <trkpt lat="44.62042" lon="3.58412">
        <ele>1335.89</ele>
        <time>2020-08-08T10:40:06Z</time>
      </trkpt>
      <trkpt lat="44.62044" lon="3.58417">
        <ele>1336.37</ele>
        <time>2020-08-08T10:40:10Z</time>
      </trkpt>
      <trkpt lat="44.62044" lon="3.5842">
        <ele>1336.37</ele>
        <time>2020-08-08T10:40:12Z</time>
      </trkpt>
      <trkpt lat="44.62046" lon="3.58424">
        <ele>1336.37</ele>
        <time>2020-08-08T10:40:15Z</time>
      </trkpt>
      <trkpt lat="44.62046" lon="3.5843">
        <ele>1336.37</ele>
        <time>2020-08-08T10:40:20Z</time>
      </trkpt>
      <trkpt lat="44.62049" lon="3.58441">
        <ele>1336.37</ele>
        <time>2020-08-08T10:40:28Z</time>
      </trkpt>
      <trkpt lat="44.62058" lon="3.58455">
        <ele>1336.37</ele>
        <time>2020-08-08T10:40:38Z</time>
      </trkpt>
      <trkpt lat="44.62062" lon="3.58467">
        <ele>1335.41</ele>
        <time>2020-08-08T10:40:46Z</time>
      </trkpt>
      <trkpt lat="44.62064" lon="3.58471">
        <ele>1335.89</ele>
        <time>2020-08-08T10:40:49Z</time>
      </trkpt>
      <trkpt lat="44.62067" lon="3.58478">
        <ele>1335.41</ele>
        <time>2020-08-08T10:40:53Z</time>
      </trkpt>
      <trkpt lat="44.62068" lon="3.58481">
        <ele>1335.41</ele>
        <time>2020-08-08T10:40:55Z</time>
      </trkpt>
      <trkpt lat="44.62071" lon="3.58497">
        <ele>1335.89</ele>
        <time>2020-08-08T10:41:06Z</time>
      </trkpt>
      <trkpt lat="44.62073" lon="3.58508">
        <ele>1336.37</ele>
        <time>2020-08-08T10:41:14Z</time>
      </trkpt>
      <trkpt lat="44.62074" lon="3.58517">
        <ele>1336.37</ele>
        <time>2020-08-08T10:41:21Z</time>
      </trkpt>
      <trkpt lat="44.6208" lon="3.58538">
        <ele>1336.37</ele>
        <time>2020-08-08T10:41:33Z</time>
      </trkpt>
      <trkpt lat="44.62084" lon="3.58552">
        <ele>1337.33</ele>
        <time>2020-08-08T10:41:44Z</time>
      </trkpt>
      <trkpt lat="44.62085" lon="3.58556">
        <ele>1336.37</ele>
        <time>2020-08-08T10:41:46Z</time>
      </trkpt>
      <trkpt lat="44.62089" lon="3.58569">
        <ele>1335.41</ele>
        <time>2020-08-08T10:41:55Z</time>
      </trkpt>
      <trkpt lat="44.62092" lon="3.58577">
        <ele>1335.89</ele>
        <time>2020-08-08T10:42:00Z</time>
      </trkpt>
      <trkpt lat="44.62096" lon="3.58584">
        <ele>1335.89</ele>
        <time>2020-08-08T10:42:04Z</time>
      </trkpt>
      <trkpt lat="44.62101" lon="3.58604">
        <ele>1335.41</ele>
        <time>2020-08-08T10:42:17Z</time>
      </trkpt>
      <trkpt lat="44.62101" lon="3.58606">
        <ele>1335.89</ele>
        <time>2020-08-08T10:42:18Z</time>
      </trkpt>
      <trkpt lat="44.62104" lon="3.58614">
        <ele>1335.89</ele>
        <time>2020-08-08T10:42:22Z</time>
      </trkpt>
      <trkpt lat="44.62107" lon="3.58634">
        <ele>1335.89</ele>
        <time>2020-08-08T10:42:34Z</time>
      </trkpt>
      <trkpt lat="44.62107" lon="3.58635">
        <ele>1336.37</ele>
        <time>2020-08-08T10:42:35Z</time>
      </trkpt>
      <trkpt lat="44.62111" lon="3.58651">
        <ele>1335.89</ele>
        <time>2020-08-08T10:42:46Z</time>
      </trkpt>
      <trkpt lat="44.62113" lon="3.58655">
        <ele>1335.89</ele>
        <time>2020-08-08T10:42:56Z</time>
      </trkpt>
      <trkpt lat="44.62113" lon="3.58655">
        <ele>1336.37</ele>
        <time>2020-08-08T10:43:19Z</time>
      </trkpt>
      <trkpt lat="44.62114" lon="3.5866">
        <ele>1335.89</ele>
        <time>2020-08-08T10:43:29Z</time>
      </trkpt>
      <trkpt lat="44.62114" lon="3.58663">
        <ele>1335.89</ele>
        <time>2020-08-08T10:43:31Z</time>
      </trkpt>
      <trkpt lat="44.62117" lon="3.58671">
        <ele>1335.89</ele>
        <time>2020-08-08T10:43:37Z</time>
      </trkpt>
      <trkpt lat="44.62122" lon="3.58683">
        <ele>1334.93</ele>
        <time>2020-08-08T10:43:47Z</time>
      </trkpt>
      <trkpt lat="44.62125" lon="3.58689">
        <ele>1334.93</ele>
        <time>2020-08-08T10:43:51Z</time>
      </trkpt>
      <trkpt lat="44.62131" lon="3.58704">
        <ele>1333.97</ele>
        <time>2020-08-08T10:44:03Z</time>
      </trkpt>
      <trkpt lat="44.62131" lon="3.58706">
        <ele>1333.97</ele>
        <time>2020-08-08T10:44:04Z</time>
      </trkpt>
      <trkpt lat="44.62134" lon="3.58725">
        <ele>1333.97</ele>
        <time>2020-08-08T10:44:15Z</time>
      </trkpt>
      <trkpt lat="44.62135" lon="3.58731">
        <ele>1334.45</ele>
        <time>2020-08-08T10:44:20Z</time>
      </trkpt>
      <trkpt lat="44.62137" lon="3.58743">
        <ele>1334.45</ele>
        <time>2020-08-08T10:44:27Z</time>
      </trkpt>
      <trkpt lat="44.62137" lon="3.58747">
        <ele>1334.93</ele>
        <time>2020-08-08T10:44:30Z</time>
      </trkpt>
      <trkpt lat="44.6214" lon="3.58759">
        <ele>1334.93</ele>
        <time>2020-08-08T10:44:36Z</time>
      </trkpt>
      <trkpt lat="44.62142" lon="3.5877">
        <ele>1334.93</ele>
        <time>2020-08-08T10:44:42Z</time>
      </trkpt>
      <trkpt lat="44.62145" lon="3.58779">
        <ele>1334.45</ele>
        <time>2020-08-08T10:44:47Z</time>
      </trkpt>
      <trkpt lat="44.62145" lon="3.58798">
        <ele>1334.45</ele>
        <time>2020-08-08T10:44:58Z</time>
      </trkpt>
      <trkpt lat="44.62149" lon="3.58812">
        <ele>1334.93</ele>
        <time>2020-08-08T10:45:06Z</time>
      </trkpt>
      <trkpt lat="44.62155" lon="3.58835">
        <ele>1334.93</ele>
        <time>2020-08-08T10:45:20Z</time>
      </trkpt>
      <trkpt lat="44.62157" lon="3.58846">
        <ele>1335.41</ele>
        <time>2020-08-08T10:45:26Z</time>
      </trkpt>
      <trkpt lat="44.62161" lon="3.58859">
        <ele>1334.93</ele>
        <time>2020-08-08T10:45:35Z</time>
      </trkpt>
      <trkpt lat="44.62166" lon="3.58887">
        <ele>1335.41</ele>
        <time>2020-08-08T10:45:49Z</time>
      </trkpt>
      <trkpt lat="44.62168" lon="3.589">
        <ele>1335.41</ele>
        <time>2020-08-08T10:45:56Z</time>
      </trkpt>
      <trkpt lat="44.62169" lon="3.58907">
        <ele>1334.93</ele>
        <time>2020-08-08T10:46:00Z</time>
      </trkpt>
      <trkpt lat="44.62175" lon="3.58932">
        <ele>1334.93</ele>
        <time>2020-08-08T10:46:14Z</time>
      </trkpt>
      <trkpt lat="44.62176" lon="3.58936">
        <ele>1335.41</ele>
        <time>2020-08-08T10:46:17Z</time>
      </trkpt>
      <trkpt lat="44.6218" lon="3.58953">
        <ele>1335.41</ele>
        <time>2020-08-08T10:46:28Z</time>
      </trkpt>
      <trkpt lat="44.62183" lon="3.58971">
        <ele>1334.93</ele>
        <time>2020-08-08T10:46:39Z</time>
      </trkpt>
      <trkpt lat="44.62184" lon="3.58971">
        <ele>1334.93</ele>
        <time>2020-08-08T10:46:58Z</time>
      </trkpt>
      <trkpt lat="44.62184" lon="3.58972">
        <ele>1335.41</ele>
        <time>2020-08-08T10:47:09Z</time>
      </trkpt>
      <trkpt lat="44.62184" lon="3.58977">
        <ele>1335.41</ele>
        <time>2020-08-08T10:47:12Z</time>
      </trkpt>
      <trkpt lat="44.62187" lon="3.58987">
        <ele>1334.93</ele>
        <time>2020-08-08T10:47:23Z</time>
      </trkpt>
      <trkpt lat="44.62187" lon="3.58987">
        <ele>1334.93</ele>
        <time>2020-08-08T10:47:41Z</time>
      </trkpt>
      <trkpt lat="44.62187" lon="3.58987">
        <ele>1334.93</ele>
        <time>2020-08-08T10:47:44Z</time>
      </trkpt>
      <trkpt lat="44.62191" lon="3.59004">
        <ele>1334.93</ele>
        <time>2020-08-08T10:47:54Z</time>
      </trkpt>
      <trkpt lat="44.62193" lon="3.59015">
        <ele>1334.93</ele>
        <time>2020-08-08T10:48:00Z</time>
      </trkpt>
      <trkpt lat="44.62198" lon="3.59036">
        <ele>1334.93</ele>
        <time>2020-08-08T10:48:13Z</time>
      </trkpt>
      <trkpt lat="44.622" lon="3.59053">
        <ele>1335.41</ele>
        <time>2020-08-08T10:48:23Z</time>
      </trkpt>
      <trkpt lat="44.62202" lon="3.59066">
        <ele>1335.89</ele>
        <time>2020-08-08T10:48:32Z</time>
      </trkpt>
      <trkpt lat="44.62205" lon="3.59085">
        <ele>1335.89</ele>
        <time>2020-08-08T10:48:43Z</time>
      </trkpt>
      <trkpt lat="44.6221" lon="3.59099">
        <ele>1335.89</ele>
        <time>2020-08-08T10:48:53Z</time>
      </trkpt>
      <trkpt lat="44.62211" lon="3.59107">
        <ele>1335.41</ele>
        <time>2020-08-08T10:48:58Z</time>
      </trkpt>
      <trkpt lat="44.62216" lon="3.59111">
        <ele>1335.41</ele>
        <time>2020-08-08T10:49:16Z</time>
      </trkpt>
      <trkpt lat="44.62217" lon="3.59112">
        <ele>1335.41</ele>
        <time>2020-08-08T10:49:39Z</time>
      </trkpt>
      <trkpt lat="44.62217" lon="3.59111">
        <ele>1335.41</ele>
        <time>2020-08-08T10:49:47Z</time>
      </trkpt>
      <trkpt lat="44.62213" lon="3.59105">
        <ele>1335.41</ele>
        <time>2020-08-08T10:49:55Z</time>
      </trkpt>
      <trkpt lat="44.62215" lon="3.5911">
        <ele>1334.93</ele>
        <time>2020-08-08T10:50:01Z</time>
      </trkpt>
      <trkpt lat="44.62216" lon="3.59114">
        <ele>1335.41</ele>
        <time>2020-08-08T10:50:04Z</time>
      </trkpt>
      <trkpt lat="44.62218" lon="3.59117">
        <ele>1335.41</ele>
        <time>2020-08-08T10:50:07Z</time>
      </trkpt>
      <trkpt lat="44.6222" lon="3.59134">
        <ele>1335.41</ele>
        <time>2020-08-08T10:50:17Z</time>
      </trkpt>
      <trkpt lat="44.62222" lon="3.59147">
        <ele>1335.89</ele>
        <time>2020-08-08T10:50:25Z</time>
      </trkpt>
      <trkpt lat="44.62227" lon="3.59171">
        <ele>1335.89</ele>
        <time>2020-08-08T10:50:39Z</time>
      </trkpt>
      <trkpt lat="44.62232" lon="3.59191">
        <ele>1335.89</ele>
        <time>2020-08-08T10:50:51Z</time>
      </trkpt>
      <trkpt lat="44.62233" lon="3.59195">
        <ele>1335.89</ele>
        <time>2020-08-08T10:50:53Z</time>
      </trkpt>
      <trkpt lat="44.62235" lon="3.59202">
        <ele>1335.89</ele>
        <time>2020-08-08T10:50:57Z</time>
      </trkpt>
      <trkpt lat="44.62241" lon="3.59219">
        <ele>1335.89</ele>
        <time>2020-08-08T10:51:07Z</time>
      </trkpt>
      <trkpt lat="44.62241" lon="3.5922">
        <ele>1335.89</ele>
        <time>2020-08-08T10:51:08Z</time>
      </trkpt>
      <trkpt lat="44.62246" lon="3.59238">
        <ele>1336.37</ele>
        <time>2020-08-08T10:51:19Z</time>
      </trkpt>
      <trkpt lat="44.62247" lon="3.59241">
        <ele>1336.37</ele>
        <time>2020-08-08T10:51:22Z</time>
      </trkpt>
      <trkpt lat="44.62253" lon="3.59265">
        <ele>1336.37</ele>
        <time>2020-08-08T10:51:36Z</time>
      </trkpt>
      <trkpt lat="44.62255" lon="3.59272">
        <ele>1336.85</ele>
        <time>2020-08-08T10:51:40Z</time>
      </trkpt>
      <trkpt lat="44.62267" lon="3.5929">
        <ele>1336.85</ele>
        <time>2020-08-08T10:51:52Z</time>
      </trkpt>
      <trkpt lat="44.62266" lon="3.59293">
        <ele>1336.37</ele>
        <time>2020-08-08T10:51:54Z</time>
      </trkpt>
      <trkpt lat="44.62274" lon="3.59314">
        <ele>1336.85</ele>
        <time>2020-08-08T10:52:07Z</time>
      </trkpt>
      <trkpt lat="44.62282" lon="3.59333">
        <ele>1336.85</ele>
        <time>2020-08-08T10:52:19Z</time>
      </trkpt>
      <trkpt lat="44.62282" lon="3.59334">
        <ele>1336.85</ele>
        <time>2020-08-08T10:52:20Z</time>
      </trkpt>
      <trkpt lat="44.62283" lon="3.59348">
        <ele>1336.85</ele>
        <time>2020-08-08T10:52:30Z</time>
      </trkpt>
      <trkpt lat="44.62286" lon="3.59356">
        <ele>1336.85</ele>
        <time>2020-08-08T10:52:34Z</time>
      </trkpt>
      <trkpt lat="44.62295" lon="3.59376">
        <ele>1337.81</ele>
        <time>2020-08-08T10:52:48Z</time>
      </trkpt>
      <trkpt lat="44.62295" lon="3.59378">
        <ele>1337.81</ele>
        <time>2020-08-08T10:52:49Z</time>
      </trkpt>
      <trkpt lat="44.62296" lon="3.59383">
        <ele>1337.81</ele>
        <time>2020-08-08T10:52:52Z</time>
      </trkpt>
      <trkpt lat="44.62299" lon="3.59398">
        <ele>1337.33</ele>
        <time>2020-08-08T10:52:58Z</time>
      </trkpt>
      <trkpt lat="44.62303" lon="3.59402">
        <ele>1336.85</ele>
        <time>2020-08-08T10:53:03Z</time>
      </trkpt>
      <trkpt lat="44.62303" lon="3.59408">
        <ele>1336.85</ele>
        <time>2020-08-08T10:53:07Z</time>
      </trkpt>
      <trkpt lat="44.62304" lon="3.59414">
        <ele>1337.33</ele>
        <time>2020-08-08T10:53:10Z</time>
      </trkpt>
      <trkpt lat="44.62307" lon="3.59421">
        <ele>1336.85</ele>
        <time>2020-08-08T10:53:15Z</time>
      </trkpt>
      <trkpt lat="44.6231" lon="3.59429">
        <ele>1335.89</ele>
        <time>2020-08-08T10:53:20Z</time>
      </trkpt>
      <trkpt lat="44.62315" lon="3.59439">
        <ele>1336.85</ele>
        <time>2020-08-08T10:53:26Z</time>
      </trkpt>
      <trkpt lat="44.62321" lon="3.59451">
        <ele>1336.85</ele>
        <time>2020-08-08T10:53:36Z</time>
      </trkpt>
      <trkpt lat="44.62327" lon="3.59467">
        <ele>1336.37</ele>
        <time>2020-08-08T10:53:47Z</time>
      </trkpt>
      <trkpt lat="44.62328" lon="3.59468">
        <ele>1336.37</ele>
        <time>2020-08-08T10:53:48Z</time>
      </trkpt>
      <trkpt lat="44.62328" lon="3.59481">
        <ele>1336.37</ele>
        <time>2020-08-08T10:53:56Z</time>
      </trkpt>
      <trkpt lat="44.62328" lon="3.5949">
        <ele>1336.37</ele>
        <time>2020-08-08T10:54:01Z</time>
      </trkpt>
      <trkpt lat="44.62321" lon="3.59505">
        <ele>1336.85</ele>
        <time>2020-08-08T10:54:10Z</time>
      </trkpt>
      <trkpt lat="44.62315" lon="3.5952">
        <ele>1334.93</ele>
        <time>2020-08-08T10:54:21Z</time>
      </trkpt>
      <trkpt lat="44.62315" lon="3.59526">
        <ele>1334.45</ele>
        <time>2020-08-08T10:54:24Z</time>
      </trkpt>
      <trkpt lat="44.62312" lon="3.59533">
        <ele>1333.49</ele>
        <time>2020-08-08T10:54:28Z</time>
      </trkpt>
      <trkpt lat="44.62306" lon="3.59547">
        <ele>1332.52</ele>
        <time>2020-08-08T10:54:37Z</time>
      </trkpt>
      <trkpt lat="44.62302" lon="3.59563">
        <ele>1332.04</ele>
        <time>2020-08-08T10:54:47Z</time>
      </trkpt>
      <trkpt lat="44.62303" lon="3.59582">
        <ele>1331.56</ele>
        <time>2020-08-08T10:54:58Z</time>
      </trkpt>
      <trkpt lat="44.62304" lon="3.59598">
        <ele>1332.04</ele>
        <time>2020-08-08T10:55:08Z</time>
      </trkpt>
      <trkpt lat="44.62307" lon="3.59599">
        <ele>1331.08</ele>
        <time>2020-08-08T10:55:22Z</time>
      </trkpt>
      <trkpt lat="44.62307" lon="3.59597">
        <ele>1331.08</ele>
        <time>2020-08-08T10:55:29Z</time>
      </trkpt>
      <trkpt lat="44.62306" lon="3.59602">
        <ele>1332.04</ele>
        <time>2020-08-08T10:55:33Z</time>
      </trkpt>
      <trkpt lat="44.62312" lon="3.59623">
        <ele>1332.04</ele>
        <time>2020-08-08T10:55:44Z</time>
      </trkpt>
      <trkpt lat="44.62314" lon="3.59624">
        <ele>1332.52</ele>
        <time>2020-08-08T10:55:46Z</time>
      </trkpt>
      <trkpt lat="44.62315" lon="3.59626">
        <ele>1332.52</ele>
        <time>2020-08-08T10:55:48Z</time>
      </trkpt>
      <trkpt lat="44.62331" lon="3.59635">
        <ele>1333.01</ele>
        <time>2020-08-08T10:56:00Z</time>
      </trkpt>
      <trkpt lat="44.62333" lon="3.59637">
        <ele>1333.49</ele>
        <time>2020-08-08T10:56:03Z</time>
      </trkpt>
      <trkpt lat="44.62342" lon="3.59645">
        <ele>1333.49</ele>
        <time>2020-08-08T10:56:12Z</time>
      </trkpt>
      <trkpt lat="44.62351" lon="3.59649">
        <ele>1333.49</ele>
        <time>2020-08-08T10:56:18Z</time>
      </trkpt>
      <trkpt lat="44.62357" lon="3.59654">
        <ele>1333.49</ele>
        <time>2020-08-08T10:56:22Z</time>
      </trkpt>
      <trkpt lat="44.62365" lon="3.59665">
        <ele>1333.01</ele>
        <time>2020-08-08T10:56:32Z</time>
      </trkpt>
      <trkpt lat="44.62376" lon="3.59679">
        <ele>1333.01</ele>
        <time>2020-08-08T10:56:44Z</time>
      </trkpt>
      <trkpt lat="44.62383" lon="3.59692">
        <ele>1333.01</ele>
        <time>2020-08-08T10:56:52Z</time>
      </trkpt>
      <trkpt lat="44.62389" lon="3.59702">
        <ele>1333.49</ele>
        <time>2020-08-08T10:57:00Z</time>
      </trkpt>
      <trkpt lat="44.62398" lon="3.59714">
        <ele>1333.49</ele>
        <time>2020-08-08T10:57:12Z</time>
      </trkpt>
      <trkpt lat="44.62399" lon="3.59715">
        <ele>1333.49</ele>
        <time>2020-08-08T10:57:13Z</time>
      </trkpt>
      <trkpt lat="44.62401" lon="3.59717">
        <ele>1333.49</ele>
        <time>2020-08-08T10:57:15Z</time>
      </trkpt>
      <trkpt lat="44.62416" lon="3.5973">
        <ele>1333.49</ele>
        <time>2020-08-08T10:57:27Z</time>
      </trkpt>
      <trkpt lat="44.62422" lon="3.59735">
        <ele>1333.01</ele>
        <time>2020-08-08T10:57:32Z</time>
      </trkpt>
      <trkpt lat="44.62424" lon="3.59736">
        <ele>1333.49</ele>
        <time>2020-08-08T10:57:34Z</time>
      </trkpt>
      <trkpt lat="44.6243" lon="3.59742">
        <ele>1333.01</ele>
        <time>2020-08-08T10:57:40Z</time>
      </trkpt>
      <trkpt lat="44.62432" lon="3.59747">
        <ele>1333.01</ele>
        <time>2020-08-08T10:57:43Z</time>
      </trkpt>
      <trkpt lat="44.62443" lon="3.59758">
        <ele>1333.49</ele>
        <time>2020-08-08T10:57:54Z</time>
      </trkpt>
      <trkpt lat="44.62449" lon="3.59761">
        <ele>1333.49</ele>
        <time>2020-08-08T10:57:59Z</time>
      </trkpt>
      <trkpt lat="44.62452" lon="3.59764">
        <ele>1333.49</ele>
        <time>2020-08-08T10:58:03Z</time>
      </trkpt>
      <trkpt lat="44.62458" lon="3.59767">
        <ele>1333.01</ele>
        <time>2020-08-08T10:58:08Z</time>
      </trkpt>
      <trkpt lat="44.62464" lon="3.59778">
        <ele>1333.01</ele>
        <time>2020-08-08T10:58:15Z</time>
      </trkpt>
      <trkpt lat="44.62475" lon="3.59791">
        <ele>1333.49</ele>
        <time>2020-08-08T10:58:27Z</time>
      </trkpt>
      <trkpt lat="44.62479" lon="3.59794">
        <ele>1333.01</ele>
        <time>2020-08-08T10:58:44Z</time>
      </trkpt>
      <trkpt lat="44.62479" lon="3.59794">
        <ele>1333.01</ele>
        <time>2020-08-08T10:58:59Z</time>
      </trkpt>
      <trkpt lat="44.62481" lon="3.59798">
        <ele>1333.01</ele>
        <time>2020-08-08T10:59:01Z</time>
      </trkpt>
      <trkpt lat="44.62487" lon="3.59803">
        <ele>1332.52</ele>
        <time>2020-08-08T10:59:08Z</time>
      </trkpt>
      <trkpt lat="44.62495" lon="3.59811">
        <ele>1332.52</ele>
        <time>2020-08-08T10:59:15Z</time>
      </trkpt>
      <trkpt lat="44.62501" lon="3.59818">
        <ele>1332.04</ele>
        <time>2020-08-08T10:59:22Z</time>
      </trkpt>
      <trkpt lat="44.62511" lon="3.59823">
        <ele>1332.52</ele>
        <time>2020-08-08T10:59:31Z</time>
      </trkpt>
      <trkpt lat="44.62526" lon="3.5981">
        <ele>1332.04</ele>
        <time>2020-08-08T10:59:43Z</time>
      </trkpt>
      <trkpt lat="44.62526" lon="3.5981">
        <ele>1332.04</ele>
        <time>2020-08-08T10:59:44Z</time>
      </trkpt>
      <trkpt lat="44.6253" lon="3.59807">
        <ele>1332.04</ele>
        <time>2020-08-08T10:59:48Z</time>
      </trkpt>
      <trkpt lat="44.62537" lon="3.598">
        <ele>1331.56</ele>
        <time>2020-08-08T10:59:55Z</time>
      </trkpt>
      <trkpt lat="44.62542" lon="3.59791">
        <ele>1331.56</ele>
        <time>2020-08-08T11:00:09Z</time>
      </trkpt>
      <trkpt lat="44.62546" lon="3.5978">
        <ele>1332.04</ele>
        <time>2020-08-08T11:00:21Z</time>
      </trkpt>
      <trkpt lat="44.62551" lon="3.5976">
        <ele>1332.04</ele>
        <time>2020-08-08T11:00:31Z</time>
      </trkpt>
      <trkpt lat="44.62551" lon="3.59752">
        <ele>1332.04</ele>
        <time>2020-08-08T11:00:39Z</time>
      </trkpt>
      <trkpt lat="44.62551" lon="3.59747">
        <ele>1332.52</ele>
        <time>2020-08-08T11:00:42Z</time>
      </trkpt>
      <trkpt lat="44.6255" lon="3.59728">
        <ele>1332.52</ele>
        <time>2020-08-08T11:00:53Z</time>
      </trkpt>
      <trkpt lat="44.62554" lon="3.59708">
        <ele>1333.97</ele>
        <time>2020-08-08T11:01:07Z</time>
      </trkpt>
      <trkpt lat="44.62558" lon="3.59691">
        <ele>1334.93</ele>
        <time>2020-08-08T11:01:18Z</time>
      </trkpt>
      <trkpt lat="44.6256" lon="3.59675">
        <ele>1336.37</ele>
        <time>2020-08-08T11:01:28Z</time>
      </trkpt>
      <trkpt lat="44.6256" lon="3.59655">
        <ele>1337.33</ele>
        <time>2020-08-08T11:01:40Z</time>
      </trkpt>
      <trkpt lat="44.62559" lon="3.59642">
        <ele>1337.81</ele>
        <time>2020-08-08T11:01:48Z</time>
      </trkpt>
      <trkpt lat="44.6256" lon="3.59634">
        <ele>1338.29</ele>
        <time>2020-08-08T11:01:52Z</time>
      </trkpt>
      <trkpt lat="44.62561" lon="3.59615">
        <ele>1338.77</ele>
        <time>2020-08-08T11:02:03Z</time>
      </trkpt>
      <trkpt lat="44.62561" lon="3.59614">
        <ele>1338.29</ele>
        <time>2020-08-08T11:02:04Z</time>
      </trkpt>
      <trkpt lat="44.62568" lon="3.5959">
        <ele>1339.25</ele>
        <time>2020-08-08T11:02:19Z</time>
      </trkpt>
      <trkpt lat="44.62568" lon="3.59571">
        <ele>1339.73</ele>
        <time>2020-08-08T11:02:29Z</time>
      </trkpt>
      <trkpt lat="44.62569" lon="3.59567">
        <ele>1339.73</ele>
        <time>2020-08-08T11:02:31Z</time>
      </trkpt>
      <trkpt lat="44.62569" lon="3.59549">
        <ele>1340.22</ele>
        <time>2020-08-08T11:02:41Z</time>
      </trkpt>
      <trkpt lat="44.6257" lon="3.59534">
        <ele>1340.7</ele>
        <time>2020-08-08T11:02:49Z</time>
      </trkpt>
      <trkpt lat="44.62573" lon="3.59519">
        <ele>1340.7</ele>
        <time>2020-08-08T11:02:56Z</time>
      </trkpt>
      <trkpt lat="44.62577" lon="3.59498">
        <ele>1341.66</ele>
        <time>2020-08-08T11:03:09Z</time>
      </trkpt>
      <trkpt lat="44.62576" lon="3.59496">
        <ele>1341.66</ele>
        <time>2020-08-08T11:03:11Z</time>
      </trkpt>
      <trkpt lat="44.62573" lon="3.59472">
        <ele>1342.14</ele>
        <time>2020-08-08T11:03:24Z</time>
      </trkpt>
      <trkpt lat="44.62575" lon="3.59463">
        <ele>1342.62</ele>
        <time>2020-08-08T11:03:29Z</time>
      </trkpt>
      <trkpt lat="44.62577" lon="3.59452">
        <ele>1343.1</ele>
        <time>2020-08-08T11:03:36Z</time>
      </trkpt>
      <trkpt lat="44.62579" lon="3.59447">
        <ele>1343.58</ele>
        <time>2020-08-08T11:03:41Z</time>
      </trkpt>
      <trkpt lat="44.62585" lon="3.59422">
        <ele>1345.02</ele>
        <time>2020-08-08T11:03:56Z</time>
      </trkpt>
      <trkpt lat="44.62585" lon="3.59412">
        <ele>1345.5</ele>
        <time>2020-08-08T11:04:02Z</time>
      </trkpt>
      <trkpt lat="44.62576" lon="3.59395">
        <ele>1345.02</ele>
        <time>2020-08-08T11:04:12Z</time>
      </trkpt>
      <trkpt lat="44.62577" lon="3.59391">
        <ele>1345.02</ele>
        <time>2020-08-08T11:04:15Z</time>
      </trkpt>
      <trkpt lat="44.62582" lon="3.5938">
        <ele>1345.02</ele>
        <time>2020-08-08T11:04:23Z</time>
      </trkpt>
      <trkpt lat="44.62584" lon="3.59379">
        <ele>1345.02</ele>
        <time>2020-08-08T11:04:25Z</time>
      </trkpt>
      <trkpt lat="44.62587" lon="3.59374">
        <ele>1345.02</ele>
        <time>2020-08-08T11:04:28Z</time>
      </trkpt>
      <trkpt lat="44.62589" lon="3.59355">
        <ele>1345.02</ele>
        <time>2020-08-08T11:04:39Z</time>
      </trkpt>
      <trkpt lat="44.62589" lon="3.59355">
        <ele>1344.54</ele>
        <time>2020-08-08T11:05:04Z</time>
      </trkpt>
      <trkpt lat="44.62589" lon="3.59344">
        <ele>1345.02</ele>
        <time>2020-08-08T11:05:19Z</time>
      </trkpt>
      <trkpt lat="44.6259" lon="3.59318">
        <ele>1345.02</ele>
        <time>2020-08-08T11:05:33Z</time>
      </trkpt>
      <trkpt lat="44.62593" lon="3.59309">
        <ele>1345.02</ele>
        <time>2020-08-08T11:05:40Z</time>
      </trkpt>
      <trkpt lat="44.62593" lon="3.59291">
        <ele>1345.5</ele>
        <time>2020-08-08T11:05:50Z</time>
      </trkpt>
      <trkpt lat="44.62596" lon="3.59279">
        <ele>1345.5</ele>
        <time>2020-08-08T11:05:56Z</time>
      </trkpt>
      <trkpt lat="44.62595" lon="3.59269">
        <ele>1345.5</ele>
        <time>2020-08-08T11:06:00Z</time>
      </trkpt>
      <trkpt lat="44.62597" lon="3.59251">
        <ele>1345.5</ele>
        <time>2020-08-08T11:06:10Z</time>
      </trkpt>
      <trkpt lat="44.626" lon="3.5923">
        <ele>1345.5</ele>
        <time>2020-08-08T11:06:21Z</time>
      </trkpt>
      <trkpt lat="44.626" lon="3.59228">
        <ele>1345.5</ele>
        <time>2020-08-08T11:06:22Z</time>
      </trkpt>
      <trkpt lat="44.62601" lon="3.59208">
        <ele>1345.98</ele>
        <time>2020-08-08T11:06:34Z</time>
      </trkpt>
      <trkpt lat="44.62602" lon="3.59192">
        <ele>1346.46</ele>
        <time>2020-08-08T11:06:43Z</time>
      </trkpt>
      <trkpt lat="44.62602" lon="3.59189">
        <ele>1345.98</ele>
        <time>2020-08-08T11:06:45Z</time>
      </trkpt>
      <trkpt lat="44.62602" lon="3.59176">
        <ele>1345.98</ele>
        <time>2020-08-08T11:06:54Z</time>
      </trkpt>
      <trkpt lat="44.62602" lon="3.5917">
        <ele>1345.98</ele>
        <time>2020-08-08T11:06:57Z</time>
      </trkpt>
      <trkpt lat="44.62604" lon="3.59148">
        <ele>1346.46</ele>
        <time>2020-08-08T11:07:08Z</time>
      </trkpt>
      <trkpt lat="44.62605" lon="3.5914">
        <ele>1346.46</ele>
        <time>2020-08-08T11:07:12Z</time>
      </trkpt>
      <trkpt lat="44.62608" lon="3.59133">
        <ele>1346.46</ele>
        <time>2020-08-08T11:07:16Z</time>
      </trkpt>
      <trkpt lat="44.62608" lon="3.59129">
        <ele>1346.46</ele>
        <time>2020-08-08T11:07:18Z</time>
      </trkpt>
      <trkpt lat="44.62613" lon="3.59118">
        <ele>1346.46</ele>
        <time>2020-08-08T11:07:25Z</time>
      </trkpt>
      <trkpt lat="44.62617" lon="3.59112">
        <ele>1346.94</ele>
        <time>2020-08-08T11:07:29Z</time>
      </trkpt>
      <trkpt lat="44.62625" lon="3.59095">
        <ele>1347.43</ele>
        <time>2020-08-08T11:07:40Z</time>
      </trkpt>
      <trkpt lat="44.62625" lon="3.59095">
        <ele>1346.46</ele>
        <time>2020-08-08T11:07:41Z</time>
      </trkpt>
      <trkpt lat="44.62628" lon="3.59079">
        <ele>1346.46</ele>
        <time>2020-08-08T11:07:52Z</time>
      </trkpt>
      <trkpt lat="44.62631" lon="3.59074">
        <ele>1346.46</ele>
        <time>2020-08-08T11:07:56Z</time>
      </trkpt>
      <trkpt lat="44.62634" lon="3.59068">
        <ele>1345.98</ele>
        <time>2020-08-08T11:08:00Z</time>
      </trkpt>
      <trkpt lat="44.62638" lon="3.59062">
        <ele>1345.98</ele>
        <time>2020-08-08T11:08:06Z</time>
      </trkpt>
      <trkpt lat="44.6265" lon="3.59052">
        <ele>1345.98</ele>
        <time>2020-08-08T11:08:18Z</time>
      </trkpt>
      <trkpt lat="44.6265" lon="3.59051">
        <ele>1345.98</ele>
        <time>2020-08-08T11:08:19Z</time>
      </trkpt>
      <trkpt lat="44.62656" lon="3.59046">
        <ele>1345.98</ele>
        <time>2020-08-08T11:08:25Z</time>
      </trkpt>
      <trkpt lat="44.62658" lon="3.59044">
        <ele>1345.98</ele>
        <time>2020-08-08T11:08:27Z</time>
      </trkpt>
      <trkpt lat="44.6266" lon="3.59043">
        <ele>1345.5</ele>
        <time>2020-08-08T11:08:31Z</time>
      </trkpt>
      <trkpt lat="44.62666" lon="3.59037">
        <ele>1345.5</ele>
        <time>2020-08-08T11:08:36Z</time>
      </trkpt>
      <trkpt lat="44.62678" lon="3.59025">
        <ele>1345.5</ele>
        <time>2020-08-08T11:08:47Z</time>
      </trkpt>
      <trkpt lat="44.62678" lon="3.59024">
        <ele>1345.5</ele>
        <time>2020-08-08T11:08:52Z</time>
      </trkpt>
      <trkpt lat="44.62682" lon="3.59019">
        <ele>1345.02</ele>
        <time>2020-08-08T11:08:55Z</time>
      </trkpt>
      <trkpt lat="44.62685" lon="3.59014">
        <ele>1345.5</ele>
        <time>2020-08-08T11:09:00Z</time>
      </trkpt>
      <trkpt lat="44.62694" lon="3.59005">
        <ele>1345.02</ele>
        <time>2020-08-08T11:09:09Z</time>
      </trkpt>
      <trkpt lat="44.62704" lon="3.58992">
        <ele>1345.02</ele>
        <time>2020-08-08T11:09:19Z</time>
      </trkpt>
      <trkpt lat="44.62708" lon="3.58989">
        <ele>1345.02</ele>
        <time>2020-08-08T11:09:22Z</time>
      </trkpt>
      <trkpt lat="44.62722" lon="3.5898">
        <ele>1344.54</ele>
        <time>2020-08-08T11:09:31Z</time>
      </trkpt>
      <trkpt lat="44.62722" lon="3.5898">
        <ele>1344.54</ele>
        <time>2020-08-08T11:09:32Z</time>
      </trkpt>
      <trkpt lat="44.62737" lon="3.58969">
        <ele>1344.54</ele>
        <time>2020-08-08T11:09:44Z</time>
      </trkpt>
      <trkpt lat="44.62744" lon="3.58965">
        <ele>1344.06</ele>
        <time>2020-08-08T11:09:54Z</time>
      </trkpt>
      <trkpt lat="44.62757" lon="3.58954">
        <ele>1344.54</ele>
        <time>2020-08-08T11:10:04Z</time>
      </trkpt>
      <trkpt lat="44.62762" lon="3.58951">
        <ele>1344.54</ele>
        <time>2020-08-08T11:10:07Z</time>
      </trkpt>
      <trkpt lat="44.62767" lon="3.58944">
        <ele>1344.54</ele>
        <time>2020-08-08T11:10:11Z</time>
      </trkpt>
      <trkpt lat="44.62771" lon="3.58939">
        <ele>1344.06</ele>
        <time>2020-08-08T11:10:14Z</time>
      </trkpt>
      <trkpt lat="44.62774" lon="3.58937">
        <ele>1344.06</ele>
        <time>2020-08-08T11:10:17Z</time>
      </trkpt>
      <trkpt lat="44.62788" lon="3.58924">
        <ele>1344.06</ele>
        <time>2020-08-08T11:10:29Z</time>
      </trkpt>
      <trkpt lat="44.62799" lon="3.58914">
        <ele>1343.58</ele>
        <time>2020-08-08T11:10:38Z</time>
      </trkpt>
      <trkpt lat="44.62801" lon="3.5891">
        <ele>1343.58</ele>
        <time>2020-08-08T11:10:40Z</time>
      </trkpt>
      <trkpt lat="44.62818" lon="3.58898">
        <ele>1343.1</ele>
        <time>2020-08-08T11:10:51Z</time>
      </trkpt>
      <trkpt lat="44.62823" lon="3.58892">
        <ele>1342.62</ele>
        <time>2020-08-08T11:11:01Z</time>
      </trkpt>
      <trkpt lat="44.62827" lon="3.5889">
        <ele>1342.62</ele>
        <time>2020-08-08T11:11:04Z</time>
      </trkpt>
      <trkpt lat="44.6284" lon="3.58876">
        <ele>1342.62</ele>
        <time>2020-08-08T11:11:16Z</time>
      </trkpt>
      <trkpt lat="44.62842" lon="3.58874">
        <ele>1342.62</ele>
        <time>2020-08-08T11:11:18Z</time>
      </trkpt>
      <trkpt lat="44.62848" lon="3.58866">
        <ele>1342.62</ele>
        <time>2020-08-08T11:11:23Z</time>
      </trkpt>
      <trkpt lat="44.62863" lon="3.58853">
        <ele>1341.66</ele>
        <time>2020-08-08T11:11:37Z</time>
      </trkpt>
      <trkpt lat="44.62863" lon="3.58853">
        <ele>1341.66</ele>
        <time>2020-08-08T11:11:38Z</time>
      </trkpt>
      <trkpt lat="44.62868" lon="3.58848">
        <ele>1341.18</ele>
        <time>2020-08-08T11:11:43Z</time>
      </trkpt>
      <trkpt lat="44.62873" lon="3.58844">
        <ele>1341.18</ele>
        <time>2020-08-08T11:11:47Z</time>
      </trkpt>
      <trkpt lat="44.62878" lon="3.58837">
        <ele>1341.18</ele>
        <time>2020-08-08T11:11:53Z</time>
      </trkpt>
      <trkpt lat="44.62891" lon="3.58825">
        <ele>1341.18</ele>
        <time>2020-08-08T11:12:05Z</time>
      </trkpt>
      <trkpt lat="44.62899" lon="3.58818">
        <ele>1341.66</ele>
        <time>2020-08-08T11:12:12Z</time>
      </trkpt>
      <trkpt lat="44.62903" lon="3.58814">
        <ele>1341.18</ele>
        <time>2020-08-08T11:12:15Z</time>
      </trkpt>
      <trkpt lat="44.62908" lon="3.58808">
        <ele>1341.18</ele>
        <time>2020-08-08T11:12:20Z</time>
      </trkpt>
      <trkpt lat="44.62923" lon="3.58795">
        <ele>1341.66</ele>
        <time>2020-08-08T11:12:33Z</time>
      </trkpt>
      <trkpt lat="44.62931" lon="3.58787">
        <ele>1341.66</ele>
        <time>2020-08-08T11:12:39Z</time>
      </trkpt>
      <trkpt lat="44.62933" lon="3.58785">
        <ele>1341.18</ele>
        <time>2020-08-08T11:12:41Z</time>
      </trkpt>
      <trkpt lat="44.62942" lon="3.58779">
        <ele>1341.18</ele>
        <time>2020-08-08T11:12:48Z</time>
      </trkpt>
      <trkpt lat="44.62953" lon="3.58772">
        <ele>1340.7</ele>
        <time>2020-08-08T11:12:56Z</time>
      </trkpt>
      <trkpt lat="44.62958" lon="3.58767">
        <ele>1340.7</ele>
        <time>2020-08-08T11:13:01Z</time>
      </trkpt>
      <trkpt lat="44.62962" lon="3.58765">
        <ele>1340.7</ele>
        <time>2020-08-08T11:13:04Z</time>
      </trkpt>
      <trkpt lat="44.62976" lon="3.5876">
        <ele>1340.22</ele>
        <time>2020-08-08T11:13:17Z</time>
      </trkpt>
      <trkpt lat="44.62995" lon="3.58759">
        <ele>1340.22</ele>
        <time>2020-08-08T11:13:31Z</time>
      </trkpt>
      <trkpt lat="44.62997" lon="3.58758">
        <ele>1339.73</ele>
        <time>2020-08-08T11:13:33Z</time>
      </trkpt>
      <trkpt lat="44.63009" lon="3.58757">
        <ele>1340.22</ele>
        <time>2020-08-08T11:13:43Z</time>
      </trkpt>
      <trkpt lat="44.63019" lon="3.58755">
        <ele>1340.22</ele>
        <time>2020-08-08T11:13:49Z</time>
      </trkpt>
      <trkpt lat="44.63021" lon="3.58753">
        <ele>1340.7</ele>
        <time>2020-08-08T11:13:51Z</time>
      </trkpt>
      <trkpt lat="44.63024" lon="3.58753">
        <ele>1340.22</ele>
        <time>2020-08-08T11:13:54Z</time>
      </trkpt>
      <trkpt lat="44.63035" lon="3.58737">
        <ele>1338.77</ele>
        <time>2020-08-08T11:14:03Z</time>
      </trkpt>
      <trkpt lat="44.63045" lon="3.58715">
        <ele>1337.81</ele>
        <time>2020-08-08T11:14:12Z</time>
      </trkpt>
      <trkpt lat="44.63056" lon="3.58689">
        <ele>1337.81</ele>
        <time>2020-08-08T11:14:24Z</time>
      </trkpt>
      <trkpt lat="44.63062" lon="3.58658">
        <ele>1336.37</ele>
        <time>2020-08-08T11:14:40Z</time>
      </trkpt>
      <trkpt lat="44.63063" lon="3.58645">
        <ele>1336.37</ele>
        <time>2020-08-08T11:14:47Z</time>
      </trkpt>
      <trkpt lat="44.63059" lon="3.58627">
        <ele>1336.85</ele>
        <time>2020-08-08T11:14:56Z</time>
      </trkpt>
      <trkpt lat="44.63047" lon="3.58613">
        <ele>1336.85</ele>
        <time>2020-08-08T11:15:06Z</time>
      </trkpt>
      <trkpt lat="44.63044" lon="3.58608">
        <ele>1336.85</ele>
        <time>2020-08-08T11:15:09Z</time>
      </trkpt>
      <trkpt lat="44.63037" lon="3.58596">
        <ele>1336.85</ele>
        <time>2020-08-08T11:15:15Z</time>
      </trkpt>
      <trkpt lat="44.6303" lon="3.5859">
        <ele>1336.85</ele>
        <time>2020-08-08T11:15:22Z</time>
      </trkpt>
      <trkpt lat="44.63019" lon="3.58574">
        <ele>1336.85</ele>
        <time>2020-08-08T11:15:33Z</time>
      </trkpt>
      <trkpt lat="44.6301" lon="3.58568">
        <ele>1336.85</ele>
        <time>2020-08-08T11:15:41Z</time>
      </trkpt>
      <trkpt lat="44.63" lon="3.58565">
        <ele>1337.33</ele>
        <time>2020-08-08T11:15:49Z</time>
      </trkpt>
      <trkpt lat="44.62983" lon="3.58559">
        <ele>1336.85</ele>
        <time>2020-08-08T11:16:03Z</time>
      </trkpt>
      <trkpt lat="44.62971" lon="3.58553">
        <ele>1336.85</ele>
        <time>2020-08-08T11:16:11Z</time>
      </trkpt>
      <trkpt lat="44.62968" lon="3.58551">
        <ele>1336.85</ele>
        <time>2020-08-08T11:16:13Z</time>
      </trkpt>
      <trkpt lat="44.62958" lon="3.58546">
        <ele>1336.85</ele>
        <time>2020-08-08T11:16:24Z</time>
      </trkpt>
      <trkpt lat="44.6295" lon="3.5854">
        <ele>1337.33</ele>
        <time>2020-08-08T11:16:29Z</time>
      </trkpt>
      <trkpt lat="44.62944" lon="3.58531">
        <ele>1336.85</ele>
        <time>2020-08-08T11:16:38Z</time>
      </trkpt>
      <trkpt lat="44.6294" lon="3.58528">
        <ele>1336.85</ele>
        <time>2020-08-08T11:16:41Z</time>
      </trkpt>
      <trkpt lat="44.62932" lon="3.58513">
        <ele>1336.85</ele>
        <time>2020-08-08T11:16:50Z</time>
      </trkpt>
      <trkpt lat="44.62929" lon="3.58505">
        <ele>1336.85</ele>
        <time>2020-08-08T11:16:56Z</time>
      </trkpt>
      <trkpt lat="44.62925" lon="3.58493">
        <ele>1336.85</ele>
        <time>2020-08-08T11:17:05Z</time>
      </trkpt>
      <trkpt lat="44.62924" lon="3.58492">
        <ele>1336.85</ele>
        <time>2020-08-08T11:17:06Z</time>
      </trkpt>
      <trkpt lat="44.62922" lon="3.58484">
        <ele>1336.85</ele>
        <time>2020-08-08T11:17:10Z</time>
      </trkpt>
      <trkpt lat="44.62915" lon="3.58467">
        <ele>1336.85</ele>
        <time>2020-08-08T11:17:20Z</time>
      </trkpt>
      <trkpt lat="44.62914" lon="3.58465">
        <ele>1336.85</ele>
        <time>2020-08-08T11:17:21Z</time>
      </trkpt>
      <trkpt lat="44.6291" lon="3.58458">
        <ele>1336.85</ele>
        <time>2020-08-08T11:17:25Z</time>
      </trkpt>
      <trkpt lat="44.62907" lon="3.58455">
        <ele>1336.85</ele>
        <time>2020-08-08T11:17:28Z</time>
      </trkpt>
      <trkpt lat="44.62901" lon="3.58434">
        <ele>1336.37</ele>
        <time>2020-08-08T11:17:39Z</time>
      </trkpt>
      <trkpt lat="44.629" lon="3.58433">
        <ele>1336.37</ele>
        <time>2020-08-08T11:17:40Z</time>
      </trkpt>
      <trkpt lat="44.62891" lon="3.58422">
        <ele>1336.37</ele>
        <time>2020-08-08T11:17:47Z</time>
      </trkpt>
      <trkpt lat="44.62882" lon="3.58404">
        <ele>1335.89</ele>
        <time>2020-08-08T11:17:59Z</time>
      </trkpt>
      <trkpt lat="44.62874" lon="3.58386">
        <ele>1335.89</ele>
        <time>2020-08-08T11:18:15Z</time>
      </trkpt>
      <trkpt lat="44.62873" lon="3.58383">
        <ele>1335.41</ele>
        <time>2020-08-08T11:18:18Z</time>
      </trkpt>
      <trkpt lat="44.62865" lon="3.58366">
        <ele>1334.93</ele>
        <time>2020-08-08T11:18:29Z</time>
      </trkpt>
      <trkpt lat="44.62858" lon="3.58352">
        <ele>1334.93</ele>
        <time>2020-08-08T11:18:37Z</time>
      </trkpt>
      <trkpt lat="44.62853" lon="3.58332">
        <ele>1334.45</ele>
        <time>2020-08-08T11:18:49Z</time>
      </trkpt>
      <trkpt lat="44.62852" lon="3.58329">
        <ele>1334.45</ele>
        <time>2020-08-08T11:18:55Z</time>
      </trkpt>
      <trkpt lat="44.62847" lon="3.58322">
        <ele>1333.97</ele>
        <time>2020-08-08T11:19:02Z</time>
      </trkpt>
      <trkpt lat="44.62849" lon="3.58325">
        <ele>1334.45</ele>
        <time>2020-08-08T11:19:07Z</time>
      </trkpt>
      <trkpt lat="44.62849" lon="3.58327">
        <ele>1334.45</ele>
        <time>2020-08-08T11:19:21Z</time>
      </trkpt>
      <trkpt lat="44.62849" lon="3.58327">
        <ele>1334.45</ele>
        <time>2020-08-08T11:19:45Z</time>
      </trkpt>
      <trkpt lat="44.62849" lon="3.58326">
        <ele>1334.45</ele>
        <time>2020-08-08T11:20:14Z</time>
      </trkpt>
      <trkpt lat="44.62849" lon="3.58326">
        <ele>1334.93</ele>
        <time>2020-08-08T11:20:40Z</time>
      </trkpt>
      <trkpt lat="44.62849" lon="3.58326">
        <ele>1334.93</ele>
        <time>2020-08-08T11:21:02Z</time>
      </trkpt>
      <trkpt lat="44.62849" lon="3.58326">
        <ele>1334.93</ele>
        <time>2020-08-08T11:21:31Z</time>
      </trkpt>
      <trkpt lat="44.62849" lon="3.58326">
        <ele>1332.04</ele>
        <time>2020-08-08T11:21:36Z</time>
      </trkpt>
      <trkpt lat="44.62849" lon="3.58326">
        <ele>1338.77</ele>
        <time>2020-08-08T11:21:37Z</time>
      </trkpt>
      <trkpt lat="44.62849" lon="3.58326">
        <ele>1335.41</ele>
        <time>2020-08-08T11:21:38Z</time>
      </trkpt>
      <trkpt lat="44.62853" lon="3.58323">
        <ele>1335.41</ele>
        <time>2020-08-08T11:21:45Z</time>
      </trkpt>
      <trkpt lat="44.62868" lon="3.58309">
        <ele>1335.41</ele>
        <time>2020-08-08T11:22:03Z</time>
      </trkpt>
      <trkpt lat="44.62884" lon="3.58289">
        <ele>1335.41</ele>
        <time>2020-08-08T11:22:19Z</time>
      </trkpt>
      <trkpt lat="44.62898" lon="3.58276">
        <ele>1335.89</ele>
        <time>2020-08-08T11:22:33Z</time>
      </trkpt>
      <trkpt lat="44.62908" lon="3.58267">
        <ele>1335.89</ele>
        <time>2020-08-08T11:22:45Z</time>
      </trkpt>
      <trkpt lat="44.62921" lon="3.58252">
        <ele>1336.37</ele>
        <time>2020-08-08T11:22:59Z</time>
      </trkpt>
      <trkpt lat="44.62935" lon="3.58234">
        <ele>1336.85</ele>
        <time>2020-08-08T11:23:14Z</time>
      </trkpt>
      <trkpt lat="44.62949" lon="3.5822">
        <ele>1336.37</ele>
        <time>2020-08-08T11:23:28Z</time>
      </trkpt>
      <trkpt lat="44.62962" lon="3.58199">
        <ele>1336.37</ele>
        <time>2020-08-08T11:23:42Z</time>
      </trkpt>
      <trkpt lat="44.62971" lon="3.5819">
        <ele>1335.89</ele>
        <time>2020-08-08T11:23:52Z</time>
      </trkpt>
      <trkpt lat="44.62986" lon="3.5817">
        <ele>1335.89</ele>
        <time>2020-08-08T11:24:07Z</time>
      </trkpt>
      <trkpt lat="44.62988" lon="3.58168">
        <ele>1335.89</ele>
        <time>2020-08-08T11:24:09Z</time>
      </trkpt>
      <trkpt lat="44.62996" lon="3.58159">
        <ele>1335.41</ele>
        <time>2020-08-08T11:24:18Z</time>
      </trkpt>
      <trkpt lat="44.63004" lon="3.58148">
        <ele>1335.41</ele>
        <time>2020-08-08T11:24:26Z</time>
      </trkpt>
      <trkpt lat="44.63017" lon="3.58134">
        <ele>1335.89</ele>
        <time>2020-08-08T11:24:39Z</time>
      </trkpt>
      <trkpt lat="44.63028" lon="3.58117">
        <ele>1335.41</ele>
        <time>2020-08-08T11:24:52Z</time>
      </trkpt>
      <trkpt lat="44.63028" lon="3.58117">
        <ele>1334.93</ele>
        <time>2020-08-08T11:25:13Z</time>
      </trkpt>
      <trkpt lat="44.63031" lon="3.58113">
        <ele>1334.93</ele>
        <time>2020-08-08T11:25:23Z</time>
      </trkpt>
      <trkpt lat="44.63036" lon="3.58109">
        <ele>1334.93</ele>
        <time>2020-08-08T11:25:28Z</time>
      </trkpt>
      <trkpt lat="44.63038" lon="3.58106">
        <ele>1334.93</ele>
        <time>2020-08-08T11:25:31Z</time>
      </trkpt>
      <trkpt lat="44.63047" lon="3.58096">
        <ele>1334.93</ele>
        <time>2020-08-08T11:25:39Z</time>
      </trkpt>
      <trkpt lat="44.63054" lon="3.58086">
        <ele>1334.93</ele>
        <time>2020-08-08T11:25:49Z</time>
      </trkpt>
      <trkpt lat="44.63059" lon="3.58076">
        <ele>1334.45</ele>
        <time>2020-08-08T11:26:04Z</time>
      </trkpt>
      <trkpt lat="44.6306" lon="3.5807">
        <ele>1334.45</ele>
        <time>2020-08-08T11:26:15Z</time>
      </trkpt>
      <trkpt lat="44.63061" lon="3.58063">
        <ele>1334.45</ele>
        <time>2020-08-08T11:26:23Z</time>
      </trkpt>
      <trkpt lat="44.63057" lon="3.58069">
        <ele>1334.45</ele>
        <time>2020-08-08T11:26:36Z</time>
      </trkpt>
      <trkpt lat="44.63058" lon="3.58066">
        <ele>1334.93</ele>
        <time>2020-08-08T11:26:42Z</time>
      </trkpt>
      <trkpt lat="44.63061" lon="3.58054">
        <ele>1335.41</ele>
        <time>2020-08-08T11:26:50Z</time>
      </trkpt>
      <trkpt lat="44.63063" lon="3.5805">
        <ele>1334.93</ele>
        <time>2020-08-08T11:26:53Z</time>
      </trkpt>
      <trkpt lat="44.63064" lon="3.58046">
        <ele>1334.45</ele>
        <time>2020-08-08T11:26:56Z</time>
      </trkpt>
      <trkpt lat="44.63066" lon="3.58037">
        <ele>1333.97</ele>
        <time>2020-08-08T11:27:02Z</time>
      </trkpt>
      <trkpt lat="44.63071" lon="3.58008">
        <ele>1334.45</ele>
        <time>2020-08-08T11:27:18Z</time>
      </trkpt>
      <trkpt lat="44.63075" lon="3.57984">
        <ele>1334.45</ele>
        <time>2020-08-08T11:27:32Z</time>
      </trkpt>
      <trkpt lat="44.6308" lon="3.57961">
        <ele>1334.45</ele>
        <time>2020-08-08T11:27:45Z</time>
      </trkpt>
      <trkpt lat="44.63084" lon="3.57941">
        <ele>1334.45</ele>
        <time>2020-08-08T11:27:57Z</time>
      </trkpt>
      <trkpt lat="44.6309" lon="3.57914">
        <ele>1333.97</ele>
        <time>2020-08-08T11:28:12Z</time>
      </trkpt>
      <trkpt lat="44.63093" lon="3.57895">
        <ele>1334.45</ele>
        <time>2020-08-08T11:28:23Z</time>
      </trkpt>
      <trkpt lat="44.63093" lon="3.57887">
        <ele>1334.45</ele>
        <time>2020-08-08T11:28:27Z</time>
      </trkpt>
      <trkpt lat="44.63096" lon="3.57874">
        <ele>1334.45</ele>
        <time>2020-08-08T11:28:35Z</time>
      </trkpt>
      <trkpt lat="44.63099" lon="3.5786">
        <ele>1334.45</ele>
        <time>2020-08-08T11:28:44Z</time>
      </trkpt>
      <trkpt lat="44.63102" lon="3.57857">
        <ele>1334.93</ele>
        <time>2020-08-08T11:28:48Z</time>
      </trkpt>
      <trkpt lat="44.63106" lon="3.57848">
        <ele>1334.93</ele>
        <time>2020-08-08T11:28:56Z</time>
      </trkpt>
      <trkpt lat="44.63109" lon="3.57839">
        <ele>1335.41</ele>
        <time>2020-08-08T11:29:01Z</time>
      </trkpt>
      <trkpt lat="44.63112" lon="3.57834">
        <ele>1335.41</ele>
        <time>2020-08-08T11:29:04Z</time>
      </trkpt>
      <trkpt lat="44.63115" lon="3.57824">
        <ele>1335.89</ele>
        <time>2020-08-08T11:29:10Z</time>
      </trkpt>
      <trkpt lat="44.63117" lon="3.57818">
        <ele>1335.89</ele>
        <time>2020-08-08T11:29:14Z</time>
      </trkpt>
      <trkpt lat="44.63118" lon="3.57812">
        <ele>1336.37</ele>
        <time>2020-08-08T11:29:18Z</time>
      </trkpt>
      <trkpt lat="44.63124" lon="3.57789">
        <ele>1337.33</ele>
        <time>2020-08-08T11:29:31Z</time>
      </trkpt>
      <trkpt lat="44.63129" lon="3.57771">
        <ele>1337.33</ele>
        <time>2020-08-08T11:29:41Z</time>
      </trkpt>
      <trkpt lat="44.63136" lon="3.57755">
        <ele>1338.29</ele>
        <time>2020-08-08T11:29:53Z</time>
      </trkpt>
      <trkpt lat="44.63139" lon="3.57741">
        <ele>1338.77</ele>
        <time>2020-08-08T11:30:03Z</time>
      </trkpt>
      <trkpt lat="44.63145" lon="3.57723">
        <ele>1339.25</ele>
        <time>2020-08-08T11:30:13Z</time>
      </trkpt>
      <trkpt lat="44.63147" lon="3.57717">
        <ele>1339.73</ele>
        <time>2020-08-08T11:30:17Z</time>
      </trkpt>
      <trkpt lat="44.6315" lon="3.57696">
        <ele>1340.22</ele>
        <time>2020-08-08T11:30:28Z</time>
      </trkpt>
      <trkpt lat="44.63153" lon="3.57686">
        <ele>1340.7</ele>
        <time>2020-08-08T11:30:37Z</time>
      </trkpt>
      <trkpt lat="44.63146" lon="3.57664">
        <ele>1341.18</ele>
        <time>2020-08-08T11:30:48Z</time>
      </trkpt>
      <trkpt lat="44.63135" lon="3.57653">
        <ele>1340.7</ele>
        <time>2020-08-08T11:30:56Z</time>
      </trkpt>
      <trkpt lat="44.63121" lon="3.5764">
        <ele>1340.22</ele>
        <time>2020-08-08T11:31:08Z</time>
      </trkpt>
      <trkpt lat="44.6311" lon="3.57629">
        <ele>1340.22</ele>
        <time>2020-08-08T11:31:19Z</time>
      </trkpt>
      <trkpt lat="44.63102" lon="3.57618">
        <ele>1340.22</ele>
        <time>2020-08-08T11:31:31Z</time>
      </trkpt>
      <trkpt lat="44.63094" lon="3.57603">
        <ele>1339.73</ele>
        <time>2020-08-08T11:31:41Z</time>
      </trkpt>
      <trkpt lat="44.63096" lon="3.5759">
        <ele>1339.73</ele>
        <time>2020-08-08T11:31:49Z</time>
      </trkpt>
      <trkpt lat="44.63103" lon="3.57572">
        <ele>1339.73</ele>
        <time>2020-08-08T11:32:01Z</time>
      </trkpt>
      <trkpt lat="44.63104" lon="3.57566">
        <ele>1339.73</ele>
        <time>2020-08-08T11:32:06Z</time>
      </trkpt>
      <trkpt lat="44.63105" lon="3.57563">
        <ele>1339.73</ele>
        <time>2020-08-08T11:32:08Z</time>
      </trkpt>
      <trkpt lat="44.63111" lon="3.57547">
        <ele>1340.22</ele>
        <time>2020-08-08T11:32:18Z</time>
      </trkpt>
      <trkpt lat="44.63123" lon="3.57517">
        <ele>1339.73</ele>
        <time>2020-08-08T11:32:34Z</time>
      </trkpt>
      <trkpt lat="44.63134" lon="3.57493">
        <ele>1340.22</ele>
        <time>2020-08-08T11:32:50Z</time>
      </trkpt>
      <trkpt lat="44.63137" lon="3.5749">
        <ele>1340.22</ele>
        <time>2020-08-08T11:32:53Z</time>
      </trkpt>
      <trkpt lat="44.63141" lon="3.57473">
        <ele>1339.73</ele>
        <time>2020-08-08T11:33:02Z</time>
      </trkpt>
      <trkpt lat="44.63123" lon="3.5746">
        <ele>1339.25</ele>
        <time>2020-08-08T11:33:14Z</time>
      </trkpt>
      <trkpt lat="44.63121" lon="3.57457">
        <ele>1338.77</ele>
        <time>2020-08-08T11:33:17Z</time>
      </trkpt>
      <trkpt lat="44.6311" lon="3.57446">
        <ele>1338.29</ele>
        <time>2020-08-08T11:33:27Z</time>
      </trkpt>
      <trkpt lat="44.63105" lon="3.57434">
        <ele>1337.81</ele>
        <time>2020-08-08T11:33:35Z</time>
      </trkpt>
      <trkpt lat="44.63101" lon="3.57425">
        <ele>1337.33</ele>
        <time>2020-08-08T11:33:39Z</time>
      </trkpt>
      <trkpt lat="44.63095" lon="3.57411">
        <ele>1336.85</ele>
        <time>2020-08-08T11:33:46Z</time>
      </trkpt>
      <trkpt lat="44.63091" lon="3.57402">
        <ele>1335.89</ele>
        <time>2020-08-08T11:33:54Z</time>
      </trkpt>
      <trkpt lat="44.63084" lon="3.5739">
        <ele>1335.41</ele>
        <time>2020-08-08T11:34:00Z</time>
      </trkpt>
      <trkpt lat="44.63082" lon="3.5738">
        <ele>1334.93</ele>
        <time>2020-08-08T11:34:05Z</time>
      </trkpt>
      <trkpt lat="44.63078" lon="3.57372">
        <ele>1334.93</ele>
        <time>2020-08-08T11:34:10Z</time>
      </trkpt>
      <trkpt lat="44.63075" lon="3.57354">
        <ele>1334.93</ele>
        <time>2020-08-08T11:34:20Z</time>
      </trkpt>
      <trkpt lat="44.63076" lon="3.57345">
        <ele>1334.45</ele>
        <time>2020-08-08T11:34:25Z</time>
      </trkpt>
      <trkpt lat="44.63075" lon="3.57341">
        <ele>1334.45</ele>
        <time>2020-08-08T11:34:27Z</time>
      </trkpt>
      <trkpt lat="44.63076" lon="3.57333">
        <ele>1334.45</ele>
        <time>2020-08-08T11:34:31Z</time>
      </trkpt>
      <trkpt lat="44.63075" lon="3.57318">
        <ele>1333.97</ele>
        <time>2020-08-08T11:34:37Z</time>
      </trkpt>
      <trkpt lat="44.63077" lon="3.57308">
        <ele>1334.45</ele>
        <time>2020-08-08T11:34:44Z</time>
      </trkpt>
      <trkpt lat="44.63076" lon="3.57297">
        <ele>1333.97</ele>
        <time>2020-08-08T11:34:50Z</time>
      </trkpt>
      <trkpt lat="44.63076" lon="3.57291">
        <ele>1333.49</ele>
        <time>2020-08-08T11:34:53Z</time>
      </trkpt>
      <trkpt lat="44.63077" lon="3.57286">
        <ele>1333.49</ele>
        <time>2020-08-08T11:34:56Z</time>
      </trkpt>
      <trkpt lat="44.63074" lon="3.57278">
        <ele>1333.49</ele>
        <time>2020-08-08T11:35:00Z</time>
      </trkpt>
      <trkpt lat="44.63068" lon="3.57255">
        <ele>1333.49</ele>
        <time>2020-08-08T11:35:11Z</time>
      </trkpt>
      <trkpt lat="44.63065" lon="3.57246">
        <ele>1333.49</ele>
        <time>2020-08-08T11:35:18Z</time>
      </trkpt>
      <trkpt lat="44.63062" lon="3.57238">
        <ele>1333.49</ele>
        <time>2020-08-08T11:35:22Z</time>
      </trkpt>
      <trkpt lat="44.63054" lon="3.57215">
        <ele>1333.49</ele>
        <time>2020-08-08T11:35:35Z</time>
      </trkpt>
      <trkpt lat="44.63053" lon="3.57196">
        <ele>1333.49</ele>
        <time>2020-08-08T11:35:45Z</time>
      </trkpt>
      <trkpt lat="44.63051" lon="3.57175">
        <ele>1333.49</ele>
        <time>2020-08-08T11:35:56Z</time>
      </trkpt>
      <trkpt lat="44.63051" lon="3.57172">
        <ele>1333.49</ele>
        <time>2020-08-08T11:35:58Z</time>
      </trkpt>
      <trkpt lat="44.6305" lon="3.57164">
        <ele>1333.49</ele>
        <time>2020-08-08T11:36:02Z</time>
      </trkpt>
      <trkpt lat="44.63047" lon="3.57139">
        <ele>1333.49</ele>
        <time>2020-08-08T11:36:14Z</time>
      </trkpt>
      <trkpt lat="44.63045" lon="3.57128">
        <ele>1333.49</ele>
        <time>2020-08-08T11:36:21Z</time>
      </trkpt>
      <trkpt lat="44.63044" lon="3.5712">
        <ele>1333.49</ele>
        <time>2020-08-08T11:36:25Z</time>
      </trkpt>
      <trkpt lat="44.63038" lon="3.57088">
        <ele>1333.01</ele>
        <time>2020-08-08T11:36:40Z</time>
      </trkpt>
      <trkpt lat="44.63038" lon="3.57084">
        <ele>1333.01</ele>
        <time>2020-08-08T11:36:43Z</time>
      </trkpt>
      <trkpt lat="44.63037" lon="3.57076">
        <ele>1333.01</ele>
        <time>2020-08-08T11:36:48Z</time>
      </trkpt>
      <trkpt lat="44.63026" lon="3.5705">
        <ele>1333.01</ele>
        <time>2020-08-08T11:37:03Z</time>
      </trkpt>
      <trkpt lat="44.63026" lon="3.5705">
        <ele>1332.52</ele>
        <time>2020-08-08T11:37:20Z</time>
      </trkpt>
      <trkpt lat="44.63021" lon="3.57043">
        <ele>1332.52</ele>
        <time>2020-08-08T11:37:26Z</time>
      </trkpt>
      <trkpt lat="44.63019" lon="3.57038">
        <ele>1332.52</ele>
        <time>2020-08-08T11:37:41Z</time>
      </trkpt>
      <trkpt lat="44.63014" lon="3.5703">
        <ele>1332.04</ele>
        <time>2020-08-08T11:37:54Z</time>
      </trkpt>
      <trkpt lat="44.63012" lon="3.57027">
        <ele>1332.04</ele>
        <time>2020-08-08T11:37:56Z</time>
      </trkpt>
      <trkpt lat="44.63006" lon="3.57018">
        <ele>1332.04</ele>
        <time>2020-08-08T11:38:02Z</time>
      </trkpt>
      <trkpt lat="44.62991" lon="3.57">
        <ele>1332.52</ele>
        <time>2020-08-08T11:38:15Z</time>
      </trkpt>
      <trkpt lat="44.62981" lon="3.56985">
        <ele>1332.52</ele>
        <time>2020-08-08T11:38:28Z</time>
      </trkpt>
      <trkpt lat="44.62979" lon="3.56983">
        <ele>1332.52</ele>
        <time>2020-08-08T11:38:30Z</time>
      </trkpt>
      <trkpt lat="44.62963" lon="3.56962">
        <ele>1332.52</ele>
        <time>2020-08-08T11:38:47Z</time>
      </trkpt>
      <trkpt lat="44.62955" lon="3.56944">
        <ele>1333.01</ele>
        <time>2020-08-08T11:39:00Z</time>
      </trkpt>
      <trkpt lat="44.62954" lon="3.56942">
        <ele>1332.52</ele>
        <time>2020-08-08T11:39:01Z</time>
      </trkpt>
      <trkpt lat="44.62945" lon="3.56916">
        <ele>1333.01</ele>
        <time>2020-08-08T11:39:16Z</time>
      </trkpt>
      <trkpt lat="44.62937" lon="3.56897">
        <ele>1332.52</ele>
        <time>2020-08-08T11:39:26Z</time>
      </trkpt>
      <trkpt lat="44.62935" lon="3.56886">
        <ele>1333.01</ele>
        <time>2020-08-08T11:39:31Z</time>
      </trkpt>
      <trkpt lat="44.62931" lon="3.56875">
        <ele>1333.01</ele>
        <time>2020-08-08T11:39:39Z</time>
      </trkpt>
      <trkpt lat="44.62931" lon="3.56869">
        <ele>1332.52</ele>
        <time>2020-08-08T11:39:42Z</time>
      </trkpt>
      <trkpt lat="44.62918" lon="3.56848">
        <ele>1332.52</ele>
        <time>2020-08-08T11:39:56Z</time>
      </trkpt>
      <trkpt lat="44.62909" lon="3.56829">
        <ele>1332.52</ele>
        <time>2020-08-08T11:40:09Z</time>
      </trkpt>
      <trkpt lat="44.62893" lon="3.56808">
        <ele>1332.52</ele>
        <time>2020-08-08T11:40:23Z</time>
      </trkpt>
      <trkpt lat="44.62888" lon="3.56797">
        <ele>1332.52</ele>
        <time>2020-08-08T11:40:29Z</time>
      </trkpt>
      <trkpt lat="44.62884" lon="3.56781">
        <ele>1332.52</ele>
        <time>2020-08-08T11:40:39Z</time>
      </trkpt>
      <trkpt lat="44.62882" lon="3.56771">
        <ele>1332.52</ele>
        <time>2020-08-08T11:40:44Z</time>
      </trkpt>
      <trkpt lat="44.62882" lon="3.5676">
        <ele>1333.01</ele>
        <time>2020-08-08T11:40:49Z</time>
      </trkpt>
      <trkpt lat="44.62883" lon="3.5675">
        <ele>1332.52</ele>
        <time>2020-08-08T11:40:53Z</time>
      </trkpt>
      <trkpt lat="44.62883" lon="3.56745">
        <ele>1332.52</ele>
        <time>2020-08-08T11:40:57Z</time>
      </trkpt>
      <trkpt lat="44.62881" lon="3.56733">
        <ele>1332.52</ele>
        <time>2020-08-08T11:41:03Z</time>
      </trkpt>
      <trkpt lat="44.62884" lon="3.56709">
        <ele>1332.52</ele>
        <time>2020-08-08T11:41:18Z</time>
      </trkpt>
      <trkpt lat="44.6289" lon="3.56691">
        <ele>1332.52</ele>
        <time>2020-08-08T11:41:32Z</time>
      </trkpt>
      <trkpt lat="44.62904" lon="3.56668">
        <ele>1333.01</ele>
        <time>2020-08-08T11:41:49Z</time>
      </trkpt>
      <trkpt lat="44.62906" lon="3.56667">
        <ele>1333.01</ele>
        <time>2020-08-08T11:41:52Z</time>
      </trkpt>
      <trkpt lat="44.62919" lon="3.56645">
        <ele>1333.01</ele>
        <time>2020-08-08T11:42:06Z</time>
      </trkpt>
      <trkpt lat="44.6292" lon="3.56624">
        <ele>1333.01</ele>
        <time>2020-08-08T11:42:21Z</time>
      </trkpt>
      <trkpt lat="44.62912" lon="3.56613">
        <ele>1332.52</ele>
        <time>2020-08-08T11:42:34Z</time>
      </trkpt>
      <trkpt lat="44.62912" lon="3.56609">
        <ele>1332.04</ele>
        <time>2020-08-08T11:42:48Z</time>
      </trkpt>
      <trkpt lat="44.62912" lon="3.56609">
        <ele>1332.04</ele>
        <time>2020-08-08T11:43:15Z</time>
      </trkpt>
      <trkpt lat="44.62912" lon="3.56609">
        <ele>1332.04</ele>
        <time>2020-08-08T11:43:47Z</time>
      </trkpt>
      <trkpt lat="44.62912" lon="3.5661">
        <ele>1332.04</ele>
        <time>2020-08-08T11:44:06Z</time>
      </trkpt>
      <trkpt lat="44.62911" lon="3.56614">
        <ele>1332.52</ele>
        <time>2020-08-08T11:44:36Z</time>
      </trkpt>
      <trkpt lat="44.62913" lon="3.56627">
        <ele>1333.01</ele>
        <time>2020-08-08T11:44:50Z</time>
      </trkpt>
      <trkpt lat="44.62925" lon="3.56627">
        <ele>1333.49</ele>
        <time>2020-08-08T11:45:02Z</time>
      </trkpt>
      <trkpt lat="44.62928" lon="3.56624">
        <ele>1333.49</ele>
        <time>2020-08-08T11:45:06Z</time>
      </trkpt>
      <trkpt lat="44.62931" lon="3.56621">
        <ele>1333.01</ele>
        <time>2020-08-08T11:45:09Z</time>
      </trkpt>
      <trkpt lat="44.62939" lon="3.56604">
        <ele>1333.01</ele>
        <time>2020-08-08T11:45:23Z</time>
      </trkpt>
      <trkpt lat="44.6295" lon="3.56581">
        <ele>1333.49</ele>
        <time>2020-08-08T11:45:40Z</time>
      </trkpt>
      <trkpt lat="44.62964" lon="3.56565">
        <ele>1333.01</ele>
        <time>2020-08-08T11:45:55Z</time>
      </trkpt>
      <trkpt lat="44.62981" lon="3.56555">
        <ele>1333.01</ele>
        <time>2020-08-08T11:46:12Z</time>
      </trkpt>
      <trkpt lat="44.62999" lon="3.56549">
        <ele>1333.01</ele>
        <time>2020-08-08T11:46:25Z</time>
      </trkpt>
      <trkpt lat="44.63001" lon="3.56547">
        <ele>1333.01</ele>
        <time>2020-08-08T11:46:27Z</time>
      </trkpt>
      <trkpt lat="44.63021" lon="3.56544">
        <ele>1333.01</ele>
        <time>2020-08-08T11:46:41Z</time>
      </trkpt>
      <trkpt lat="44.63025" lon="3.56546">
        <ele>1333.01</ele>
        <time>2020-08-08T11:46:45Z</time>
      </trkpt>
      <trkpt lat="44.63044" lon="3.56559">
        <ele>1333.49</ele>
        <time>2020-08-08T11:47:01Z</time>
      </trkpt>
      <trkpt lat="44.63046" lon="3.56562">
        <ele>1333.49</ele>
        <time>2020-08-08T11:47:04Z</time>
      </trkpt>
      <trkpt lat="44.63056" lon="3.56582">
        <ele>1333.01</ele>
        <time>2020-08-08T11:47:19Z</time>
      </trkpt>
      <trkpt lat="44.63069" lon="3.56599">
        <ele>1332.52</ele>
        <time>2020-08-08T11:47:35Z</time>
      </trkpt>
      <trkpt lat="44.63077" lon="3.56605">
        <ele>1332.52</ele>
        <time>2020-08-08T11:47:50Z</time>
      </trkpt>
      <trkpt lat="44.63077" lon="3.56606">
        <ele>1332.52</ele>
        <time>2020-08-08T11:48:10Z</time>
      </trkpt>
      <trkpt lat="44.63079" lon="3.56607">
        <ele>1332.04</ele>
        <time>2020-08-08T11:48:17Z</time>
      </trkpt>
      <trkpt lat="44.63089" lon="3.56613">
        <ele>1332.04</ele>
        <time>2020-08-08T11:48:31Z</time>
      </trkpt>
      <trkpt lat="44.63101" lon="3.5662">
        <ele>1332.52</ele>
        <time>2020-08-08T11:48:46Z</time>
      </trkpt>
      <trkpt lat="44.63104" lon="3.56625">
        <ele>1332.52</ele>
        <time>2020-08-08T11:48:50Z</time>
      </trkpt>
      <trkpt lat="44.63115" lon="3.56639">
        <ele>1332.52</ele>
        <time>2020-08-08T11:49:01Z</time>
      </trkpt>
      <trkpt lat="44.6313" lon="3.56655">
        <ele>1332.52</ele>
        <time>2020-08-08T11:49:18Z</time>
      </trkpt>
      <trkpt lat="44.63133" lon="3.56658">
        <ele>1332.52</ele>
        <time>2020-08-08T11:49:23Z</time>
      </trkpt>
      <trkpt lat="44.63151" lon="3.56672">
        <ele>1332.52</ele>
        <time>2020-08-08T11:49:37Z</time>
      </trkpt>
      <trkpt lat="44.63171" lon="3.56677">
        <ele>1333.01</ele>
        <time>2020-08-08T11:49:52Z</time>
      </trkpt>
      <trkpt lat="44.63177" lon="3.56677">
        <ele>1333.01</ele>
        <time>2020-08-08T11:49:57Z</time>
      </trkpt>
      <trkpt lat="44.63193" lon="3.56676">
        <ele>1333.01</ele>
        <time>2020-08-08T11:50:11Z</time>
      </trkpt>
      <trkpt lat="44.63214" lon="3.56674">
        <ele>1333.01</ele>
        <time>2020-08-08T11:50:25Z</time>
      </trkpt>
      <trkpt lat="44.63222" lon="3.56668">
        <ele>1333.01</ele>
        <time>2020-08-08T11:50:32Z</time>
      </trkpt>
      <trkpt lat="44.63227" lon="3.56663">
        <ele>1333.01</ele>
        <time>2020-08-08T11:50:39Z</time>
      </trkpt>
      <trkpt lat="44.63227" lon="3.56658">
        <ele>1333.01</ele>
        <time>2020-08-08T11:50:42Z</time>
      </trkpt>
      <trkpt lat="44.63229" lon="3.56648">
        <ele>1332.04</ele>
        <time>2020-08-08T11:50:50Z</time>
      </trkpt>
      <trkpt lat="44.63231" lon="3.56631">
        <ele>1332.52</ele>
        <time>2020-08-08T11:51:00Z</time>
      </trkpt>
      <trkpt lat="44.63229" lon="3.56626">
        <ele>1332.52</ele>
        <time>2020-08-08T11:51:03Z</time>
      </trkpt>
      <trkpt lat="44.63221" lon="3.56602">
        <ele>1332.52</ele>
        <time>2020-08-08T11:51:17Z</time>
      </trkpt>
      <trkpt lat="44.63223" lon="3.56579">
        <ele>1333.01</ele>
        <time>2020-08-08T11:51:31Z</time>
      </trkpt>
      <trkpt lat="44.63224" lon="3.56578">
        <ele>1332.52</ele>
        <time>2020-08-08T11:51:32Z</time>
      </trkpt>
      <trkpt lat="44.63222" lon="3.5656">
        <ele>1332.52</ele>
        <time>2020-08-08T11:51:44Z</time>
      </trkpt>
      <trkpt lat="44.63221" lon="3.56539">
        <ele>1332.52</ele>
        <time>2020-08-08T11:51:55Z</time>
      </trkpt>
      <trkpt lat="44.63213" lon="3.56513">
        <ele>1333.01</ele>
        <time>2020-08-08T11:52:11Z</time>
      </trkpt>
      <trkpt lat="44.63213" lon="3.5651">
        <ele>1332.52</ele>
        <time>2020-08-08T11:52:13Z</time>
      </trkpt>
      <trkpt lat="44.63212" lon="3.565">
        <ele>1332.52</ele>
        <time>2020-08-08T11:52:22Z</time>
      </trkpt>
      <trkpt lat="44.63198" lon="3.56489">
        <ele>1332.52</ele>
        <time>2020-08-08T11:52:33Z</time>
      </trkpt>
      <trkpt lat="44.63179" lon="3.56472">
        <ele>1332.52</ele>
        <time>2020-08-08T11:52:43Z</time>
      </trkpt>
      <trkpt lat="44.63163" lon="3.56465">
        <ele>1332.52</ele>
        <time>2020-08-08T11:52:53Z</time>
      </trkpt>
      <trkpt lat="44.63149" lon="3.5646">
        <ele>1332.52</ele>
        <time>2020-08-08T11:53:05Z</time>
      </trkpt>
      <trkpt lat="44.6314" lon="3.56457">
        <ele>1332.52</ele>
        <time>2020-08-08T11:53:12Z</time>
      </trkpt>
      <trkpt lat="44.63132" lon="3.56456">
        <ele>1332.04</ele>
        <time>2020-08-08T11:53:16Z</time>
      </trkpt>
      <trkpt lat="44.63116" lon="3.56445">
        <ele>1332.04</ele>
        <time>2020-08-08T11:53:31Z</time>
      </trkpt>
      <trkpt lat="44.63112" lon="3.5644">
        <ele>1332.04</ele>
        <time>2020-08-08T11:53:46Z</time>
      </trkpt>
      <trkpt lat="44.63112" lon="3.56435">
        <ele>1332.52</ele>
        <time>2020-08-08T11:53:50Z</time>
      </trkpt>
      <trkpt lat="44.63109" lon="3.56421">
        <ele>1332.04</ele>
        <time>2020-08-08T11:53:58Z</time>
      </trkpt>
      <trkpt lat="44.63106" lon="3.5641">
        <ele>1332.04</ele>
        <time>2020-08-08T11:54:03Z</time>
      </trkpt>
      <trkpt lat="44.63095" lon="3.56389">
        <ele>1332.04</ele>
        <time>2020-08-08T11:54:16Z</time>
      </trkpt>
      <trkpt lat="44.6309" lon="3.56365">
        <ele>1332.04</ele>
        <time>2020-08-08T11:54:27Z</time>
      </trkpt>
      <trkpt lat="44.63089" lon="3.56363">
        <ele>1332.04</ele>
        <time>2020-08-08T11:54:29Z</time>
      </trkpt>
      <trkpt lat="44.63088" lon="3.56355">
        <ele>1332.04</ele>
        <time>2020-08-08T11:54:34Z</time>
      </trkpt>
      <trkpt lat="44.63083" lon="3.56341">
        <ele>1331.56</ele>
        <time>2020-08-08T11:54:41Z</time>
      </trkpt>
      <trkpt lat="44.63081" lon="3.56333">
        <ele>1332.04</ele>
        <time>2020-08-08T11:54:45Z</time>
      </trkpt>
      <trkpt lat="44.63075" lon="3.56313">
        <ele>1332.52</ele>
        <time>2020-08-08T11:54:57Z</time>
      </trkpt>
      <trkpt lat="44.63067" lon="3.56292">
        <ele>1332.04</ele>
        <time>2020-08-08T11:55:10Z</time>
      </trkpt>
      <trkpt lat="44.63056" lon="3.56281">
        <ele>1333.01</ele>
        <time>2020-08-08T11:55:21Z</time>
      </trkpt>
      <trkpt lat="44.63048" lon="3.56267">
        <ele>1333.01</ele>
        <time>2020-08-08T11:55:28Z</time>
      </trkpt>
      <trkpt lat="44.63033" lon="3.56249">
        <ele>1333.49</ele>
        <time>2020-08-08T11:55:42Z</time>
      </trkpt>
      <trkpt lat="44.63026" lon="3.56255">
        <ele>1332.04</ele>
        <time>2020-08-08T11:55:52Z</time>
      </trkpt>
      <trkpt lat="44.63017" lon="3.5625">
        <ele>1330.12</ele>
        <time>2020-08-08T11:56:03Z</time>
      </trkpt>
      <trkpt lat="44.63013" lon="3.56245">
        <ele>1330.12</ele>
        <time>2020-08-08T11:56:13Z</time>
      </trkpt>
      <trkpt lat="44.63013" lon="3.56245">
        <ele>1330.12</ele>
        <time>2020-08-08T11:56:27Z</time>
      </trkpt>
      <trkpt lat="44.63013" lon="3.56245">
        <ele>1329.64</ele>
        <time>2020-08-08T11:56:40Z</time>
      </trkpt>
      <trkpt lat="44.63012" lon="3.56245">
        <ele>1329.64</ele>
        <time>2020-08-08T11:56:53Z</time>
      </trkpt>
      <trkpt lat="44.63012" lon="3.56245">
        <ele>1329.64</ele>
        <time>2020-08-08T11:57:05Z</time>
      </trkpt>
      <trkpt lat="44.63012" lon="3.56245">
        <ele>1330.12</ele>
        <time>2020-08-08T11:57:18Z</time>
      </trkpt>
      <trkpt lat="44.63012" lon="3.56246">
        <ele>1329.64</ele>
        <time>2020-08-08T11:57:22Z</time>
      </trkpt>
      <trkpt lat="44.63013" lon="3.56249">
        <ele>1330.6</ele>
        <time>2020-08-08T11:57:24Z</time>
      </trkpt>
      <trkpt lat="44.63018" lon="3.56257">
        <ele>1330.12</ele>
        <time>2020-08-08T11:57:36Z</time>
      </trkpt>
      <trkpt lat="44.63017" lon="3.56257">
        <ele>1329.16</ele>
        <time>2020-08-08T11:57:54Z</time>
      </trkpt>
      <trkpt lat="44.63018" lon="3.56259">
        <ele>1329.16</ele>
        <time>2020-08-08T11:58:07Z</time>
      </trkpt>
      <trkpt lat="44.63018" lon="3.56259">
        <ele>1329.16</ele>
        <time>2020-08-08T11:58:34Z</time>
      </trkpt>
      <trkpt lat="44.63018" lon="3.5626">
        <ele>1329.64</ele>
        <time>2020-08-08T11:59:07Z</time>
      </trkpt>
      <trkpt lat="44.63018" lon="3.56259">
        <ele>1329.64</ele>
        <time>2020-08-08T11:59:46Z</time>
      </trkpt>
      <trkpt lat="44.63018" lon="3.5626">
        <ele>1329.64</ele>
        <time>2020-08-08T12:00:16Z</time>
      </trkpt>
      <trkpt lat="44.63018" lon="3.56259">
        <ele>1329.64</ele>
        <time>2020-08-08T12:00:48Z</time>
      </trkpt>
      <trkpt lat="44.63017" lon="3.56259">
        <ele>1330.12</ele>
        <time>2020-08-08T12:01:21Z</time>
      </trkpt>
      <trkpt lat="44.63017" lon="3.56259">
        <ele>1330.12</ele>
        <time>2020-08-08T12:01:52Z</time>
      </trkpt>
      <trkpt lat="44.63017" lon="3.56259">
        <ele>1330.12</ele>
        <time>2020-08-08T12:02:19Z</time>
      </trkpt>
      <trkpt lat="44.63016" lon="3.56259">
        <ele>1329.64</ele>
        <time>2020-08-08T12:02:36Z</time>
      </trkpt>
      <trkpt lat="44.63016" lon="3.56259">
        <ele>1329.16</ele>
        <time>2020-08-08T12:03:12Z</time>
      </trkpt>
      <trkpt lat="44.63017" lon="3.56259">
        <ele>1329.64</ele>
        <time>2020-08-08T12:03:48Z</time>
      </trkpt>
      <trkpt lat="44.63017" lon="3.56259">
        <ele>1329.64</ele>
        <time>2020-08-08T12:04:25Z</time>
      </trkpt>
      <trkpt lat="44.63017" lon="3.56258">
        <ele>1330.6</ele>
        <time>2020-08-08T12:04:46Z</time>
      </trkpt>
      <trkpt lat="44.63018" lon="3.56258">
        <ele>1330.12</ele>
        <time>2020-08-08T12:04:57Z</time>
      </trkpt>
      <trkpt lat="44.63018" lon="3.56258">
        <ele>1330.12</ele>
        <time>2020-08-08T12:05:27Z</time>
      </trkpt>
      <trkpt lat="44.63018" lon="3.56258">
        <ele>1329.16</ele>
        <time>2020-08-08T12:05:56Z</time>
      </trkpt>
      <trkpt lat="44.63018" lon="3.56259">
        <ele>1329.16</ele>
        <time>2020-08-08T12:06:26Z</time>
      </trkpt>
      <trkpt lat="44.63018" lon="3.56259">
        <ele>1329.64</ele>
        <time>2020-08-08T12:06:58Z</time>
      </trkpt>
      <trkpt lat="44.63018" lon="3.56259">
        <ele>1330.12</ele>
        <time>2020-08-08T12:07:25Z</time>
      </trkpt>
      <trkpt lat="44.63019" lon="3.56257">
        <ele>1330.6</ele>
        <time>2020-08-08T12:07:34Z</time>
      </trkpt>
      <trkpt lat="44.63018" lon="3.56259">
        <ele>1330.6</ele>
        <time>2020-08-08T12:07:44Z</time>
      </trkpt>
      <trkpt lat="44.63018" lon="3.5626">
        <ele>1330.12</ele>
        <time>2020-08-08T12:07:55Z</time>
      </trkpt>
      <trkpt lat="44.63018" lon="3.5626">
        <ele>1330.6</ele>
        <time>2020-08-08T12:08:09Z</time>
      </trkpt>
      <trkpt lat="44.63018" lon="3.5626">
        <ele>1330.12</ele>
        <time>2020-08-08T12:08:16Z</time>
      </trkpt>
      <trkpt lat="44.62986" lon="3.56219">
        <ele>1332.04</ele>
        <time>2020-08-08T12:17:48Z</time>
      </trkpt>
      <trkpt lat="44.62974" lon="3.56224">
        <ele>1330.6</ele>
        <time>2020-08-08T12:18:00Z</time>
      </trkpt>
      <trkpt lat="44.62966" lon="3.56226">
        <ele>1330.12</ele>
        <time>2020-08-08T12:18:13Z</time>
      </trkpt>
      <trkpt lat="44.62958" lon="3.56228">
        <ele>1330.12</ele>
        <time>2020-08-08T12:18:26Z</time>
      </trkpt>
      <trkpt lat="44.62939" lon="3.56234">
        <ele>1329.64</ele>
        <time>2020-08-08T12:18:42Z</time>
      </trkpt>
      <trkpt lat="44.62919" lon="3.56239">
        <ele>1330.12</ele>
        <time>2020-08-08T12:18:55Z</time>
      </trkpt>
      <trkpt lat="44.62902" lon="3.56246">
        <ele>1330.12</ele>
        <time>2020-08-08T12:19:08Z</time>
      </trkpt>
      <trkpt lat="44.629" lon="3.56247">
        <ele>1330.12</ele>
        <time>2020-08-08T12:19:10Z</time>
      </trkpt>
      <trkpt lat="44.62892" lon="3.56249">
        <ele>1330.12</ele>
        <time>2020-08-08T12:19:15Z</time>
      </trkpt>
      <trkpt lat="44.62871" lon="3.56246">
        <ele>1330.12</ele>
        <time>2020-08-08T12:19:33Z</time>
      </trkpt>
      <trkpt lat="44.62859" lon="3.56246">
        <ele>1329.64</ele>
        <time>2020-08-08T12:19:43Z</time>
      </trkpt>
      <trkpt lat="44.62855" lon="3.56245">
        <ele>1329.64</ele>
        <time>2020-08-08T12:19:45Z</time>
      </trkpt>
      <trkpt lat="44.62849" lon="3.56244">
        <ele>1329.64</ele>
        <time>2020-08-08T12:19:49Z</time>
      </trkpt>
      <trkpt lat="44.62843" lon="3.56244">
        <ele>1330.12</ele>
        <time>2020-08-08T12:19:54Z</time>
      </trkpt>
      <trkpt lat="44.62832" lon="3.56241">
        <ele>1330.12</ele>
        <time>2020-08-08T12:20:01Z</time>
      </trkpt>
      <trkpt lat="44.62824" lon="3.56242">
        <ele>1330.12</ele>
        <time>2020-08-08T12:20:07Z</time>
      </trkpt>
      <trkpt lat="44.62819" lon="3.56241">
        <ele>1330.12</ele>
        <time>2020-08-08T12:20:10Z</time>
      </trkpt>
      <trkpt lat="44.62798" lon="3.56246">
        <ele>1329.64</ele>
        <time>2020-08-08T12:20:23Z</time>
      </trkpt>
      <trkpt lat="44.62792" lon="3.5625">
        <ele>1330.12</ele>
        <time>2020-08-08T12:20:28Z</time>
      </trkpt>
      <trkpt lat="44.62787" lon="3.56248">
        <ele>1330.12</ele>
        <time>2020-08-08T12:20:32Z</time>
      </trkpt>
      <trkpt lat="44.6278" lon="3.56246">
        <ele>1330.12</ele>
        <time>2020-08-08T12:20:37Z</time>
      </trkpt>
      <trkpt lat="44.62773" lon="3.56249">
        <ele>1330.12</ele>
        <time>2020-08-08T12:20:42Z</time>
      </trkpt>
      <trkpt lat="44.62767" lon="3.56252">
        <ele>1330.12</ele>
        <time>2020-08-08T12:20:47Z</time>
      </trkpt>
      <trkpt lat="44.62753" lon="3.56253">
        <ele>1330.6</ele>
        <time>2020-08-08T12:21:00Z</time>
      </trkpt>
      <trkpt lat="44.62734" lon="3.56258">
        <ele>1330.6</ele>
        <time>2020-08-08T12:21:13Z</time>
      </trkpt>
      <trkpt lat="44.6273" lon="3.5626">
        <ele>1330.6</ele>
        <time>2020-08-08T12:21:17Z</time>
      </trkpt>
      <trkpt lat="44.62714" lon="3.5627">
        <ele>1330.6</ele>
        <time>2020-08-08T12:21:30Z</time>
      </trkpt>
      <trkpt lat="44.62704" lon="3.56275">
        <ele>1330.6</ele>
        <time>2020-08-08T12:21:38Z</time>
      </trkpt>
      <trkpt lat="44.62689" lon="3.56275">
        <ele>1330.12</ele>
        <time>2020-08-08T12:21:50Z</time>
      </trkpt>
      <trkpt lat="44.62685" lon="3.56276">
        <ele>1330.6</ele>
        <time>2020-08-08T12:21:54Z</time>
      </trkpt>
      <trkpt lat="44.62676" lon="3.56275">
        <ele>1330.6</ele>
        <time>2020-08-08T12:22:00Z</time>
      </trkpt>
      <trkpt lat="44.6266" lon="3.56273">
        <ele>1330.12</ele>
        <time>2020-08-08T12:22:13Z</time>
      </trkpt>
      <trkpt lat="44.62649" lon="3.56267">
        <ele>1330.12</ele>
        <time>2020-08-08T12:22:22Z</time>
      </trkpt>
      <trkpt lat="44.62647" lon="3.56266">
        <ele>1330.6</ele>
        <time>2020-08-08T12:22:24Z</time>
      </trkpt>
      <trkpt lat="44.62628" lon="3.56258">
        <ele>1330.6</ele>
        <time>2020-08-08T12:22:38Z</time>
      </trkpt>
      <trkpt lat="44.62617" lon="3.56254">
        <ele>1330.6</ele>
        <time>2020-08-08T12:22:48Z</time>
      </trkpt>
      <trkpt lat="44.62605" lon="3.56243">
        <ele>1330.6</ele>
        <time>2020-08-08T12:22:58Z</time>
      </trkpt>
      <trkpt lat="44.626" lon="3.56239">
        <ele>1330.12</ele>
        <time>2020-08-08T12:23:03Z</time>
      </trkpt>
      <trkpt lat="44.62593" lon="3.56235">
        <ele>1330.6</ele>
        <time>2020-08-08T12:23:08Z</time>
      </trkpt>
      <trkpt lat="44.6259" lon="3.56227">
        <ele>1330.6</ele>
        <time>2020-08-08T12:23:14Z</time>
      </trkpt>
      <trkpt lat="44.62584" lon="3.56219">
        <ele>1330.6</ele>
        <time>2020-08-08T12:23:21Z</time>
      </trkpt>
      <trkpt lat="44.62582" lon="3.56218">
        <ele>1330.6</ele>
        <time>2020-08-08T12:23:23Z</time>
      </trkpt>
      <trkpt lat="44.62578" lon="3.56213">
        <ele>1330.6</ele>
        <time>2020-08-08T12:23:27Z</time>
      </trkpt>
      <trkpt lat="44.62568" lon="3.56194">
        <ele>1330.6</ele>
        <time>2020-08-08T12:23:40Z</time>
      </trkpt>
      <trkpt lat="44.62558" lon="3.56179">
        <ele>1330.6</ele>
        <time>2020-08-08T12:23:51Z</time>
      </trkpt>
      <trkpt lat="44.62557" lon="3.56174">
        <ele>1330.12</ele>
        <time>2020-08-08T12:23:55Z</time>
      </trkpt>
      <trkpt lat="44.62558" lon="3.56169">
        <ele>1330.6</ele>
        <time>2020-08-08T12:23:59Z</time>
      </trkpt>
      <trkpt lat="44.62569" lon="3.56155">
        <ele>1331.08</ele>
        <time>2020-08-08T12:24:12Z</time>
      </trkpt>
      <trkpt lat="44.62574" lon="3.5615">
        <ele>1331.08</ele>
        <time>2020-08-08T12:24:18Z</time>
      </trkpt>
      <trkpt lat="44.62574" lon="3.56144">
        <ele>1331.08</ele>
        <time>2020-08-08T12:24:21Z</time>
      </trkpt>
      <trkpt lat="44.62574" lon="3.56135">
        <ele>1331.08</ele>
        <time>2020-08-08T12:24:27Z</time>
      </trkpt>
      <trkpt lat="44.62569" lon="3.56131">
        <ele>1331.08</ele>
        <time>2020-08-08T12:24:32Z</time>
      </trkpt>
      <trkpt lat="44.62567" lon="3.5613">
        <ele>1331.08</ele>
        <time>2020-08-08T12:24:34Z</time>
      </trkpt>
      <trkpt lat="44.62558" lon="3.56129">
        <ele>1331.08</ele>
        <time>2020-08-08T12:24:42Z</time>
      </trkpt>
      <trkpt lat="44.62541" lon="3.56126">
        <ele>1331.56</ele>
        <time>2020-08-08T12:24:55Z</time>
      </trkpt>
      <trkpt lat="44.62536" lon="3.56125">
        <ele>1331.56</ele>
        <time>2020-08-08T12:24:59Z</time>
      </trkpt>
      <trkpt lat="44.62532" lon="3.56124">
        <ele>1331.56</ele>
        <time>2020-08-08T12:25:02Z</time>
      </trkpt>
      <trkpt lat="44.62515" lon="3.56124">
        <ele>1331.56</ele>
        <time>2020-08-08T12:25:14Z</time>
      </trkpt>
      <trkpt lat="44.625" lon="3.56122">
        <ele>1331.56</ele>
        <time>2020-08-08T12:25:26Z</time>
      </trkpt>
      <trkpt lat="44.62494" lon="3.5612">
        <ele>1331.08</ele>
        <time>2020-08-08T12:25:31Z</time>
      </trkpt>
      <trkpt lat="44.62478" lon="3.56118">
        <ele>1331.56</ele>
        <time>2020-08-08T12:25:43Z</time>
      </trkpt>
      <trkpt lat="44.62461" lon="3.56114">
        <ele>1331.56</ele>
        <time>2020-08-08T12:25:55Z</time>
      </trkpt>
      <trkpt lat="44.62445" lon="3.56109">
        <ele>1331.56</ele>
        <time>2020-08-08T12:26:09Z</time>
      </trkpt>
      <trkpt lat="44.62442" lon="3.56109">
        <ele>1331.56</ele>
        <time>2020-08-08T12:26:13Z</time>
      </trkpt>
      <trkpt lat="44.62424" lon="3.56104">
        <ele>1331.56</ele>
        <time>2020-08-08T12:26:27Z</time>
      </trkpt>
      <trkpt lat="44.62399" lon="3.56095">
        <ele>1331.56</ele>
        <time>2020-08-08T12:26:42Z</time>
      </trkpt>
      <trkpt lat="44.62398" lon="3.56094">
        <ele>1331.08</ele>
        <time>2020-08-08T12:26:44Z</time>
      </trkpt>
      <trkpt lat="44.62381" lon="3.56087">
        <ele>1331.08</ele>
        <time>2020-08-08T12:26:59Z</time>
      </trkpt>
      <trkpt lat="44.62379" lon="3.56087">
        <ele>1331.08</ele>
        <time>2020-08-08T12:27:01Z</time>
      </trkpt>
      <trkpt lat="44.62375" lon="3.56086">
        <ele>1330.6</ele>
        <time>2020-08-08T12:27:12Z</time>
      </trkpt>
      <trkpt lat="44.62375" lon="3.56084">
        <ele>1331.08</ele>
        <time>2020-08-08T12:27:15Z</time>
      </trkpt>
      <trkpt lat="44.62372" lon="3.56085">
        <ele>1331.08</ele>
        <time>2020-08-08T12:27:18Z</time>
      </trkpt>
      <trkpt lat="44.62367" lon="3.5609">
        <ele>1330.6</ele>
        <time>2020-08-08T12:27:26Z</time>
      </trkpt>
      <trkpt lat="44.62367" lon="3.5609">
        <ele>1330.6</ele>
        <time>2020-08-08T12:27:39Z</time>
      </trkpt>
      <trkpt lat="44.62368" lon="3.56091">
        <ele>1331.08</ele>
        <time>2020-08-08T12:27:43Z</time>
      </trkpt>
      <trkpt lat="44.6237" lon="3.56106">
        <ele>1331.08</ele>
        <time>2020-08-08T12:27:54Z</time>
      </trkpt>
      <trkpt lat="44.6237" lon="3.56108">
        <ele>1330.6</ele>
        <time>2020-08-08T12:28:06Z</time>
      </trkpt>
      <trkpt lat="44.62369" lon="3.5611">
        <ele>1331.56</ele>
        <time>2020-08-08T12:28:09Z</time>
      </trkpt>
      <trkpt lat="44.62368" lon="3.56128">
        <ele>1331.08</ele>
        <time>2020-08-08T12:28:19Z</time>
      </trkpt>
      <trkpt lat="44.62371" lon="3.5615">
        <ele>1330.12</ele>
        <time>2020-08-08T12:28:31Z</time>
      </trkpt>
      <trkpt lat="44.6237" lon="3.56155">
        <ele>1330.12</ele>
        <time>2020-08-08T12:28:35Z</time>
      </trkpt>
      <trkpt lat="44.62369" lon="3.5617">
        <ele>1329.64</ele>
        <time>2020-08-08T12:28:45Z</time>
      </trkpt>
      <trkpt lat="44.62365" lon="3.56176">
        <ele>1329.64</ele>
        <time>2020-08-08T12:28:52Z</time>
      </trkpt>
      <trkpt lat="44.62362" lon="3.56178">
        <ele>1329.16</ele>
        <time>2020-08-08T12:28:54Z</time>
      </trkpt>
      <trkpt lat="44.62344" lon="3.56187">
        <ele>1329.16</ele>
        <time>2020-08-08T12:29:06Z</time>
      </trkpt>
      <trkpt lat="44.62342" lon="3.56189">
        <ele>1329.16</ele>
        <time>2020-08-08T12:29:07Z</time>
      </trkpt>
      <trkpt lat="44.62334" lon="3.56201">
        <ele>1329.16</ele>
        <time>2020-08-08T12:29:18Z</time>
      </trkpt>
      <trkpt lat="44.62323" lon="3.56214">
        <ele>1329.64</ele>
        <time>2020-08-08T12:29:29Z</time>
      </trkpt>
      <trkpt lat="44.62316" lon="3.56219">
        <ele>1329.64</ele>
        <time>2020-08-08T12:29:35Z</time>
      </trkpt>
      <trkpt lat="44.62306" lon="3.56235">
        <ele>1330.12</ele>
        <time>2020-08-08T12:29:47Z</time>
      </trkpt>
      <trkpt lat="44.62303" lon="3.56239">
        <ele>1330.12</ele>
        <time>2020-08-08T12:29:52Z</time>
      </trkpt>
      <trkpt lat="44.62293" lon="3.56251">
        <ele>1330.12</ele>
        <time>2020-08-08T12:30:01Z</time>
      </trkpt>
      <trkpt lat="44.62281" lon="3.56256">
        <ele>1329.64</ele>
        <time>2020-08-08T12:30:13Z</time>
      </trkpt>
      <trkpt lat="44.62272" lon="3.56252">
        <ele>1330.12</ele>
        <time>2020-08-08T12:30:25Z</time>
      </trkpt>
      <trkpt lat="44.62268" lon="3.56254">
        <ele>1330.12</ele>
        <time>2020-08-08T12:30:29Z</time>
      </trkpt>
      <trkpt lat="44.62263" lon="3.56259">
        <ele>1330.12</ele>
        <time>2020-08-08T12:30:36Z</time>
      </trkpt>
      <trkpt lat="44.62239" lon="3.56283">
        <ele>1331.08</ele>
        <time>2020-08-08T12:30:53Z</time>
      </trkpt>
      <trkpt lat="44.62226" lon="3.56296">
        <ele>1330.6</ele>
        <time>2020-08-08T12:31:04Z</time>
      </trkpt>
      <trkpt lat="44.62219" lon="3.56298">
        <ele>1330.6</ele>
        <time>2020-08-08T12:31:13Z</time>
      </trkpt>
      <trkpt lat="44.62216" lon="3.56295">
        <ele>1330.6</ele>
        <time>2020-08-08T12:31:17Z</time>
      </trkpt>
      <trkpt lat="44.62208" lon="3.56288">
        <ele>1331.08</ele>
        <time>2020-08-08T12:31:25Z</time>
      </trkpt>
      <trkpt lat="44.62201" lon="3.56286">
        <ele>1331.56</ele>
        <time>2020-08-08T12:31:29Z</time>
      </trkpt>
      <trkpt lat="44.62191" lon="3.56299">
        <ele>1331.56</ele>
        <time>2020-08-08T12:31:37Z</time>
      </trkpt>
      <trkpt lat="44.62186" lon="3.56307">
        <ele>1332.04</ele>
        <time>2020-08-08T12:31:42Z</time>
      </trkpt>
      <trkpt lat="44.62179" lon="3.5633">
        <ele>1333.01</ele>
        <time>2020-08-08T12:31:55Z</time>
      </trkpt>
      <trkpt lat="44.62174" lon="3.5635">
        <ele>1333.97</ele>
        <time>2020-08-08T12:32:06Z</time>
      </trkpt>
      <trkpt lat="44.62171" lon="3.56369">
        <ele>1334.45</ele>
        <time>2020-08-08T12:32:17Z</time>
      </trkpt>
      <trkpt lat="44.62169" lon="3.56393">
        <ele>1334.93</ele>
        <time>2020-08-08T12:32:30Z</time>
      </trkpt>
      <trkpt lat="44.62166" lon="3.56413">
        <ele>1335.41</ele>
        <time>2020-08-08T12:32:40Z</time>
      </trkpt>
      <trkpt lat="44.62165" lon="3.56434">
        <ele>1335.89</ele>
        <time>2020-08-08T12:32:52Z</time>
      </trkpt>
      <trkpt lat="44.62165" lon="3.56437">
        <ele>1335.89</ele>
        <time>2020-08-08T12:32:54Z</time>
      </trkpt>
      <trkpt lat="44.62165" lon="3.56441">
        <ele>1335.89</ele>
        <time>2020-08-08T12:32:56Z</time>
      </trkpt>
      <trkpt lat="44.62162" lon="3.56449">
        <ele>1335.89</ele>
        <time>2020-08-08T12:33:01Z</time>
      </trkpt>
      <trkpt lat="44.62162" lon="3.56462">
        <ele>1336.37</ele>
        <time>2020-08-08T12:33:08Z</time>
      </trkpt>
      <trkpt lat="44.62161" lon="3.56479">
        <ele>1336.37</ele>
        <time>2020-08-08T12:33:17Z</time>
      </trkpt>
      <trkpt lat="44.62162" lon="3.56484">
        <ele>1336.37</ele>
        <time>2020-08-08T12:33:19Z</time>
      </trkpt>
      <trkpt lat="44.62162" lon="3.56489">
        <ele>1336.37</ele>
        <time>2020-08-08T12:33:22Z</time>
      </trkpt>
      <trkpt lat="44.62162" lon="3.56497">
        <ele>1336.37</ele>
        <time>2020-08-08T12:33:26Z</time>
      </trkpt>
      <trkpt lat="44.62161" lon="3.56506">
        <ele>1336.85</ele>
        <time>2020-08-08T12:33:31Z</time>
      </trkpt>
      <trkpt lat="44.6216" lon="3.56511">
        <ele>1336.37</ele>
        <time>2020-08-08T12:33:34Z</time>
      </trkpt>
      <trkpt lat="44.62161" lon="3.56516">
        <ele>1336.37</ele>
        <time>2020-08-08T12:33:37Z</time>
      </trkpt>
      <trkpt lat="44.62158" lon="3.56539">
        <ele>1336.85</ele>
        <time>2020-08-08T12:33:49Z</time>
      </trkpt>
      <trkpt lat="44.62157" lon="3.56545">
        <ele>1336.85</ele>
        <time>2020-08-08T12:33:53Z</time>
      </trkpt>
      <trkpt lat="44.62153" lon="3.56568">
        <ele>1336.85</ele>
        <time>2020-08-08T12:34:05Z</time>
      </trkpt>
      <trkpt lat="44.62153" lon="3.56573">
        <ele>1336.85</ele>
        <time>2020-08-08T12:34:08Z</time>
      </trkpt>
      <trkpt lat="44.62152" lon="3.56596">
        <ele>1336.85</ele>
        <time>2020-08-08T12:34:20Z</time>
      </trkpt>
      <trkpt lat="44.62152" lon="3.56598">
        <ele>1336.85</ele>
        <time>2020-08-08T12:34:21Z</time>
      </trkpt>
      <trkpt lat="44.62152" lon="3.56605">
        <ele>1336.85</ele>
        <time>2020-08-08T12:34:25Z</time>
      </trkpt>
      <trkpt lat="44.62151" lon="3.56612">
        <ele>1336.85</ele>
        <time>2020-08-08T12:34:29Z</time>
      </trkpt>
      <trkpt lat="44.62151" lon="3.56619">
        <ele>1336.85</ele>
        <time>2020-08-08T12:34:33Z</time>
      </trkpt>
      <trkpt lat="44.62149" lon="3.56639">
        <ele>1336.85</ele>
        <time>2020-08-08T12:34:43Z</time>
      </trkpt>
      <trkpt lat="44.62149" lon="3.56663">
        <ele>1336.37</ele>
        <time>2020-08-08T12:34:55Z</time>
      </trkpt>
      <trkpt lat="44.6215" lon="3.56672">
        <ele>1335.89</ele>
        <time>2020-08-08T12:35:01Z</time>
      </trkpt>
      <trkpt lat="44.62149" lon="3.56689">
        <ele>1336.37</ele>
        <time>2020-08-08T12:35:12Z</time>
      </trkpt>
      <trkpt lat="44.62149" lon="3.56693">
        <ele>1336.37</ele>
        <time>2020-08-08T12:35:14Z</time>
      </trkpt>
      <trkpt lat="44.6215" lon="3.56699">
        <ele>1336.37</ele>
        <time>2020-08-08T12:35:17Z</time>
      </trkpt>
      <trkpt lat="44.6215" lon="3.56719">
        <ele>1336.37</ele>
        <time>2020-08-08T12:35:26Z</time>
      </trkpt>
      <trkpt lat="44.62148" lon="3.56738">
        <ele>1336.37</ele>
        <time>2020-08-08T12:35:36Z</time>
      </trkpt>
      <trkpt lat="44.62145" lon="3.56764">
        <ele>1336.37</ele>
        <time>2020-08-08T12:35:50Z</time>
      </trkpt>
      <trkpt lat="44.62143" lon="3.56787">
        <ele>1336.37</ele>
        <time>2020-08-08T12:36:02Z</time>
      </trkpt>
      <trkpt lat="44.62144" lon="3.56795">
        <ele>1336.37</ele>
        <time>2020-08-08T12:36:07Z</time>
      </trkpt>
      <trkpt lat="44.62143" lon="3.56805">
        <ele>1336.37</ele>
        <time>2020-08-08T12:36:12Z</time>
      </trkpt>
      <trkpt lat="44.62143" lon="3.56815">
        <ele>1336.37</ele>
        <time>2020-08-08T12:36:17Z</time>
      </trkpt>
      <trkpt lat="44.62142" lon="3.56822">
        <ele>1335.89</ele>
        <time>2020-08-08T12:36:22Z</time>
      </trkpt>
      <trkpt lat="44.62139" lon="3.5685">
        <ele>1336.37</ele>
        <time>2020-08-08T12:36:35Z</time>
      </trkpt>
      <trkpt lat="44.62138" lon="3.56855">
        <ele>1336.37</ele>
        <time>2020-08-08T12:36:39Z</time>
      </trkpt>
      <trkpt lat="44.62137" lon="3.56883">
        <ele>1336.85</ele>
        <time>2020-08-08T12:36:53Z</time>
      </trkpt>
      <trkpt lat="44.62134" lon="3.56904">
        <ele>1336.37</ele>
        <time>2020-08-08T12:37:05Z</time>
      </trkpt>
      <trkpt lat="44.62134" lon="3.56912">
        <ele>1336.85</ele>
        <time>2020-08-08T12:37:10Z</time>
      </trkpt>
      <trkpt lat="44.62132" lon="3.56939">
        <ele>1336.85</ele>
        <time>2020-08-08T12:37:24Z</time>
      </trkpt>
      <trkpt lat="44.62129" lon="3.5696">
        <ele>1336.37</ele>
        <time>2020-08-08T12:37:35Z</time>
      </trkpt>
      <trkpt lat="44.62127" lon="3.56981">
        <ele>1336.37</ele>
        <time>2020-08-08T12:37:46Z</time>
      </trkpt>
      <trkpt lat="44.62127" lon="3.56986">
        <ele>1336.37</ele>
        <time>2020-08-08T12:37:49Z</time>
      </trkpt>
      <trkpt lat="44.62125" lon="3.57015">
        <ele>1336.37</ele>
        <time>2020-08-08T12:38:02Z</time>
      </trkpt>
      <trkpt lat="44.62122" lon="3.57031">
        <ele>1336.85</ele>
        <time>2020-08-08T12:38:12Z</time>
      </trkpt>
      <trkpt lat="44.6212" lon="3.57043">
        <ele>1336.37</ele>
        <time>2020-08-08T12:38:18Z</time>
      </trkpt>
      <trkpt lat="44.62116" lon="3.5706">
        <ele>1336.37</ele>
        <time>2020-08-08T12:38:29Z</time>
      </trkpt>
      <trkpt lat="44.62114" lon="3.57073">
        <ele>1336.37</ele>
        <time>2020-08-08T12:38:34Z</time>
      </trkpt>
      <trkpt lat="44.6211" lon="3.57094">
        <ele>1336.37</ele>
        <time>2020-08-08T12:38:46Z</time>
      </trkpt>
      <trkpt lat="44.62109" lon="3.57097">
        <ele>1336.85</ele>
        <time>2020-08-08T12:38:48Z</time>
      </trkpt>
      <trkpt lat="44.62108" lon="3.57106">
        <ele>1336.37</ele>
        <time>2020-08-08T12:38:53Z</time>
      </trkpt>
      <trkpt lat="44.62103" lon="3.57129">
        <ele>1336.37</ele>
        <time>2020-08-08T12:39:06Z</time>
      </trkpt>
      <trkpt lat="44.62103" lon="3.5713">
        <ele>1329.64</ele>
        <time>2020-08-08T12:39:12Z</time>
      </trkpt>
      <trkpt lat="44.62103" lon="3.5713">
        <ele>1332.04</ele>
        <time>2020-08-08T12:39:13Z</time>
      </trkpt>
      <trkpt lat="44.62103" lon="3.5713">
        <ele>1345.02</ele>
        <time>2020-08-08T12:39:14Z</time>
      </trkpt>
      <trkpt lat="44.62103" lon="3.5713">
        <ele>1342.14</ele>
        <time>2020-08-08T12:39:15Z</time>
      </trkpt>
      <trkpt lat="44.62103" lon="3.5713">
        <ele>1336.37</ele>
        <time>2020-08-08T12:39:16Z</time>
      </trkpt>
      <trkpt lat="44.62103" lon="3.5713">
        <ele>1336.37</ele>
        <time>2020-08-08T12:39:17Z</time>
      </trkpt>
      <trkpt lat="44.62103" lon="3.57131">
        <ele>1336.85</ele>
        <time>2020-08-08T12:39:21Z</time>
      </trkpt>
      <trkpt lat="44.62104" lon="3.5715">
        <ele>1336.37</ele>
        <time>2020-08-08T12:39:36Z</time>
      </trkpt>
      <trkpt lat="44.62104" lon="3.57152">
        <ele>1335.89</ele>
        <time>2020-08-08T12:39:50Z</time>
      </trkpt>
      <trkpt lat="44.62101" lon="3.57164">
        <ele>1335.89</ele>
        <time>2020-08-08T12:39:58Z</time>
      </trkpt>
      <trkpt lat="44.62093" lon="3.57189">
        <ele>1335.89</ele>
        <time>2020-08-08T12:40:13Z</time>
      </trkpt>
      <trkpt lat="44.62089" lon="3.57201">
        <ele>1335.41</ele>
        <time>2020-08-08T12:40:23Z</time>
      </trkpt>
      <trkpt lat="44.62089" lon="3.57201">
        <ele>1335.89</ele>
        <time>2020-08-08T12:40:28Z</time>
      </trkpt>
      <trkpt lat="44.62088" lon="3.57206">
        <ele>1335.89</ele>
        <time>2020-08-08T12:40:32Z</time>
      </trkpt>
      <trkpt lat="44.62078" lon="3.57229">
        <ele>1336.37</ele>
        <time>2020-08-08T12:40:45Z</time>
      </trkpt>
      <trkpt lat="44.62078" lon="3.5723">
        <ele>1336.85</ele>
        <time>2020-08-08T12:40:47Z</time>
      </trkpt>
      <trkpt lat="44.6207" lon="3.57243">
        <ele>1336.37</ele>
        <time>2020-08-08T12:40:55Z</time>
      </trkpt>
      <trkpt lat="44.62068" lon="3.57246">
        <ele>1336.37</ele>
        <time>2020-08-08T12:40:59Z</time>
      </trkpt>
      <trkpt lat="44.62066" lon="3.57251">
        <ele>1336.37</ele>
        <time>2020-08-08T12:41:03Z</time>
      </trkpt>
      <trkpt lat="44.62064" lon="3.57265">
        <ele>1336.37</ele>
        <time>2020-08-08T12:41:11Z</time>
      </trkpt>
      <trkpt lat="44.6206" lon="3.57289">
        <ele>1335.89</ele>
        <time>2020-08-08T12:41:24Z</time>
      </trkpt>
      <trkpt lat="44.62058" lon="3.57303">
        <ele>1335.89</ele>
        <time>2020-08-08T12:41:32Z</time>
      </trkpt>
      <trkpt lat="44.62053" lon="3.57313">
        <ele>1336.37</ele>
        <time>2020-08-08T12:41:38Z</time>
      </trkpt>
      <trkpt lat="44.62048" lon="3.57334">
        <ele>1336.37</ele>
        <time>2020-08-08T12:41:51Z</time>
      </trkpt>
      <trkpt lat="44.62041" lon="3.57355">
        <ele>1336.37</ele>
        <time>2020-08-08T12:42:03Z</time>
      </trkpt>
      <trkpt lat="44.62029" lon="3.57377">
        <ele>1335.89</ele>
        <time>2020-08-08T12:42:16Z</time>
      </trkpt>
      <trkpt lat="44.62025" lon="3.57397">
        <ele>1336.37</ele>
        <time>2020-08-08T12:42:27Z</time>
      </trkpt>
      <trkpt lat="44.62019" lon="3.5742">
        <ele>1336.37</ele>
        <time>2020-08-08T12:42:40Z</time>
      </trkpt>
      <trkpt lat="44.62019" lon="3.57427">
        <ele>1336.37</ele>
        <time>2020-08-08T12:42:44Z</time>
      </trkpt>
      <trkpt lat="44.62015" lon="3.57447">
        <ele>1336.37</ele>
        <time>2020-08-08T12:42:55Z</time>
      </trkpt>
      <trkpt lat="44.62014" lon="3.5745">
        <ele>1336.85</ele>
        <time>2020-08-08T12:42:57Z</time>
      </trkpt>
      <trkpt lat="44.62014" lon="3.5746">
        <ele>1335.89</ele>
        <time>2020-08-08T12:43:02Z</time>
      </trkpt>
      <trkpt lat="44.62011" lon="3.57487">
        <ele>1336.37</ele>
        <time>2020-08-08T12:43:16Z</time>
      </trkpt>
      <trkpt lat="44.6201" lon="3.57514">
        <ele>1336.37</ele>
        <time>2020-08-08T12:43:30Z</time>
      </trkpt>
      <trkpt lat="44.62007" lon="3.57529">
        <ele>1336.37</ele>
        <time>2020-08-08T12:43:39Z</time>
      </trkpt>
      <trkpt lat="44.62007" lon="3.57538">
        <ele>1336.37</ele>
        <time>2020-08-08T12:43:43Z</time>
      </trkpt>
      <trkpt lat="44.62008" lon="3.5756">
        <ele>1336.37</ele>
        <time>2020-08-08T12:43:56Z</time>
      </trkpt>
      <trkpt lat="44.62008" lon="3.57569">
        <ele>1337.33</ele>
        <time>2020-08-08T12:44:01Z</time>
      </trkpt>
      <trkpt lat="44.62007" lon="3.57584">
        <ele>1336.85</ele>
        <time>2020-08-08T12:44:08Z</time>
      </trkpt>
      <trkpt lat="44.62009" lon="3.57592">
        <ele>1336.85</ele>
        <time>2020-08-08T12:44:12Z</time>
      </trkpt>
      <trkpt lat="44.62014" lon="3.57622">
        <ele>1336.85</ele>
        <time>2020-08-08T12:44:26Z</time>
      </trkpt>
      <trkpt lat="44.62012" lon="3.57641">
        <ele>1336.85</ele>
        <time>2020-08-08T12:44:37Z</time>
      </trkpt>
      <trkpt lat="44.6201" lon="3.57653">
        <ele>1336.85</ele>
        <time>2020-08-08T12:44:43Z</time>
      </trkpt>
      <trkpt lat="44.62009" lon="3.57662">
        <ele>1336.37</ele>
        <time>2020-08-08T12:44:47Z</time>
      </trkpt>
      <trkpt lat="44.62011" lon="3.57672">
        <ele>1336.85</ele>
        <time>2020-08-08T12:44:54Z</time>
      </trkpt>
      <trkpt lat="44.62011" lon="3.57697">
        <ele>1336.85</ele>
        <time>2020-08-08T12:45:06Z</time>
      </trkpt>
      <trkpt lat="44.62012" lon="3.57718">
        <ele>1336.85</ele>
        <time>2020-08-08T12:45:18Z</time>
      </trkpt>
      <trkpt lat="44.62011" lon="3.57726">
        <ele>1336.85</ele>
        <time>2020-08-08T12:45:22Z</time>
      </trkpt>
      <trkpt lat="44.62012" lon="3.57741">
        <ele>1337.33</ele>
        <time>2020-08-08T12:45:31Z</time>
      </trkpt>
      <trkpt lat="44.62012" lon="3.57752">
        <ele>1336.85</ele>
        <time>2020-08-08T12:45:37Z</time>
      </trkpt>
      <trkpt lat="44.62012" lon="3.57763">
        <ele>1336.85</ele>
        <time>2020-08-08T12:45:42Z</time>
      </trkpt>
      <trkpt lat="44.62014" lon="3.57769">
        <ele>1336.85</ele>
        <time>2020-08-08T12:45:45Z</time>
      </trkpt>
      <trkpt lat="44.62014" lon="3.57785">
        <ele>1336.85</ele>
        <time>2020-08-08T12:45:54Z</time>
      </trkpt>
      <trkpt lat="44.62014" lon="3.57799">
        <ele>1336.85</ele>
        <time>2020-08-08T12:46:02Z</time>
      </trkpt>
      <trkpt lat="44.62013" lon="3.57806">
        <ele>1336.85</ele>
        <time>2020-08-08T12:46:06Z</time>
      </trkpt>
      <trkpt lat="44.62011" lon="3.57814">
        <ele>1336.85</ele>
        <time>2020-08-08T12:46:11Z</time>
      </trkpt>
      <trkpt lat="44.62011" lon="3.5783">
        <ele>1336.85</ele>
        <time>2020-08-08T12:46:18Z</time>
      </trkpt>
      <trkpt lat="44.62006" lon="3.57851">
        <ele>1337.33</ele>
        <time>2020-08-08T12:46:30Z</time>
      </trkpt>
      <trkpt lat="44.62005" lon="3.57854">
        <ele>1337.33</ele>
        <time>2020-08-08T12:46:33Z</time>
      </trkpt>
      <trkpt lat="44.62003" lon="3.57865">
        <ele>1337.33</ele>
        <time>2020-08-08T12:46:39Z</time>
      </trkpt>
      <trkpt lat="44.61997" lon="3.57885">
        <ele>1337.81</ele>
        <time>2020-08-08T12:46:50Z</time>
      </trkpt>
      <trkpt lat="44.61997" lon="3.57887">
        <ele>1337.81</ele>
        <time>2020-08-08T12:46:51Z</time>
      </trkpt>
      <trkpt lat="44.61991" lon="3.579">
        <ele>1337.81</ele>
        <time>2020-08-08T12:46:58Z</time>
      </trkpt>
      <trkpt lat="44.61983" lon="3.57917">
        <ele>1338.29</ele>
        <time>2020-08-08T12:47:10Z</time>
      </trkpt>
      <trkpt lat="44.61981" lon="3.57919">
        <ele>1338.29</ele>
        <time>2020-08-08T12:47:12Z</time>
      </trkpt>
      <trkpt lat="44.6197" lon="3.57938">
        <ele>1338.29</ele>
        <time>2020-08-08T12:47:24Z</time>
      </trkpt>
      <trkpt lat="44.61959" lon="3.57949">
        <ele>1338.29</ele>
        <time>2020-08-08T12:47:36Z</time>
      </trkpt>
      <trkpt lat="44.61947" lon="3.5796">
        <ele>1338.77</ele>
        <time>2020-08-08T12:47:48Z</time>
      </trkpt>
      <trkpt lat="44.61937" lon="3.57968">
        <ele>1338.77</ele>
        <time>2020-08-08T12:47:59Z</time>
      </trkpt>
      <trkpt lat="44.61929" lon="3.57969">
        <ele>1338.77</ele>
        <time>2020-08-08T12:48:04Z</time>
      </trkpt>
      <trkpt lat="44.61907" lon="3.57976">
        <ele>1338.77</ele>
        <time>2020-08-08T12:48:18Z</time>
      </trkpt>
      <trkpt lat="44.61903" lon="3.57978">
        <ele>1331.56</ele>
        <time>2020-08-08T12:48:20Z</time>
      </trkpt>
      <trkpt lat="44.61902" lon="3.5798">
        <ele>1341.66</ele>
        <time>2020-08-08T12:48:21Z</time>
      </trkpt>
      <trkpt lat="44.61899" lon="3.57985">
        <ele>1339.73</ele>
        <time>2020-08-08T12:48:25Z</time>
      </trkpt>
      <trkpt lat="44.61894" lon="3.57989">
        <ele>1335.89</ele>
        <time>2020-08-08T12:48:33Z</time>
      </trkpt>
      <trkpt lat="44.61894" lon="3.57989">
        <ele>1341.66</ele>
        <time>2020-08-08T12:48:34Z</time>
      </trkpt>
      <trkpt lat="44.61894" lon="3.57989">
        <ele>1341.18</ele>
        <time>2020-08-08T12:48:35Z</time>
      </trkpt>
      <trkpt lat="44.61894" lon="3.57989">
        <ele>1337.33</ele>
        <time>2020-08-08T12:48:36Z</time>
      </trkpt>
      <trkpt lat="44.61893" lon="3.57989">
        <ele>1342.62</ele>
        <time>2020-08-08T12:48:37Z</time>
      </trkpt>
      <trkpt lat="44.61889" lon="3.57989">
        <ele>1339.25</ele>
        <time>2020-08-08T12:48:41Z</time>
      </trkpt>
      <trkpt lat="44.61872" lon="3.57997">
        <ele>1339.73</ele>
        <time>2020-08-08T12:48:56Z</time>
      </trkpt>
      <trkpt lat="44.61864" lon="3.58001">
        <ele>1339.73</ele>
        <time>2020-08-08T12:49:03Z</time>
      </trkpt>
      <trkpt lat="44.6185" lon="3.58012">
        <ele>1339.73</ele>
        <time>2020-08-08T12:49:13Z</time>
      </trkpt>
      <trkpt lat="44.61837" lon="3.58024">
        <ele>1339.73</ele>
        <time>2020-08-08T12:49:24Z</time>
      </trkpt>
      <trkpt lat="44.61831" lon="3.58029">
        <ele>1340.22</ele>
        <time>2020-08-08T12:49:35Z</time>
      </trkpt>
      <trkpt lat="44.61832" lon="3.58029">
        <ele>1339.73</ele>
        <time>2020-08-08T12:49:41Z</time>
      </trkpt>
      <trkpt lat="44.6183" lon="3.58033">
        <ele>1340.22</ele>
        <time>2020-08-08T12:49:44Z</time>
      </trkpt>
      <trkpt lat="44.61824" lon="3.58041">
        <ele>1340.22</ele>
        <time>2020-08-08T12:49:51Z</time>
      </trkpt>
      <trkpt lat="44.6181" lon="3.58056">
        <ele>1341.18</ele>
        <time>2020-08-08T12:50:03Z</time>
      </trkpt>
      <trkpt lat="44.61804" lon="3.58066">
        <ele>1340.7</ele>
        <time>2020-08-08T12:50:11Z</time>
      </trkpt>
      <trkpt lat="44.618" lon="3.58075">
        <ele>1341.18</ele>
        <time>2020-08-08T12:50:16Z</time>
      </trkpt>
      <trkpt lat="44.61793" lon="3.58096">
        <ele>1341.18</ele>
        <time>2020-08-08T12:50:29Z</time>
      </trkpt>
      <trkpt lat="44.61789" lon="3.58108">
        <ele>1341.18</ele>
        <time>2020-08-08T12:50:36Z</time>
      </trkpt>
      <trkpt lat="44.61788" lon="3.58116">
        <ele>1341.66</ele>
        <time>2020-08-08T12:50:40Z</time>
      </trkpt>
      <trkpt lat="44.61787" lon="3.58126">
        <ele>1342.14</ele>
        <time>2020-08-08T12:50:46Z</time>
      </trkpt>
      <trkpt lat="44.61786" lon="3.58138">
        <ele>1342.62</ele>
        <time>2020-08-08T12:50:53Z</time>
      </trkpt>
      <trkpt lat="44.61781" lon="3.5815">
        <ele>1342.62</ele>
        <time>2020-08-08T12:51:03Z</time>
      </trkpt>
      <trkpt lat="44.6178" lon="3.58156">
        <ele>1343.1</ele>
        <time>2020-08-08T12:51:06Z</time>
      </trkpt>
      <trkpt lat="44.6178" lon="3.5816">
        <ele>1342.62</ele>
        <time>2020-08-08T12:51:08Z</time>
      </trkpt>
      <trkpt lat="44.61778" lon="3.58173">
        <ele>1343.1</ele>
        <time>2020-08-08T12:51:15Z</time>
      </trkpt>
      <trkpt lat="44.61776" lon="3.58178">
        <ele>1343.1</ele>
        <time>2020-08-08T12:51:19Z</time>
      </trkpt>
      <trkpt lat="44.61771" lon="3.58195">
        <ele>1343.58</ele>
        <time>2020-08-08T12:51:29Z</time>
      </trkpt>
      <trkpt lat="44.61765" lon="3.58208">
        <ele>1344.06</ele>
        <time>2020-08-08T12:51:39Z</time>
      </trkpt>
      <trkpt lat="44.61764" lon="3.5821">
        <ele>1344.06</ele>
        <time>2020-08-08T12:51:41Z</time>
      </trkpt>
      <trkpt lat="44.61758" lon="3.58231">
        <ele>1344.54</ele>
        <time>2020-08-08T12:51:53Z</time>
      </trkpt>
      <trkpt lat="44.61752" lon="3.58251">
        <ele>1345.02</ele>
        <time>2020-08-08T12:52:06Z</time>
      </trkpt>
      <trkpt lat="44.61747" lon="3.58266">
        <ele>1345.5</ele>
        <time>2020-08-08T12:52:16Z</time>
      </trkpt>
      <trkpt lat="44.61744" lon="3.58273">
        <ele>1345.5</ele>
        <time>2020-08-08T12:52:20Z</time>
      </trkpt>
      <trkpt lat="44.61736" lon="3.58294">
        <ele>1345.98</ele>
        <time>2020-08-08T12:52:34Z</time>
      </trkpt>
      <trkpt lat="44.61731" lon="3.583">
        <ele>1345.98</ele>
        <time>2020-08-08T12:52:39Z</time>
      </trkpt>
      <trkpt lat="44.61728" lon="3.58303">
        <ele>1346.46</ele>
        <time>2020-08-08T12:52:43Z</time>
      </trkpt>
      <trkpt lat="44.61726" lon="3.58309">
        <ele>1346.94</ele>
        <time>2020-08-08T12:52:47Z</time>
      </trkpt>
      <trkpt lat="44.61717" lon="3.58333">
        <ele>1347.43</ele>
        <time>2020-08-08T12:53:01Z</time>
      </trkpt>
      <trkpt lat="44.61713" lon="3.58345">
        <ele>1348.39</ele>
        <time>2020-08-08T12:53:09Z</time>
      </trkpt>
      <trkpt lat="44.61702" lon="3.58362">
        <ele>1348.39</ele>
        <time>2020-08-08T12:53:21Z</time>
      </trkpt>
      <trkpt lat="44.61695" lon="3.58371">
        <ele>1348.39</ele>
        <time>2020-08-08T12:53:28Z</time>
      </trkpt>
      <trkpt lat="44.61692" lon="3.58374">
        <ele>1348.87</ele>
        <time>2020-08-08T12:53:31Z</time>
      </trkpt>
      <trkpt lat="44.61685" lon="3.58381">
        <ele>1348.87</ele>
        <time>2020-08-08T12:53:37Z</time>
      </trkpt>
      <trkpt lat="44.61681" lon="3.58385">
        <ele>1348.87</ele>
        <time>2020-08-08T12:53:41Z</time>
      </trkpt>
      <trkpt lat="44.61675" lon="3.5839">
        <ele>1349.35</ele>
        <time>2020-08-08T12:53:46Z</time>
      </trkpt>
      <trkpt lat="44.61666" lon="3.58398">
        <ele>1349.83</ele>
        <time>2020-08-08T12:53:54Z</time>
      </trkpt>
      <trkpt lat="44.61652" lon="3.5841">
        <ele>1350.31</ele>
        <time>2020-08-08T12:54:07Z</time>
      </trkpt>
      <trkpt lat="44.61635" lon="3.58418">
        <ele>1350.79</ele>
        <time>2020-08-08T12:54:21Z</time>
      </trkpt>
      <trkpt lat="44.61629" lon="3.58422">
        <ele>1351.27</ele>
        <time>2020-08-08T12:54:27Z</time>
      </trkpt>
      <trkpt lat="44.61614" lon="3.58429">
        <ele>1351.27</ele>
        <time>2020-08-08T12:54:40Z</time>
      </trkpt>
      <trkpt lat="44.61605" lon="3.58432">
        <ele>1351.75</ele>
        <time>2020-08-08T12:54:46Z</time>
      </trkpt>
      <trkpt lat="44.61596" lon="3.58437">
        <ele>1352.23</ele>
        <time>2020-08-08T12:54:54Z</time>
      </trkpt>
      <trkpt lat="44.6158" lon="3.58444">
        <ele>1352.71</ele>
        <time>2020-08-08T12:55:06Z</time>
      </trkpt>
      <trkpt lat="44.61569" lon="3.58452">
        <ele>1353.19</ele>
        <time>2020-08-08T12:55:15Z</time>
      </trkpt>
      <trkpt lat="44.61568" lon="3.58453">
        <ele>1353.19</ele>
        <time>2020-08-08T12:55:16Z</time>
      </trkpt>
      <trkpt lat="44.61565" lon="3.58456">
        <ele>1352.71</ele>
        <time>2020-08-08T12:55:19Z</time>
      </trkpt>
      <trkpt lat="44.61553" lon="3.58468">
        <ele>1353.67</ele>
        <time>2020-08-08T12:55:30Z</time>
      </trkpt>
      <trkpt lat="44.61552" lon="3.58469">
        <ele>1353.67</ele>
        <time>2020-08-08T12:55:31Z</time>
      </trkpt>
      <trkpt lat="44.6155" lon="3.58473">
        <ele>1354.15</ele>
        <time>2020-08-08T12:55:34Z</time>
      </trkpt>
      <trkpt lat="44.61539" lon="3.58489">
        <ele>1354.15</ele>
        <time>2020-08-08T12:55:46Z</time>
      </trkpt>
      <trkpt lat="44.61532" lon="3.58507">
        <ele>1354.63</ele>
        <time>2020-08-08T12:55:58Z</time>
      </trkpt>
      <trkpt lat="44.61524" lon="3.58528">
        <ele>1355.6</ele>
        <time>2020-08-08T12:56:13Z</time>
      </trkpt>
      <trkpt lat="44.61518" lon="3.58545">
        <ele>1356.08</ele>
        <time>2020-08-08T12:56:24Z</time>
      </trkpt>
      <trkpt lat="44.61518" lon="3.58547">
        <ele>1356.08</ele>
        <time>2020-08-08T12:56:25Z</time>
      </trkpt>
      <trkpt lat="44.61513" lon="3.58567">
        <ele>1356.56</ele>
        <time>2020-08-08T12:56:38Z</time>
      </trkpt>
      <trkpt lat="44.61512" lon="3.58576">
        <ele>1356.56</ele>
        <time>2020-08-08T12:56:43Z</time>
      </trkpt>
      <trkpt lat="44.61511" lon="3.58587">
        <ele>1357.04</ele>
        <time>2020-08-08T12:56:49Z</time>
      </trkpt>
      <trkpt lat="44.61511" lon="3.5859">
        <ele>1357.04</ele>
        <time>2020-08-08T12:56:51Z</time>
      </trkpt>
      <trkpt lat="44.61511" lon="3.58601">
        <ele>1357.52</ele>
        <time>2020-08-08T12:56:56Z</time>
      </trkpt>
      <trkpt lat="44.61506" lon="3.58624">
        <ele>1357.52</ele>
        <time>2020-08-08T12:57:09Z</time>
      </trkpt>
      <trkpt lat="44.61505" lon="3.58629">
        <ele>1358</ele>
        <time>2020-08-08T12:57:12Z</time>
      </trkpt>
      <trkpt lat="44.61503" lon="3.58641">
        <ele>1358</ele>
        <time>2020-08-08T12:57:19Z</time>
      </trkpt>
      <trkpt lat="44.61503" lon="3.58645">
        <ele>1358.48</ele>
        <time>2020-08-08T12:57:21Z</time>
      </trkpt>
      <trkpt lat="44.61502" lon="3.58648">
        <ele>1358.48</ele>
        <time>2020-08-08T12:57:23Z</time>
      </trkpt>
      <trkpt lat="44.61503" lon="3.58659">
        <ele>1358.48</ele>
        <time>2020-08-08T12:57:29Z</time>
      </trkpt>
      <trkpt lat="44.61502" lon="3.58673">
        <ele>1358.96</ele>
        <time>2020-08-08T12:57:41Z</time>
      </trkpt>
      <trkpt lat="44.61502" lon="3.58675">
        <ele>1358.96</ele>
        <time>2020-08-08T12:57:42Z</time>
      </trkpt>
      <trkpt lat="44.615" lon="3.58682">
        <ele>1358.96</ele>
        <time>2020-08-08T12:57:47Z</time>
      </trkpt>
      <trkpt lat="44.61499" lon="3.58689">
        <ele>1358.96</ele>
        <time>2020-08-08T12:57:51Z</time>
      </trkpt>
      <trkpt lat="44.61497" lon="3.58704">
        <ele>1358.96</ele>
        <time>2020-08-08T12:57:59Z</time>
      </trkpt>
      <trkpt lat="44.61497" lon="3.58707">
        <ele>1359.44</ele>
        <time>2020-08-08T12:58:01Z</time>
      </trkpt>
      <trkpt lat="44.61498" lon="3.58718">
        <ele>1359.44</ele>
        <time>2020-08-08T12:58:09Z</time>
      </trkpt>
      <trkpt lat="44.61497" lon="3.58722">
        <ele>1359.44</ele>
        <time>2020-08-08T12:58:11Z</time>
      </trkpt>
      <trkpt lat="44.61497" lon="3.58742">
        <ele>1359.44</ele>
        <time>2020-08-08T12:58:23Z</time>
      </trkpt>
      <trkpt lat="44.61497" lon="3.58743">
        <ele>1358.96</ele>
        <time>2020-08-08T12:58:24Z</time>
      </trkpt>
      <trkpt lat="44.61497" lon="3.58746">
        <ele>1358.96</ele>
        <time>2020-08-08T12:58:26Z</time>
      </trkpt>
      <trkpt lat="44.61496" lon="3.58764">
        <ele>1358.96</ele>
        <time>2020-08-08T12:58:37Z</time>
      </trkpt>
      <trkpt lat="44.61494" lon="3.58777">
        <ele>1358.96</ele>
        <time>2020-08-08T12:58:46Z</time>
      </trkpt>
      <trkpt lat="44.61493" lon="3.58786">
        <ele>1358.48</ele>
        <time>2020-08-08T12:58:50Z</time>
      </trkpt>
      <trkpt lat="44.61489" lon="3.588">
        <ele>1358.48</ele>
        <time>2020-08-08T12:58:58Z</time>
      </trkpt>
      <trkpt lat="44.61474" lon="3.58826">
        <ele>1358</ele>
        <time>2020-08-08T12:59:14Z</time>
      </trkpt>
      <trkpt lat="44.61462" lon="3.58847">
        <ele>1358</ele>
        <time>2020-08-08T12:59:28Z</time>
      </trkpt>
      <trkpt lat="44.61457" lon="3.58851">
        <ele>1358</ele>
        <time>2020-08-08T12:59:32Z</time>
      </trkpt>
      <trkpt lat="44.61453" lon="3.58852">
        <ele>1358.48</ele>
        <time>2020-08-08T12:59:39Z</time>
      </trkpt>
      <trkpt lat="44.61445" lon="3.58842">
        <ele>1359.92</ele>
        <time>2020-08-08T12:59:49Z</time>
      </trkpt>
      <trkpt lat="44.61446" lon="3.58841">
        <ele>1359.92</ele>
        <time>2020-08-08T12:59:50Z</time>
      </trkpt>
      <trkpt lat="44.61445" lon="3.58836">
        <ele>1359.92</ele>
        <time>2020-08-08T12:59:53Z</time>
      </trkpt>
      <trkpt lat="44.61444" lon="3.58826">
        <ele>1360.4</ele>
        <time>2020-08-08T13:00:00Z</time>
      </trkpt>
      <trkpt lat="44.6144" lon="3.58808">
        <ele>1360.88</ele>
        <time>2020-08-08T13:00:12Z</time>
      </trkpt>
      <trkpt lat="44.61439" lon="3.58797">
        <ele>1361.36</ele>
        <time>2020-08-08T13:00:23Z</time>
      </trkpt>
      <trkpt lat="44.61439" lon="3.58796">
        <ele>1361.36</ele>
        <time>2020-08-08T13:00:26Z</time>
      </trkpt>
      <trkpt lat="44.61435" lon="3.58794">
        <ele>1361.84</ele>
        <time>2020-08-08T13:00:39Z</time>
      </trkpt>
      <trkpt lat="44.61435" lon="3.58794">
        <ele>1361.84</ele>
        <time>2020-08-08T13:01:00Z</time>
      </trkpt>
      <trkpt lat="44.61434" lon="3.58793">
        <ele>1361.84</ele>
        <time>2020-08-08T13:01:23Z</time>
      </trkpt>
      <trkpt lat="44.61434" lon="3.58793">
        <ele>1361.84</ele>
        <time>2020-08-08T13:01:49Z</time>
      </trkpt>
      <trkpt lat="44.61434" lon="3.58792">
        <ele>1361.84</ele>
        <time>2020-08-08T13:02:13Z</time>
      </trkpt>
      <trkpt lat="44.61434" lon="3.58792">
        <ele>1362.33</ele>
        <time>2020-08-08T13:02:42Z</time>
      </trkpt>
      <trkpt lat="44.61434" lon="3.58791">
        <ele>1362.33</ele>
        <time>2020-08-08T13:03:07Z</time>
      </trkpt>
      <trkpt lat="44.61434" lon="3.58791">
        <ele>1362.33</ele>
        <time>2020-08-08T13:03:23Z</time>
      </trkpt>
      <trkpt lat="44.61434" lon="3.58787">
        <ele>1362.33</ele>
        <time>2020-08-08T13:03:37Z</time>
      </trkpt>
      <trkpt lat="44.61434" lon="3.58771">
        <ele>1362.81</ele>
        <time>2020-08-08T13:03:45Z</time>
      </trkpt>
      <trkpt lat="44.61433" lon="3.58764">
        <ele>1362.81</ele>
        <time>2020-08-08T13:03:51Z</time>
      </trkpt>
      <trkpt lat="44.61432" lon="3.58759">
        <ele>1363.29</ele>
        <time>2020-08-08T13:03:54Z</time>
      </trkpt>
      <trkpt lat="44.6143" lon="3.58743">
        <ele>1363.77</ele>
        <time>2020-08-08T13:04:04Z</time>
      </trkpt>
      <trkpt lat="44.6143" lon="3.58742">
        <ele>1363.77</ele>
        <time>2020-08-08T13:04:05Z</time>
      </trkpt>
      <trkpt lat="44.61426" lon="3.5873">
        <ele>1365.21</ele>
        <time>2020-08-08T13:04:12Z</time>
      </trkpt>
      <trkpt lat="44.61422" lon="3.58724">
        <ele>1364.25</ele>
        <time>2020-08-08T13:04:16Z</time>
      </trkpt>
      <trkpt lat="44.61417" lon="3.5871">
        <ele>1363.77</ele>
        <time>2020-08-08T13:04:23Z</time>
      </trkpt>
      <trkpt lat="44.61409" lon="3.5868">
        <ele>1365.69</ele>
        <time>2020-08-08T13:04:39Z</time>
      </trkpt>
      <trkpt lat="44.61404" lon="3.58664">
        <ele>1366.17</ele>
        <time>2020-08-08T13:04:49Z</time>
      </trkpt>
      <trkpt lat="44.61399" lon="3.58639">
        <ele>1366.17</ele>
        <time>2020-08-08T13:05:05Z</time>
      </trkpt>
      <trkpt lat="44.61399" lon="3.58632">
        <ele>1366.17</ele>
        <time>2020-08-08T13:05:11Z</time>
      </trkpt>
      <trkpt lat="44.61399" lon="3.58629">
        <ele>1366.65</ele>
        <time>2020-08-08T13:05:14Z</time>
      </trkpt>
      <trkpt lat="44.61398" lon="3.58614">
        <ele>1366.65</ele>
        <time>2020-08-08T13:05:22Z</time>
      </trkpt>
      <trkpt lat="44.61397" lon="3.58609">
        <ele>1367.13</ele>
        <time>2020-08-08T13:05:27Z</time>
      </trkpt>
      <trkpt lat="44.61398" lon="3.58607">
        <ele>1367.13</ele>
        <time>2020-08-08T13:05:29Z</time>
      </trkpt>
      <trkpt lat="44.61394" lon="3.58584">
        <ele>1368.09</ele>
        <time>2020-08-08T13:05:42Z</time>
      </trkpt>
      <trkpt lat="44.6139" lon="3.5857">
        <ele>1368.57</ele>
        <time>2020-08-08T13:05:52Z</time>
      </trkpt>
      <trkpt lat="44.61389" lon="3.58565">
        <ele>1369.05</ele>
        <time>2020-08-08T13:05:55Z</time>
      </trkpt>
      <trkpt lat="44.61388" lon="3.58558">
        <ele>1369.05</ele>
        <time>2020-08-08T13:06:00Z</time>
      </trkpt>
      <trkpt lat="44.61387" lon="3.58548">
        <ele>1369.54</ele>
        <time>2020-08-08T13:06:05Z</time>
      </trkpt>
      <trkpt lat="44.61384" lon="3.58536">
        <ele>1370.02</ele>
        <time>2020-08-08T13:06:11Z</time>
      </trkpt>
      <trkpt lat="44.6138" lon="3.58521">
        <ele>1370.5</ele>
        <time>2020-08-08T13:06:20Z</time>
      </trkpt>
      <trkpt lat="44.61377" lon="3.58506">
        <ele>1370.98</ele>
        <time>2020-08-08T13:06:29Z</time>
      </trkpt>
      <trkpt lat="44.61376" lon="3.58501">
        <ele>1370.98</ele>
        <time>2020-08-08T13:06:32Z</time>
      </trkpt>
      <trkpt lat="44.6137" lon="3.58485">
        <ele>1371.46</ele>
        <time>2020-08-08T13:06:43Z</time>
      </trkpt>
      <trkpt lat="44.61369" lon="3.58479">
        <ele>1371.46</ele>
        <time>2020-08-08T13:06:47Z</time>
      </trkpt>
      <trkpt lat="44.61363" lon="3.58459">
        <ele>1372.42</ele>
        <time>2020-08-08T13:06:58Z</time>
      </trkpt>
      <trkpt lat="44.61355" lon="3.58442">
        <ele>1371.94</ele>
        <time>2020-08-08T13:07:09Z</time>
      </trkpt>
      <trkpt lat="44.61349" lon="3.58427">
        <ele>1372.42</ele>
        <time>2020-08-08T13:07:18Z</time>
      </trkpt>
      <trkpt lat="44.61348" lon="3.58424">
        <ele>1372.42</ele>
        <time>2020-08-08T13:07:20Z</time>
      </trkpt>
      <trkpt lat="44.61345" lon="3.58413">
        <ele>1372.42</ele>
        <time>2020-08-08T13:07:26Z</time>
      </trkpt>
      <trkpt lat="44.61341" lon="3.58399">
        <ele>1372.9</ele>
        <time>2020-08-08T13:07:33Z</time>
      </trkpt>
      <trkpt lat="44.6134" lon="3.58396">
        <ele>1372.42</ele>
        <time>2020-08-08T13:07:35Z</time>
      </trkpt>
      <trkpt lat="44.61338" lon="3.58388">
        <ele>1372.9</ele>
        <time>2020-08-08T13:07:39Z</time>
      </trkpt>
      <trkpt lat="44.61333" lon="3.58367">
        <ele>1372.9</ele>
        <time>2020-08-08T13:07:50Z</time>
      </trkpt>
      <trkpt lat="44.61326" lon="3.58352">
        <ele>1373.38</ele>
        <time>2020-08-08T13:08:02Z</time>
      </trkpt>
      <trkpt lat="44.61322" lon="3.58334">
        <ele>1373.86</ele>
        <time>2020-08-08T13:08:13Z</time>
      </trkpt>
      <trkpt lat="44.61321" lon="3.58333">
        <ele>1373.86</ele>
        <time>2020-08-08T13:08:14Z</time>
      </trkpt>
      <trkpt lat="44.6132" lon="3.58326">
        <ele>1374.34</ele>
        <time>2020-08-08T13:08:18Z</time>
      </trkpt>
      <trkpt lat="44.61317" lon="3.58312">
        <ele>1374.34</ele>
        <time>2020-08-08T13:08:28Z</time>
      </trkpt>
      <trkpt lat="44.61315" lon="3.58304">
        <ele>1375.3</ele>
        <time>2020-08-08T13:08:34Z</time>
      </trkpt>
      <trkpt lat="44.61315" lon="3.58293">
        <ele>1375.78</ele>
        <time>2020-08-08T13:08:39Z</time>
      </trkpt>
      <trkpt lat="44.61314" lon="3.5829">
        <ele>1375.78</ele>
        <time>2020-08-08T13:08:41Z</time>
      </trkpt>
      <trkpt lat="44.61313" lon="3.5828">
        <ele>1376.26</ele>
        <time>2020-08-08T13:08:47Z</time>
      </trkpt>
      <trkpt lat="44.61303" lon="3.58269">
        <ele>1376.75</ele>
        <time>2020-08-08T13:08:54Z</time>
      </trkpt>
      <trkpt lat="44.61304" lon="3.5826">
        <ele>1377.23</ele>
        <time>2020-08-08T13:08:59Z</time>
      </trkpt>
      <trkpt lat="44.61299" lon="3.58242">
        <ele>1378.67</ele>
        <time>2020-08-08T13:09:11Z</time>
      </trkpt>
      <trkpt lat="44.61298" lon="3.58239">
        <ele>1378.67</ele>
        <time>2020-08-08T13:09:13Z</time>
      </trkpt>
      <trkpt lat="44.61295" lon="3.58218">
        <ele>1380.11</ele>
        <time>2020-08-08T13:09:26Z</time>
      </trkpt>
      <trkpt lat="44.61293" lon="3.58201">
        <ele>1381.07</ele>
        <time>2020-08-08T13:09:37Z</time>
      </trkpt>
      <trkpt lat="44.61293" lon="3.582">
        <ele>1381.07</ele>
        <time>2020-08-08T13:09:38Z</time>
      </trkpt>
      <trkpt lat="44.61293" lon="3.58197">
        <ele>1381.55</ele>
        <time>2020-08-08T13:09:40Z</time>
      </trkpt>
      <trkpt lat="44.61285" lon="3.58182">
        <ele>1382.03</ele>
        <time>2020-08-08T13:09:50Z</time>
      </trkpt>
      <trkpt lat="44.61284" lon="3.58181">
        <ele>1382.51</ele>
        <time>2020-08-08T13:09:51Z</time>
      </trkpt>
      <trkpt lat="44.61283" lon="3.58175">
        <ele>1382.51</ele>
        <time>2020-08-08T13:09:54Z</time>
      </trkpt>
      <trkpt lat="44.61278" lon="3.58154">
        <ele>1383.47</ele>
        <time>2020-08-08T13:10:05Z</time>
      </trkpt>
      <trkpt lat="44.61276" lon="3.58142">
        <ele>1383.96</ele>
        <time>2020-08-08T13:10:11Z</time>
      </trkpt>
      <trkpt lat="44.61267" lon="3.58121">
        <ele>1385.4</ele>
        <time>2020-08-08T13:10:24Z</time>
      </trkpt>
      <trkpt lat="44.61266" lon="3.5812">
        <ele>1385.4</ele>
        <time>2020-08-08T13:10:26Z</time>
      </trkpt>
      <trkpt lat="44.6126" lon="3.581">
        <ele>1386.36</ele>
        <time>2020-08-08T13:10:37Z</time>
      </trkpt>
      <trkpt lat="44.61253" lon="3.58078">
        <ele>1386.84</ele>
        <time>2020-08-08T13:10:49Z</time>
      </trkpt>
      <trkpt lat="44.61245" lon="3.58064">
        <ele>1387.32</ele>
        <time>2020-08-08T13:10:59Z</time>
      </trkpt>
      <trkpt lat="44.61243" lon="3.58059">
        <ele>1387.32</ele>
        <time>2020-08-08T13:11:02Z</time>
      </trkpt>
      <trkpt lat="44.61238" lon="3.58045">
        <ele>1387.8</ele>
        <time>2020-08-08T13:11:10Z</time>
      </trkpt>
      <trkpt lat="44.61232" lon="3.58026">
        <ele>1388.28</ele>
        <time>2020-08-08T13:11:21Z</time>
      </trkpt>
      <trkpt lat="44.61228" lon="3.58011">
        <ele>1388.76</ele>
        <time>2020-08-08T13:11:30Z</time>
      </trkpt>
      <trkpt lat="44.61229" lon="3.58006">
        <ele>1388.76</ele>
        <time>2020-08-08T13:11:33Z</time>
      </trkpt>
      <trkpt lat="44.61228" lon="3.57994">
        <ele>1389.72</ele>
        <time>2020-08-08T13:11:40Z</time>
      </trkpt>
      <trkpt lat="44.61217" lon="3.57969">
        <ele>1389.24</ele>
        <time>2020-08-08T13:11:52Z</time>
      </trkpt>
      <trkpt lat="44.61208" lon="3.57944">
        <ele>1390.2</ele>
        <time>2020-08-08T13:12:06Z</time>
      </trkpt>
      <trkpt lat="44.61202" lon="3.57924">
        <ele>1390.2</ele>
        <time>2020-08-08T13:12:18Z</time>
      </trkpt>
      <trkpt lat="44.61199" lon="3.57913">
        <ele>1390.2</ele>
        <time>2020-08-08T13:12:24Z</time>
      </trkpt>
      <trkpt lat="44.61192" lon="3.57904">
        <ele>1390.68</ele>
        <time>2020-08-08T13:12:31Z</time>
      </trkpt>
      <trkpt lat="44.61189" lon="3.57894">
        <ele>1390.68</ele>
        <time>2020-08-08T13:12:37Z</time>
      </trkpt>
      <trkpt lat="44.61186" lon="3.57891">
        <ele>1390.68</ele>
        <time>2020-08-08T13:12:40Z</time>
      </trkpt>
      <trkpt lat="44.61182" lon="3.57873">
        <ele>1391.17</ele>
        <time>2020-08-08T13:12:50Z</time>
      </trkpt>
      <trkpt lat="44.6118" lon="3.57861">
        <ele>1391.65</ele>
        <time>2020-08-08T13:12:58Z</time>
      </trkpt>
      <trkpt lat="44.61178" lon="3.57847">
        <ele>1391.65</ele>
        <time>2020-08-08T13:13:06Z</time>
      </trkpt>
      <trkpt lat="44.61172" lon="3.57825">
        <ele>1392.13</ele>
        <time>2020-08-08T13:13:17Z</time>
      </trkpt>
      <trkpt lat="44.6117" lon="3.57804">
        <ele>1392.61</ele>
        <time>2020-08-08T13:13:28Z</time>
      </trkpt>
      <trkpt lat="44.61168" lon="3.57798">
        <ele>1392.61</ele>
        <time>2020-08-08T13:13:32Z</time>
      </trkpt>
      <trkpt lat="44.61166" lon="3.57781">
        <ele>1392.61</ele>
        <time>2020-08-08T13:13:40Z</time>
      </trkpt>
      <trkpt lat="44.61163" lon="3.57772">
        <ele>1392.61</ele>
        <time>2020-08-08T13:13:45Z</time>
      </trkpt>
      <trkpt lat="44.61162" lon="3.57766">
        <ele>1393.09</ele>
        <time>2020-08-08T13:13:51Z</time>
      </trkpt>
      <trkpt lat="44.6116" lon="3.57754">
        <ele>1393.09</ele>
        <time>2020-08-08T13:13:56Z</time>
      </trkpt>
      <trkpt lat="44.61155" lon="3.57731">
        <ele>1393.57</ele>
        <time>2020-08-08T13:14:09Z</time>
      </trkpt>
      <trkpt lat="44.61151" lon="3.5772">
        <ele>1393.57</ele>
        <time>2020-08-08T13:14:20Z</time>
      </trkpt>
      <trkpt lat="44.61147" lon="3.57701">
        <ele>1394.05</ele>
        <time>2020-08-08T13:14:29Z</time>
      </trkpt>
      <trkpt lat="44.61145" lon="3.57697">
        <ele>1394.53</ele>
        <time>2020-08-08T13:14:32Z</time>
      </trkpt>
      <trkpt lat="44.61142" lon="3.57671">
        <ele>1395.01</ele>
        <time>2020-08-08T13:14:44Z</time>
      </trkpt>
      <trkpt lat="44.61139" lon="3.57664">
        <ele>1395.01</ele>
        <time>2020-08-08T13:14:49Z</time>
      </trkpt>
      <trkpt lat="44.61138" lon="3.57657">
        <ele>1395.01</ele>
        <time>2020-08-08T13:14:52Z</time>
      </trkpt>
      <trkpt lat="44.61131" lon="3.5764">
        <ele>1395.49</ele>
        <time>2020-08-08T13:15:04Z</time>
      </trkpt>
      <trkpt lat="44.6113" lon="3.57638">
        <ele>1395.49</ele>
        <time>2020-08-08T13:15:06Z</time>
      </trkpt>
      <trkpt lat="44.61126" lon="3.57615">
        <ele>1395.49</ele>
        <time>2020-08-08T13:15:17Z</time>
      </trkpt>
      <trkpt lat="44.61126" lon="3.57614">
        <ele>1395.97</ele>
        <time>2020-08-08T13:15:18Z</time>
      </trkpt>
      <trkpt lat="44.61125" lon="3.57606">
        <ele>1395.97</ele>
        <time>2020-08-08T13:15:30Z</time>
      </trkpt>
      <trkpt lat="44.61123" lon="3.57603">
        <ele>1395.97</ele>
        <time>2020-08-08T13:15:32Z</time>
      </trkpt>
      <trkpt lat="44.6112" lon="3.57585">
        <ele>1396.45</ele>
        <time>2020-08-08T13:15:41Z</time>
      </trkpt>
      <trkpt lat="44.61118" lon="3.57575">
        <ele>1396.93</ele>
        <time>2020-08-08T13:15:49Z</time>
      </trkpt>
      <trkpt lat="44.61107" lon="3.5755">
        <ele>1397.41</ele>
        <time>2020-08-08T13:16:02Z</time>
      </trkpt>
      <trkpt lat="44.61103" lon="3.57541">
        <ele>1398.37</ele>
        <time>2020-08-08T13:16:07Z</time>
      </trkpt>
    </trkseg>
  </trk>
</gpx>